<?xml version="1.0" encoding="UTF-8" standalone="no" ?>
<gpx xmlns="http://www.topografix.com/GPX/1/1" creator="MapSource 6.16.3" version="1.1" xmlns:xsi="http://www.w3.org/2001/XMLSchema-instance" xsi:schemaLocation="http://www.topografix.com/GPX/1/1 http://www.topografix.com/GPX/1/1/gpx.xsd">

  <metadata>
    <link href="http://www.garmin.com">
      <text>Garmin International</text>
    </link>
    <time>2016-09-17T07:49:38Z</time>
    <bounds maxlat="45.838565826416016" maxlon="9.206006526947022" minlat="45.795671939849854" minlon="9.134809970855713"/>
  </metadata>

  <wpt lat="45.800483319908381" lon="9.184399992227554">
    <name>ARRIVO</name>
    <cmt>Via Don Felice Ballabio</cmt>
    <desc>Via Don Felice Ballabio</desc>
    <sym>Diamond, Green</sym>
    <extensions>
      <gpxx:WaypointExtension xmlns:gpxx="http://www.garmin.com/xmlschemas/GpxExtensions/v3">
        <gpxx:DisplayMode>SymbolAndName</gpxx:DisplayMode>
      </gpxx:WaypointExtension>
    </extensions>
  </wpt>

  <wpt lat="45.800499999895692" lon="9.184399992227554">
    <name>PARTENZA</name>
    <sym>Trail Head</sym>
    <extensions>
      <gpxx:WaypointExtension xmlns:gpxx="http://www.garmin.com/xmlschemas/GpxExtensions/v3">
        <gpxx:DisplayMode>SymbolAndName</gpxx:DisplayMode>
      </gpxx:WaypointExtension>
    </extensions>
  </wpt>

  <trk>
    <name>ACTIVE LOG</name>
    <trkseg>
      <trkpt lat="45.80049991607666" lon="9.184398651123047">
        <ele>419.7528076171875</ele>
        <time>2006-03-19T08:54:12Z</time>
      </trkpt>
      <trkpt lat="45.80049991607666" lon="9.184355735778809">
        <ele>417.349609375</ele>
        <time>2006-03-19T08:54:34Z</time>
      </trkpt>
      <trkpt lat="45.80049991607666" lon="9.184248447418213">
        <ele>417.349609375</ele>
        <time>2006-03-19T08:54:39Z</time>
      </trkpt>
      <trkpt lat="45.800521373748779" lon="9.184226989746094">
        <ele>417.349609375</ele>
        <time>2006-03-19T08:54:48Z</time>
      </trkpt>
      <trkpt lat="45.800542831420898" lon="9.184205532073975">
        <ele>428.4046630859375</ele>
        <time>2006-03-19T08:56:31Z</time>
      </trkpt>
      <trkpt lat="45.800542831420898" lon="9.184098243713379">
        <ele>426.9627685546875</ele>
        <time>2006-03-19T08:56:35Z</time>
      </trkpt>
      <trkpt lat="45.800542831420898" lon="9.18381929397583">
        <ele>425.0401611328125</ele>
        <time>2006-03-19T08:56:43Z</time>
      </trkpt>
      <trkpt lat="45.800693035125732" lon="9.1835618019104">
        <ele>425.520751953125</ele>
        <time>2006-03-19T08:56:52Z</time>
      </trkpt>
      <trkpt lat="45.800864696502686" lon="9.183411598205566">
        <ele>425.520751953125</ele>
        <time>2006-03-19T08:57:01Z</time>
      </trkpt>
      <trkpt lat="45.800971984863281" lon="9.183518886566162">
        <ele>424.5594482421875</ele>
        <time>2006-03-19T08:57:07Z</time>
      </trkpt>
      <trkpt lat="45.801208019256592" lon="9.183883666992188">
        <ele>423.117431640625</ele>
        <time>2006-03-19T08:57:22Z</time>
      </trkpt>
      <trkpt lat="45.801358222961426" lon="9.184119701385498">
        <ele>422.63671875</ele>
        <time>2006-03-19T08:57:32Z</time>
      </trkpt>
      <trkpt lat="45.801465511322021" lon="9.184248447418213">
        <ele>422.156005859375</ele>
        <time>2006-03-19T08:57:39Z</time>
      </trkpt>
      <trkpt lat="45.801594257354736" lon="9.184548854827881">
        <ele>423.5980224609375</ele>
        <time>2006-03-19T08:57:49Z</time>
      </trkpt>
      <trkpt lat="45.801701545715332" lon="9.184784889221191">
        <ele>424.5594482421875</ele>
        <time>2006-03-19T08:57:57Z</time>
      </trkpt>
      <trkpt lat="45.801873207092285" lon="9.185042381286621">
        <ele>426.0013427734375</ele>
        <time>2006-03-19T08:58:08Z</time>
      </trkpt>
      <trkpt lat="45.802066326141357" lon="9.18532133102417">
        <ele>427.443359375</ele>
        <time>2006-03-19T08:58:21Z</time>
      </trkpt>
      <trkpt lat="45.802195072174072" lon="9.185364246368408">
        <ele>428.8853759765625</ele>
        <time>2006-03-19T08:58:29Z</time>
      </trkpt>
      <trkpt lat="45.802280902862549" lon="9.185385704040527">
        <ele>430.8079833984375</ele>
        <time>2006-03-19T08:58:38Z</time>
      </trkpt>
      <trkpt lat="45.802280902862549" lon="9.185385704040527">
        <ele>430.8079833984375</ele>
        <time>2006-03-19T08:58:45Z</time>
      </trkpt>
      <trkpt lat="45.802280902862549" lon="9.185385704040527">
        <ele>432.25</ele>
        <time>2006-03-19T08:59:22Z</time>
      </trkpt>
      <trkpt lat="45.802302360534668" lon="9.185407161712647">
        <ele>444.2664794921875</ele>
        <time>2006-03-19T09:00:03Z</time>
      </trkpt>
      <trkpt lat="45.802345275878906" lon="9.185514450073242">
        <ele>443.3050537109375</ele>
        <time>2006-03-19T09:00:08Z</time>
      </trkpt>
      <trkpt lat="45.802452564239502" lon="9.185922145843506">
        <ele>440.90185546875</ele>
        <time>2006-03-19T09:00:19Z</time>
      </trkpt>
      <trkpt lat="45.802538394927979" lon="9.186286926269531">
        <ele>438.017822265625</ele>
        <time>2006-03-19T09:00:29Z</time>
      </trkpt>
      <trkpt lat="45.80275297164917" lon="9.186587333679199">
        <ele>436.575927734375</ele>
        <time>2006-03-19T09:00:40Z</time>
      </trkpt>
      <trkpt lat="45.802881717681885" lon="9.186887741088867">
        <ele>434.6533203125</ele>
        <time>2006-03-19T09:00:47Z</time>
      </trkpt>
      <trkpt lat="45.803031921386719" lon="9.187424182891846">
        <ele>432.730712890625</ele>
        <time>2006-03-19T09:00:56Z</time>
      </trkpt>
      <trkpt lat="45.80298900604248" lon="9.187617301940918">
        <ele>432.730712890625</ele>
        <time>2006-03-19T09:00:59Z</time>
      </trkpt>
      <trkpt lat="45.803031921386719" lon="9.188110828399658">
        <ele>432.25</ele>
        <time>2006-03-19T09:01:05Z</time>
      </trkpt>
      <trkpt lat="45.803053379058838" lon="9.188196659088135">
        <ele>432.25</ele>
        <time>2006-03-19T09:01:06Z</time>
      </trkpt>
      <trkpt lat="45.803139209747314" lon="9.188261032104492">
        <ele>432.25</ele>
        <time>2006-03-19T09:01:09Z</time>
      </trkpt>
      <trkpt lat="45.803353786468506" lon="9.188368320465088">
        <ele>432.730712890625</ele>
        <time>2006-03-19T09:01:17Z</time>
      </trkpt>
      <trkpt lat="45.803675651550293" lon="9.188625812530518">
        <ele>432.730712890625</ele>
        <time>2006-03-19T09:01:27Z</time>
      </trkpt>
      <trkpt lat="45.803697109222412" lon="9.188668727874756">
        <ele>432.730712890625</ele>
        <time>2006-03-19T09:01:29Z</time>
      </trkpt>
      <trkpt lat="45.803890228271484" lon="9.188733100891113">
        <ele>432.730712890625</ele>
        <time>2006-03-19T09:01:44Z</time>
      </trkpt>
      <trkpt lat="45.803933143615723" lon="9.188754558563232">
        <ele>432.730712890625</ele>
        <time>2006-03-19T09:01:46Z</time>
      </trkpt>
      <trkpt lat="45.804126262664795" lon="9.188947677612305">
        <ele>433.69189453125</ele>
        <time>2006-03-19T09:02:00Z</time>
      </trkpt>
      <trkpt lat="45.804340839385986" lon="9.189205169677734">
        <ele>434.172607421875</ele>
        <time>2006-03-19T09:02:12Z</time>
      </trkpt>
      <trkpt lat="45.804555416107178" lon="9.189398288726807">
        <ele>434.172607421875</ele>
        <time>2006-03-19T09:02:21Z</time>
      </trkpt>
      <trkpt lat="45.804791450500488" lon="9.189634323120117">
        <ele>436.575927734375</ele>
        <time>2006-03-19T09:02:32Z</time>
      </trkpt>
      <trkpt lat="45.80500602722168" lon="9.189741611480713">
        <ele>438.9791259765625</ele>
        <time>2006-03-19T09:02:41Z</time>
      </trkpt>
      <trkpt lat="45.805177688598633" lon="9.189891815185547">
        <ele>443.3050537109375</ele>
        <time>2006-03-19T09:02:50Z</time>
      </trkpt>
      <trkpt lat="45.805327892303467" lon="9.190127849578857">
        <ele>446.669677734375</ele>
        <time>2006-03-19T09:03:00Z</time>
      </trkpt>
      <trkpt lat="45.805478096008301" lon="9.190406799316406">
        <ele>449.072998046875</ele>
        <time>2006-03-19T09:03:11Z</time>
      </trkpt>
      <trkpt lat="45.805714130401611" lon="9.19081449508667">
        <ele>450.5150146484375</ele>
        <time>2006-03-19T09:03:25Z</time>
      </trkpt>
      <trkpt lat="45.805864334106445" lon="9.191222190856934">
        <ele>451.476318359375</ele>
        <time>2006-03-19T09:03:37Z</time>
      </trkpt>
      <trkpt lat="45.806121826171875" lon="9.191865921020508">
        <ele>452.4376220703125</ele>
        <time>2006-03-19T09:03:53Z</time>
      </trkpt>
      <trkpt lat="45.806293487548828" lon="9.192209243774414">
        <ele>453.879638671875</ele>
        <time>2006-03-19T09:04:03Z</time>
      </trkpt>
      <trkpt lat="45.806465148925781" lon="9.192380905151367">
        <ele>456.282958984375</ele>
        <time>2006-03-19T09:04:12Z</time>
      </trkpt>
      <trkpt lat="45.806658267974854" lon="9.192509651184082">
        <ele>457.7249755859375</ele>
        <time>2006-03-19T09:04:22Z</time>
      </trkpt>
      <trkpt lat="45.806872844696045" lon="9.192788600921631">
        <ele>457.7249755859375</ele>
        <time>2006-03-19T09:04:33Z</time>
      </trkpt>
      <trkpt lat="45.80700159072876" lon="9.193131923675537">
        <ele>458.20556640625</ele>
        <time>2006-03-19T09:04:43Z</time>
      </trkpt>
      <trkpt lat="45.807151794433594" lon="9.193496704101563">
        <ele>456.7635498046875</ele>
        <time>2006-03-19T09:04:49Z</time>
      </trkpt>
      <trkpt lat="45.807216167449951" lon="9.193668365478516">
        <ele>455.80224609375</ele>
        <time>2006-03-19T09:04:51Z</time>
      </trkpt>
      <trkpt lat="45.807409286499023" lon="9.194397926330566">
        <ele>455.80224609375</ele>
        <time>2006-03-19T09:04:58Z</time>
      </trkpt>
      <trkpt lat="45.807623863220215" lon="9.194741249084473">
        <ele>456.282958984375</ele>
        <time>2006-03-19T09:05:04Z</time>
      </trkpt>
      <trkpt lat="45.807795524597168" lon="9.195020198822022">
        <ele>457.2442626953125</ele>
        <time>2006-03-19T09:05:11Z</time>
      </trkpt>
      <trkpt lat="45.808010101318359" lon="9.195363521575928">
        <ele>458.6861572265625</ele>
        <time>2006-03-19T09:05:22Z</time>
      </trkpt>
      <trkpt lat="45.80824613571167" lon="9.195792675018311">
        <ele>458.6861572265625</ele>
        <time>2006-03-19T09:05:35Z</time>
      </trkpt>
      <trkpt lat="45.808525085449219" lon="9.196286201477051">
        <ele>458.6861572265625</ele>
        <time>2006-03-19T09:05:50Z</time>
      </trkpt>
      <trkpt lat="45.80873966217041" lon="9.196586608886719">
        <ele>459.6475830078125</ele>
        <time>2006-03-19T09:06:01Z</time>
      </trkpt>
      <trkpt lat="45.809040069580078" lon="9.196779727935791">
        <ele>460.6087646484375</ele>
        <time>2006-03-19T09:06:12Z</time>
      </trkpt>
      <trkpt lat="45.809147357940674" lon="9.197037220001221">
        <ele>463.0120849609375</ele>
        <time>2006-03-19T09:06:19Z</time>
      </trkpt>
      <trkpt lat="45.809276103973389" lon="9.197509288787842">
        <ele>464.4541015625</ele>
        <time>2006-03-19T09:06:31Z</time>
      </trkpt>
      <trkpt lat="45.809447765350342" lon="9.197874069213867">
        <ele>465.41552734375</ele>
        <time>2006-03-19T09:06:39Z</time>
      </trkpt>
      <trkpt lat="45.809726715087891" lon="9.198496341705322">
        <ele>467.338134765625</ele>
        <time>2006-03-19T09:06:53Z</time>
      </trkpt>
      <trkpt lat="45.810005664825439" lon="9.199075698852539">
        <ele>469.2607421875</ele>
        <time>2006-03-19T09:07:06Z</time>
      </trkpt>
      <trkpt lat="45.810220241546631" lon="9.19954776763916">
        <ele>469.7413330078125</ele>
        <time>2006-03-19T09:07:17Z</time>
      </trkpt>
      <trkpt lat="45.810456275939941" lon="9.199912548065186">
        <ele>468.780029296875</ele>
        <time>2006-03-19T09:07:27Z</time>
      </trkpt>
      <trkpt lat="45.810692310333252" lon="9.200234413146973">
        <ele>467.8187255859375</ele>
        <time>2006-03-19T09:07:37Z</time>
      </trkpt>
      <trkpt lat="45.810949802398682" lon="9.200577735900879">
        <ele>468.29931640625</ele>
        <time>2006-03-19T09:07:48Z</time>
      </trkpt>
      <trkpt lat="45.811271667480469" lon="9.200963973999023">
        <ele>469.2607421875</ele>
        <time>2006-03-19T09:07:59Z</time>
      </trkpt>
      <trkpt lat="45.811529159545898" lon="9.201436042785645">
        <ele>468.29931640625</ele>
        <time>2006-03-19T09:08:07Z</time>
      </trkpt>
      <trkpt lat="45.811636447906494" lon="9.201629161834717">
        <ele>467.338134765625</ele>
        <time>2006-03-19T09:08:09Z</time>
      </trkpt>
      <trkpt lat="45.811915397644043" lon="9.202208518981934">
        <ele>465.8961181640625</ele>
        <time>2006-03-19T09:08:15Z</time>
      </trkpt>
      <trkpt lat="45.812087059020996" lon="9.202444553375244">
        <ele>465.8961181640625</ele>
        <time>2006-03-19T09:08:19Z</time>
      </trkpt>
      <trkpt lat="45.81223726272583" lon="9.202573299407959">
        <ele>465.41552734375</ele>
        <time>2006-03-19T09:08:25Z</time>
      </trkpt>
      <trkpt lat="45.812366008758545" lon="9.202723503112793">
        <ele>466.376708984375</ele>
        <time>2006-03-19T09:08:34Z</time>
      </trkpt>
      <trkpt lat="45.812537670135498" lon="9.20280933380127">
        <ele>468.29931640625</ele>
        <time>2006-03-19T09:08:44Z</time>
      </trkpt>
      <trkpt lat="45.812666416168213" lon="9.202873706817627">
        <ele>470.221923828125</ele>
        <time>2006-03-19T09:08:53Z</time>
      </trkpt>
      <trkpt lat="45.812816619873047" lon="9.202938079833984">
        <ele>468.29931640625</ele>
        <time>2006-03-19T09:09:02Z</time>
      </trkpt>
      <trkpt lat="45.812945365905762" lon="9.203002452850342">
        <ele>469.2607421875</ele>
        <time>2006-03-19T09:09:11Z</time>
      </trkpt>
      <trkpt lat="45.813117027282715" lon="9.20304536819458">
        <ele>471.183349609375</ele>
        <time>2006-03-19T09:09:23Z</time>
      </trkpt>
      <trkpt lat="45.813224315643311" lon="9.203066825866699">
        <ele>476.9512939453125</ele>
        <time>2006-03-19T09:09:34Z</time>
      </trkpt>
      <trkpt lat="45.813331604003906" lon="9.203109741210938">
        <ele>482.238525390625</ele>
        <time>2006-03-19T09:09:47Z</time>
      </trkpt>
      <trkpt lat="45.813460350036621" lon="9.203088283538818">
        <ele>484.641845703125</ele>
        <time>2006-03-19T09:09:58Z</time>
      </trkpt>
      <trkpt lat="45.813524723052979" lon="9.203023910522461">
        <ele>489.4483642578125</ele>
        <time>2006-03-19T09:10:08Z</time>
      </trkpt>
      <trkpt lat="45.813696384429932" lon="9.202938079833984">
        <ele>488.4871826171875</ele>
        <time>2006-03-19T09:10:24Z</time>
      </trkpt>
      <trkpt lat="45.813825130462646" lon="9.202830791473389">
        <ele>489.4483642578125</ele>
        <time>2006-03-19T09:10:40Z</time>
      </trkpt>
      <trkpt lat="45.813825130462646" lon="9.202830791473389">
        <ele>489.4483642578125</ele>
        <time>2006-03-19T09:10:41Z</time>
      </trkpt>
      <trkpt lat="45.813889503479004" lon="9.202916622161865">
        <ele>492.3323974609375</ele>
        <time>2006-03-19T09:10:51Z</time>
      </trkpt>
      <trkpt lat="45.813889503479004" lon="9.203002452850342">
        <ele>493.7742919921875</ele>
        <time>2006-03-19T09:10:57Z</time>
      </trkpt>
      <trkpt lat="45.813868045806885" lon="9.203131198883057">
        <ele>495.2161865234375</ele>
        <time>2006-03-19T09:11:05Z</time>
      </trkpt>
      <trkpt lat="45.813889503479004" lon="9.203259944915772">
        <ele>497.138916015625</ele>
        <time>2006-03-19T09:11:15Z</time>
      </trkpt>
      <trkpt lat="45.813910961151123" lon="9.20330286026001">
        <ele>498.100341796875</ele>
        <time>2006-03-19T09:11:19Z</time>
      </trkpt>
      <trkpt lat="45.81397533416748" lon="9.203410148620606">
        <ele>500.02294921875</ele>
        <time>2006-03-19T09:11:30Z</time>
      </trkpt>
      <trkpt lat="45.814039707183838" lon="9.20356035232544">
        <ele>501.945556640625</ele>
        <time>2006-03-19T09:11:43Z</time>
      </trkpt>
      <trkpt lat="45.814082622528076" lon="9.203732013702393">
        <ele>504.348876953125</ele>
        <time>2006-03-19T09:11:56Z</time>
      </trkpt>
      <trkpt lat="45.814146995544434" lon="9.203839302062988">
        <ele>504.8294677734375</ele>
        <time>2006-03-19T09:12:08Z</time>
      </trkpt>
      <trkpt lat="45.814189910888672" lon="9.203946590423584">
        <ele>507.2327880859375</ele>
        <time>2006-03-19T09:12:16Z</time>
      </trkpt>
      <trkpt lat="45.81423282623291" lon="9.20405387878418">
        <ele>507.2327880859375</ele>
        <time>2006-03-19T09:12:27Z</time>
      </trkpt>
      <trkpt lat="45.814318656921387" lon="9.204161167144775">
        <ele>510.11669921875</ele>
        <time>2006-03-19T09:12:38Z</time>
      </trkpt>
      <trkpt lat="45.814361572265625" lon="9.204204082489014">
        <ele>513.9620361328125</ele>
        <time>2006-03-19T09:12:46Z</time>
      </trkpt>
      <trkpt lat="45.814404487609863" lon="9.20428991317749">
        <ele>522.1331787109375</ele>
        <time>2006-03-19T09:12:56Z</time>
      </trkpt>
      <trkpt lat="45.81449031829834" lon="9.204375743865967">
        <ele>523.5751953125</ele>
        <time>2006-03-19T09:13:08Z</time>
      </trkpt>
      <trkpt lat="45.814554691314697" lon="9.204483032226563">
        <ele>523.0946044921875</ele>
        <time>2006-03-19T09:13:20Z</time>
      </trkpt>
      <trkpt lat="45.814640522003174" lon="9.204568862915039">
        <ele>521.652587890625</ele>
        <time>2006-03-19T09:13:34Z</time>
      </trkpt>
      <trkpt lat="45.81474781036377" lon="9.204697608947754">
        <ele>523.5751953125</ele>
        <time>2006-03-19T09:13:48Z</time>
      </trkpt>
      <trkpt lat="45.814812183380127" lon="9.204761981964111">
        <ele>525.9783935546875</ele>
        <time>2006-03-19T09:13:59Z</time>
      </trkpt>
      <trkpt lat="45.814898014068604" lon="9.204826354980469">
        <ele>523.5751953125</ele>
        <time>2006-03-19T09:14:10Z</time>
      </trkpt>
      <trkpt lat="45.815005302429199" lon="9.204912185668945">
        <ele>525.9783935546875</ele>
        <time>2006-03-19T09:14:26Z</time>
      </trkpt>
      <trkpt lat="45.815091133117676" lon="9.204976558685303">
        <ele>528.3818359375</ele>
        <time>2006-03-19T09:14:37Z</time>
      </trkpt>
      <trkpt lat="45.815155506134033" lon="9.20504093170166">
        <ele>530.304443359375</ele>
        <time>2006-03-19T09:14:49Z</time>
      </trkpt>
      <trkpt lat="45.815219879150391" lon="9.205105304718018">
        <ele>533.6689453125</ele>
        <time>2006-03-19T09:14:58Z</time>
      </trkpt>
      <trkpt lat="45.815327167510986" lon="9.205191135406494">
        <ele>536.0723876953125</ele>
        <time>2006-03-19T09:15:14Z</time>
      </trkpt>
      <trkpt lat="45.815412998199463" lon="9.205255508422852">
        <ele>534.63037109375</ele>
        <time>2006-03-19T09:15:25Z</time>
      </trkpt>
      <trkpt lat="45.815498828887939" lon="9.205319881439209">
        <ele>536.0723876953125</ele>
        <time>2006-03-19T09:15:35Z</time>
      </trkpt>
      <trkpt lat="45.815563201904297" lon="9.205384254455566">
        <ele>537.5142822265625</ele>
        <time>2006-03-19T09:15:45Z</time>
      </trkpt>
      <trkpt lat="45.815627574920654" lon="9.205491542816162">
        <ele>541.3594970703125</ele>
        <time>2006-03-19T09:15:59Z</time>
      </trkpt>
      <trkpt lat="45.81573486328125" lon="9.205598831176758">
        <ele>544.7242431640625</ele>
        <time>2006-03-19T09:16:13Z</time>
      </trkpt>
      <trkpt lat="45.815842151641846" lon="9.205706119537354">
        <ele>549.050048828125</ele>
        <time>2006-03-19T09:16:28Z</time>
      </trkpt>
      <trkpt lat="45.815949440002441" lon="9.205813407897949">
        <ele>551.93408203125</ele>
        <time>2006-03-19T09:16:43Z</time>
      </trkpt>
      <trkpt lat="45.816035270690918" lon="9.205856323242188">
        <ele>552.41455078125</ele>
        <time>2006-03-19T09:16:55Z</time>
      </trkpt>
      <trkpt lat="45.816142559051514" lon="9.205877780914307">
        <ele>554.81787109375</ele>
        <time>2006-03-19T09:17:08Z</time>
      </trkpt>
      <trkpt lat="45.81622838973999" lon="9.205899238586426">
        <ele>555.298583984375</ele>
        <time>2006-03-19T09:17:20Z</time>
      </trkpt>
      <trkpt lat="45.816357135772705" lon="9.205942153930664">
        <ele>560.105224609375</ele>
        <time>2006-03-19T09:17:37Z</time>
      </trkpt>
      <trkpt lat="45.816421508789063" lon="9.205963611602783">
        <ele>561.54736328125</ele>
        <time>2006-03-19T09:17:48Z</time>
      </trkpt>
      <trkpt lat="45.816528797149658" lon="9.206006526947022">
        <ele>562.9892578125</ele>
        <time>2006-03-19T09:18:01Z</time>
      </trkpt>
      <trkpt lat="45.816550254821777" lon="9.205942153930664">
        <ele>565.392578125</ele>
        <time>2006-03-19T09:18:09Z</time>
      </trkpt>
      <trkpt lat="45.816528797149658" lon="9.205856323242188">
        <ele>565.873291015625</ele>
        <time>2006-03-19T09:18:20Z</time>
      </trkpt>
      <trkpt lat="45.816464424133301" lon="9.205727577209473">
        <ele>568.2763671875</ele>
        <time>2006-03-19T09:18:36Z</time>
      </trkpt>
      <trkpt lat="45.816464424133301" lon="9.205706119537354">
        <ele>578.370361328125</ele>
        <time>2006-03-19T09:19:11Z</time>
      </trkpt>
      <trkpt lat="45.816292762756348" lon="9.20555591583252">
        <ele>574.04443359375</ele>
        <time>2006-03-19T09:19:27Z</time>
      </trkpt>
      <trkpt lat="45.816206932067871" lon="9.205448627471924">
        <ele>573.083251953125</ele>
        <time>2006-03-19T09:19:38Z</time>
      </trkpt>
      <trkpt lat="45.816099643707275" lon="9.205276966094971">
        <ele>571.160400390625</ele>
        <time>2006-03-19T09:19:51Z</time>
      </trkpt>
      <trkpt lat="45.816035270690918" lon="9.205148220062256">
        <ele>571.160400390625</ele>
        <time>2006-03-19T09:20:02Z</time>
      </trkpt>
      <trkpt lat="45.816035270690918" lon="9.205105304718018">
        <ele>570.198974609375</ele>
        <time>2006-03-19T09:20:05Z</time>
      </trkpt>
      <trkpt lat="45.816056728363037" lon="9.204976558685303">
        <ele>571.640869140625</ele>
        <time>2006-03-19T09:20:15Z</time>
      </trkpt>
      <trkpt lat="45.816185474395752" lon="9.204869270324707">
        <ele>571.160400390625</ele>
        <time>2006-03-19T09:20:27Z</time>
      </trkpt>
      <trkpt lat="45.816249847412109" lon="9.204761981964111">
        <ele>571.640869140625</ele>
        <time>2006-03-19T09:20:36Z</time>
      </trkpt>
      <trkpt lat="45.816206932067871" lon="9.204676151275635">
        <ele>573.56396484375</ele>
        <time>2006-03-19T09:20:41Z</time>
      </trkpt>
      <trkpt lat="45.816078186035156" lon="9.204611778259277">
        <ele>571.160400390625</ele>
        <time>2006-03-19T09:20:54Z</time>
      </trkpt>
      <trkpt lat="45.815970897674561" lon="9.204525947570801">
        <ele>576.44775390625</ele>
        <time>2006-03-19T09:21:07Z</time>
      </trkpt>
      <trkpt lat="45.815885066986084" lon="9.204375743865967">
        <ele>580.29296875</ele>
        <time>2006-03-19T09:21:22Z</time>
      </trkpt>
      <trkpt lat="45.815777778625488" lon="9.204182624816895">
        <ele>584.618896484375</ele>
        <time>2006-03-19T09:21:40Z</time>
      </trkpt>
      <trkpt lat="45.815756320953369" lon="9.204118251800537">
        <ele>587.502685546875</ele>
        <time>2006-03-19T09:21:46Z</time>
      </trkpt>
      <trkpt lat="45.815842151641846" lon="9.204075336456299">
        <ele>587.502685546875</ele>
        <time>2006-03-19T09:21:55Z</time>
      </trkpt>
      <trkpt lat="45.815949440002441" lon="9.204182624816895">
        <ele>591.828857421875</ele>
        <time>2006-03-19T09:22:08Z</time>
      </trkpt>
      <trkpt lat="45.816056728363037" lon="9.204204082489014">
        <ele>592.790283203125</ele>
        <time>2006-03-19T09:22:21Z</time>
      </trkpt>
      <trkpt lat="45.816185474395752" lon="9.204268455505371">
        <ele>593.75146484375</ele>
        <time>2006-03-19T09:22:34Z</time>
      </trkpt>
      <trkpt lat="45.816314220428467" lon="9.204332828521729">
        <ele>596.15478515625</ele>
        <time>2006-03-19T09:22:48Z</time>
      </trkpt>
      <trkpt lat="45.816314220428467" lon="9.204311370849609">
        <ele>596.635498046875</ele>
        <time>2006-03-19T09:22:50Z</time>
      </trkpt>
      <trkpt lat="45.816400051116943" lon="9.204204082489014">
        <ele>598.077392578125</ele>
        <time>2006-03-19T09:23:01Z</time>
      </trkpt>
      <trkpt lat="45.816464424133301" lon="9.204246997833252">
        <ele>599.519287109375</ele>
        <time>2006-03-19T09:23:08Z</time>
      </trkpt>
      <trkpt lat="45.816571712493896" lon="9.204354286193848">
        <ele>598.077392578125</ele>
        <time>2006-03-19T09:23:20Z</time>
      </trkpt>
      <trkpt lat="45.816593170166016" lon="9.204504489898682">
        <ele>598.077392578125</ele>
        <time>2006-03-19T09:23:30Z</time>
      </trkpt>
      <trkpt lat="45.816657543182373" lon="9.204568862915039">
        <ele>598.557861328125</ele>
        <time>2006-03-19T09:23:40Z</time>
      </trkpt>
      <trkpt lat="45.816679000854492" lon="9.204461574554443">
        <ele>600</ele>
        <time>2006-03-19T09:23:48Z</time>
      </trkpt>
      <trkpt lat="45.816679000854492" lon="9.204418659210205">
        <ele>600</ele>
        <time>2006-03-19T09:23:52Z</time>
      </trkpt>
      <trkpt lat="45.816679000854492" lon="9.204268455505371">
        <ele>601.44189453125</ele>
        <time>2006-03-19T09:24:02Z</time>
      </trkpt>
      <trkpt lat="45.816679000854492" lon="9.204204082489014">
        <ele>603.84521484375</ele>
        <time>2006-03-19T09:24:10Z</time>
      </trkpt>
      <trkpt lat="45.816657543182373" lon="9.204118251800537">
        <ele>605.287353515625</ele>
        <time>2006-03-19T09:24:18Z</time>
      </trkpt>
      <trkpt lat="45.816636085510254" lon="9.204032421112061">
        <ele>605.287353515625</ele>
        <time>2006-03-19T09:24:26Z</time>
      </trkpt>
      <trkpt lat="45.816571712493896" lon="9.203925132751465">
        <ele>607.2099609375</ele>
        <time>2006-03-19T09:24:37Z</time>
      </trkpt>
      <trkpt lat="45.816507339477539" lon="9.20379638671875">
        <ele>608.65185546875</ele>
        <time>2006-03-19T09:24:50Z</time>
      </trkpt>
      <trkpt lat="45.816571712493896" lon="9.203774929046631">
        <ele>609.132568359375</ele>
        <time>2006-03-19T09:24:57Z</time>
      </trkpt>
      <trkpt lat="45.816593170166016" lon="9.203839302062988">
        <ele>609.61328125</ele>
        <time>2006-03-19T09:25:07Z</time>
      </trkpt>
      <trkpt lat="45.816657543182373" lon="9.203903675079346">
        <ele>611.05517578125</ele>
        <time>2006-03-19T09:25:18Z</time>
      </trkpt>
      <trkpt lat="45.81674337387085" lon="9.203968048095703">
        <ele>612.0166015625</ele>
        <time>2006-03-19T09:25:28Z</time>
      </trkpt>
      <trkpt lat="45.816807746887207" lon="9.20405387878418">
        <ele>612.0166015625</ele>
        <time>2006-03-19T09:25:37Z</time>
      </trkpt>
      <trkpt lat="45.816872119903564" lon="9.204139709472656">
        <ele>614.900390625</ele>
        <time>2006-03-19T09:25:48Z</time>
      </trkpt>
      <trkpt lat="45.816936492919922" lon="9.204182624816895">
        <ele>615.381103515625</ele>
        <time>2006-03-19T09:25:57Z</time>
      </trkpt>
      <trkpt lat="45.816957950592041" lon="9.204204082489014">
        <ele>616.34228515625</ele>
        <time>2006-03-19T09:26:04Z</time>
      </trkpt>
      <trkpt lat="45.817043781280518" lon="9.204225540161133">
        <ele>617.7841796875</ele>
        <time>2006-03-19T09:26:16Z</time>
      </trkpt>
      <trkpt lat="45.817129611968994" lon="9.204246997833252">
        <ele>619.70703125</ele>
        <time>2006-03-19T09:26:28Z</time>
      </trkpt>
      <trkpt lat="45.817151069641113" lon="9.204246997833252">
        <ele>621.629638671875</ele>
        <time>2006-03-19T09:26:36Z</time>
      </trkpt>
      <trkpt lat="45.817193984985352" lon="9.20428991317749">
        <ele>627.878173828125</ele>
        <time>2006-03-19T09:27:07Z</time>
      </trkpt>
      <trkpt lat="45.817301273345947" lon="9.204332828521729">
        <ele>629.80078125</ele>
        <time>2006-03-19T09:27:23Z</time>
      </trkpt>
      <trkpt lat="45.817365646362305" lon="9.204397201538086">
        <ele>628.35888671875</ele>
        <time>2006-03-19T09:30:53Z</time>
      </trkpt>
      <trkpt lat="45.817408561706543" lon="9.204418659210205">
        <ele>626.9169921875</ele>
        <time>2006-03-19T09:31:01Z</time>
      </trkpt>
      <trkpt lat="45.817515850067139" lon="9.204483032226563">
        <ele>626.9169921875</ele>
        <time>2006-03-19T09:31:12Z</time>
      </trkpt>
      <trkpt lat="45.817644596099854" lon="9.204590320587158">
        <ele>626.436279296875</ele>
        <time>2006-03-19T09:31:22Z</time>
      </trkpt>
      <trkpt lat="45.817708969116211" lon="9.204633235931397">
        <ele>627.397705078125</ele>
        <time>2006-03-19T09:31:30Z</time>
      </trkpt>
      <trkpt lat="45.817751884460449" lon="9.204676151275635">
        <ele>626.9169921875</ele>
        <time>2006-03-19T09:31:40Z</time>
      </trkpt>
      <trkpt lat="45.817816257476807" lon="9.204740524291992">
        <ele>628.35888671875</ele>
        <time>2006-03-19T09:32:03Z</time>
      </trkpt>
      <trkpt lat="45.817902088165283" lon="9.204912185668945">
        <ele>627.397705078125</ele>
        <time>2006-03-19T09:32:14Z</time>
      </trkpt>
      <trkpt lat="45.81798791885376" lon="9.205083847045898">
        <ele>626.436279296875</ele>
        <time>2006-03-19T09:32:25Z</time>
      </trkpt>
      <trkpt lat="45.818095207214355" lon="9.205191135406494">
        <ele>626.436279296875</ele>
        <time>2006-03-19T09:32:35Z</time>
      </trkpt>
      <trkpt lat="45.818202495574951" lon="9.205255508422852">
        <ele>622.591064453125</ele>
        <time>2006-03-19T09:32:47Z</time>
      </trkpt>
      <trkpt lat="45.818374156951904" lon="9.205341339111328">
        <ele>624.994384765625</ele>
        <time>2006-03-19T09:33:01Z</time>
      </trkpt>
      <trkpt lat="45.818545818328857" lon="9.205384254455566">
        <ele>628.35888671875</ele>
        <time>2006-03-19T09:33:17Z</time>
      </trkpt>
      <trkpt lat="45.81873893737793" lon="9.205384254455566">
        <ele>631.242919921875</ele>
        <time>2006-03-19T09:33:33Z</time>
      </trkpt>
      <trkpt lat="45.818889141082764" lon="9.205427169799805">
        <ele>631.242919921875</ele>
        <time>2006-03-19T09:33:45Z</time>
      </trkpt>
      <trkpt lat="45.819082260131836" lon="9.205427169799805">
        <ele>634.607421875</ele>
        <time>2006-03-19T09:34:01Z</time>
      </trkpt>
      <trkpt lat="45.819189548492432" lon="9.205341339111328">
        <ele>637.0107421875</ele>
        <time>2006-03-19T09:34:13Z</time>
      </trkpt>
      <trkpt lat="45.819211006164551" lon="9.20529842376709">
        <ele>637.491455078125</ele>
        <time>2006-03-19T09:34:16Z</time>
      </trkpt>
      <trkpt lat="45.819275379180908" lon="9.205234050750732">
        <ele>638.93359375</ele>
        <time>2006-03-19T09:34:22Z</time>
      </trkpt>
      <trkpt lat="45.819318294525146" lon="9.20504093170166">
        <ele>640.37548828125</ele>
        <time>2006-03-19T09:34:36Z</time>
      </trkpt>
      <trkpt lat="45.819404125213623" lon="9.204847812652588">
        <ele>645.66259765625</ele>
        <time>2006-03-19T09:34:52Z</time>
      </trkpt>
      <trkpt lat="45.81946849822998" lon="9.204719066619873">
        <ele>648.54638671875</ele>
        <time>2006-03-19T09:35:03Z</time>
      </trkpt>
      <trkpt lat="45.819532871246338" lon="9.204611778259277">
        <ele>650.94970703125</ele>
        <time>2006-03-19T09:35:13Z</time>
      </trkpt>
      <trkpt lat="45.819532871246338" lon="9.204504489898682">
        <ele>649.027099609375</ele>
        <time>2006-03-19T09:35:22Z</time>
      </trkpt>
      <trkpt lat="45.819640159606934" lon="9.204311370849609">
        <ele>650.46923828125</ele>
        <time>2006-03-19T09:35:38Z</time>
      </trkpt>
      <trkpt lat="45.819704532623291" lon="9.204161167144775">
        <ele>650.46923828125</ele>
        <time>2006-03-19T09:35:51Z</time>
      </trkpt>
      <trkpt lat="45.819790363311768" lon="9.20405387878418">
        <ele>653.353271484375</ele>
        <time>2006-03-19T09:36:02Z</time>
      </trkpt>
      <trkpt lat="45.819897651672363" lon="9.203925132751465">
        <ele>656.237060546875</ele>
        <time>2006-03-19T09:36:14Z</time>
      </trkpt>
      <trkpt lat="45.819962024688721" lon="9.203732013702393">
        <ele>658.159912109375</ele>
        <time>2006-03-19T09:36:28Z</time>
      </trkpt>
      <trkpt lat="45.820004940032959" lon="9.203495979309082">
        <ele>659.601806640625</ele>
        <time>2006-03-19T09:36:45Z</time>
      </trkpt>
      <trkpt lat="45.820090770721436" lon="9.20330286026001">
        <ele>662.005126953125</ele>
        <time>2006-03-19T09:37:00Z</time>
      </trkpt>
      <trkpt lat="45.820112228393555" lon="9.203217029571533">
        <ele>663.447021484375</ele>
        <time>2006-03-19T09:37:06Z</time>
      </trkpt>
      <trkpt lat="45.820133686065674" lon="9.203066825866699">
        <ele>664.408203125</ele>
        <time>2006-03-19T09:37:17Z</time>
      </trkpt>
      <trkpt lat="45.820133686065674" lon="9.202959537506104">
        <ele>664.888916015625</ele>
        <time>2006-03-19T09:37:25Z</time>
      </trkpt>
      <trkpt lat="45.82024097442627" lon="9.202830791473389">
        <ele>669.69580078125</ele>
        <time>2006-03-19T09:37:37Z</time>
      </trkpt>
      <trkpt lat="45.820305347442627" lon="9.202723503112793">
        <ele>670.656982421875</ele>
        <time>2006-03-19T09:37:48Z</time>
      </trkpt>
      <trkpt lat="45.820348262786865" lon="9.202573299407959">
        <ele>670.656982421875</ele>
        <time>2006-03-19T09:38:00Z</time>
      </trkpt>
      <trkpt lat="45.820348262786865" lon="9.20255184173584">
        <ele>670.656982421875</ele>
        <time>2006-03-19T09:38:09Z</time>
      </trkpt>
      <trkpt lat="45.820391178131104" lon="9.202508926391602">
        <ele>674.502197265625</ele>
        <time>2006-03-19T09:39:12Z</time>
      </trkpt>
      <trkpt lat="45.820391178131104" lon="9.20229434967041">
        <ele>674.98291015625</ele>
        <time>2006-03-19T09:39:25Z</time>
      </trkpt>
      <trkpt lat="45.820391178131104" lon="9.20229434967041">
        <ele>674.502197265625</ele>
        <time>2006-03-19T09:39:33Z</time>
      </trkpt>
      <trkpt lat="45.820434093475342" lon="9.202229976654053">
        <ele>675.944091796875</ele>
        <time>2006-03-19T09:42:43Z</time>
      </trkpt>
      <trkpt lat="45.820412635803223" lon="9.201972484588623">
        <ele>674.98291015625</ele>
        <time>2006-03-19T09:42:59Z</time>
      </trkpt>
      <trkpt lat="45.820369720458984" lon="9.201736450195313">
        <ele>675.944091796875</ele>
        <time>2006-03-19T09:43:13Z</time>
      </trkpt>
      <trkpt lat="45.820326805114746" lon="9.201436042785645">
        <ele>680.750732421875</ele>
        <time>2006-03-19T09:43:32Z</time>
      </trkpt>
      <trkpt lat="45.820305347442627" lon="9.201285839080811">
        <ele>683.15380859375</ele>
        <time>2006-03-19T09:43:45Z</time>
      </trkpt>
      <trkpt lat="45.82024097442627" lon="9.201178550720215">
        <ele>682.192626953125</ele>
        <time>2006-03-19T09:44:08Z</time>
      </trkpt>
      <trkpt lat="45.82024097442627" lon="9.201114177703857">
        <ele>685.557373046875</ele>
        <time>2006-03-19T09:44:18Z</time>
      </trkpt>
      <trkpt lat="45.82024097442627" lon="9.201006889343262">
        <ele>686.999267578125</ele>
        <time>2006-03-19T09:44:28Z</time>
      </trkpt>
      <trkpt lat="45.82021951675415" lon="9.200856685638428">
        <ele>690.364013671875</ele>
        <time>2006-03-19T09:44:40Z</time>
      </trkpt>
      <trkpt lat="45.820176601409912" lon="9.200685024261475">
        <ele>689.402587890625</ele>
        <time>2006-03-19T09:44:57Z</time>
      </trkpt>
      <trkpt lat="45.820176601409912" lon="9.200513362884522">
        <ele>689.402587890625</ele>
        <time>2006-03-19T09:45:10Z</time>
      </trkpt>
      <trkpt lat="45.820176601409912" lon="9.200320243835449">
        <ele>687.960693359375</ele>
        <time>2006-03-19T09:45:24Z</time>
      </trkpt>
      <trkpt lat="45.820198059082031" lon="9.200148582458496">
        <ele>692.28662109375</ele>
        <time>2006-03-19T09:45:38Z</time>
      </trkpt>
      <trkpt lat="45.820198059082031" lon="9.200127124786377">
        <ele>694.209228515625</ele>
        <time>2006-03-19T09:45:49Z</time>
      </trkpt>
      <trkpt lat="45.820198059082031" lon="9.2000412940979">
        <ele>699.015625</ele>
        <time>2006-03-19T09:46:02Z</time>
      </trkpt>
      <trkpt lat="45.820198059082031" lon="9.199934005737305">
        <ele>699.015625</ele>
        <time>2006-03-19T09:46:11Z</time>
      </trkpt>
      <trkpt lat="45.820176601409912" lon="9.199783802032471">
        <ele>698.534912109375</ele>
        <time>2006-03-19T09:46:24Z</time>
      </trkpt>
      <trkpt lat="45.820155143737793" lon="9.199633598327637">
        <ele>700.4580078125</ele>
        <time>2006-03-19T09:46:35Z</time>
      </trkpt>
      <trkpt lat="45.820133686065674" lon="9.199483394622803">
        <ele>702.861083984375</ele>
        <time>2006-03-19T09:46:48Z</time>
      </trkpt>
      <trkpt lat="45.820155143737793" lon="9.199419021606445">
        <ele>702.38037109375</ele>
        <time>2006-03-19T09:46:59Z</time>
      </trkpt>
      <trkpt lat="45.820155143737793" lon="9.199268817901611">
        <ele>702.861083984375</ele>
        <time>2006-03-19T09:47:22Z</time>
      </trkpt>
      <trkpt lat="45.820155143737793" lon="9.199225902557373">
        <ele>707.667724609375</ele>
        <time>2006-03-19T09:47:34Z</time>
      </trkpt>
      <trkpt lat="45.820112228393555" lon="9.199204444885254">
        <ele>708.62890625</ele>
        <time>2006-03-19T09:47:39Z</time>
      </trkpt>
      <trkpt lat="45.819940567016602" lon="9.199097156524658">
        <ele>706.706298828125</ele>
        <time>2006-03-19T09:47:50Z</time>
      </trkpt>
      <trkpt lat="45.819790363311768" lon="9.19905424118042">
        <ele>708.62890625</ele>
        <time>2006-03-19T09:48:05Z</time>
      </trkpt>
      <trkpt lat="45.819618701934814" lon="9.199097156524658">
        <ele>708.1484375</ele>
        <time>2006-03-19T09:48:18Z</time>
      </trkpt>
      <trkpt lat="45.819425582885742" lon="9.199161529541016">
        <ele>705.7451171875</ele>
        <time>2006-03-19T09:48:30Z</time>
      </trkpt>
      <trkpt lat="45.819318294525146" lon="9.199161529541016">
        <ele>707.18701171875</ele>
        <time>2006-03-19T09:48:39Z</time>
      </trkpt>
      <trkpt lat="45.819146633148193" lon="9.199118614196777">
        <ele>707.18701171875</ele>
        <time>2006-03-19T09:48:51Z</time>
      </trkpt>
      <trkpt lat="45.818996429443359" lon="9.199075698852539">
        <ele>707.667724609375</ele>
        <time>2006-03-19T09:49:01Z</time>
      </trkpt>
      <trkpt lat="45.818846225738525" lon="9.198989868164063">
        <ele>709.109619140625</ele>
        <time>2006-03-19T09:49:13Z</time>
      </trkpt>
      <trkpt lat="45.818824768066406" lon="9.198946952819824">
        <ele>709.59033203125</ele>
        <time>2006-03-19T09:49:17Z</time>
      </trkpt>
      <trkpt lat="45.818717479705811" lon="9.198775291442871">
        <ele>712.954833984375</ele>
        <time>2006-03-19T09:49:30Z</time>
      </trkpt>
      <trkpt lat="45.818717479705811" lon="9.198753833770752">
        <ele>713.435546875</ele>
        <time>2006-03-19T09:49:32Z</time>
      </trkpt>
      <trkpt lat="45.818696022033691" lon="9.198539257049561">
        <ele>713.435546875</ele>
        <time>2006-03-19T09:49:44Z</time>
      </trkpt>
      <trkpt lat="45.818696022033691" lon="9.198517799377441">
        <ele>713.435546875</ele>
        <time>2006-03-19T09:49:46Z</time>
      </trkpt>
      <trkpt lat="45.818717479705811" lon="9.198324680328369">
        <ele>715.358154296875</ele>
        <time>2006-03-19T09:50:00Z</time>
      </trkpt>
      <trkpt lat="45.818781852722168" lon="9.198153018951416">
        <ele>716.319580078125</ele>
        <time>2006-03-19T09:50:14Z</time>
      </trkpt>
      <trkpt lat="45.818846225738525" lon="9.19804573059082">
        <ele>718.2421875</ele>
        <time>2006-03-19T09:50:22Z</time>
      </trkpt>
      <trkpt lat="45.818889141082764" lon="9.197895526885986">
        <ele>720.6455078125</ele>
        <time>2006-03-19T09:50:33Z</time>
      </trkpt>
      <trkpt lat="45.818953514099121" lon="9.197766780853272">
        <ele>721.126220703125</ele>
        <time>2006-03-19T09:50:44Z</time>
      </trkpt>
      <trkpt lat="45.818996429443359" lon="9.197638034820557">
        <ele>723.048828125</ele>
        <time>2006-03-19T09:50:54Z</time>
      </trkpt>
      <trkpt lat="45.819082260131836" lon="9.197487831115723">
        <ele>723.048828125</ele>
        <time>2006-03-19T09:51:09Z</time>
      </trkpt>
      <trkpt lat="45.819103717803955" lon="9.197380542755127">
        <ele>723.529541015625</ele>
        <time>2006-03-19T09:51:17Z</time>
      </trkpt>
      <trkpt lat="45.819082260131836" lon="9.19731616973877">
        <ele>723.529541015625</ele>
        <time>2006-03-19T09:51:20Z</time>
      </trkpt>
      <trkpt lat="45.819103717803955" lon="9.197208881378174">
        <ele>725.451904296875</ele>
        <time>2006-03-19T09:51:27Z</time>
      </trkpt>
      <trkpt lat="45.819125175476074" lon="9.197144508361816">
        <ele>726.89404296875</ele>
        <time>2006-03-19T09:51:32Z</time>
      </trkpt>
      <trkpt lat="45.819211006164551" lon="9.196994304656982">
        <ele>729.297119140625</ele>
        <time>2006-03-19T09:51:45Z</time>
      </trkpt>
      <trkpt lat="45.819253921508789" lon="9.196887016296387">
        <ele>731.219970703125</ele>
        <time>2006-03-19T09:52:00Z</time>
      </trkpt>
      <trkpt lat="45.819339752197266" lon="9.196693897247315">
        <ele>732.662109375</ele>
        <time>2006-03-19T09:52:13Z</time>
      </trkpt>
      <trkpt lat="45.819425582885742" lon="9.196457862854004">
        <ele>732.662109375</ele>
        <time>2006-03-19T09:52:26Z</time>
      </trkpt>
      <trkpt lat="45.8194899559021" lon="9.196264743804932">
        <ele>733.623291015625</ele>
        <time>2006-03-19T09:52:38Z</time>
      </trkpt>
      <trkpt lat="45.81946849822998" lon="9.196071624755859">
        <ele>735.5458984375</ele>
        <time>2006-03-19T09:52:48Z</time>
      </trkpt>
      <trkpt lat="45.8194899559021" lon="9.195985794067383">
        <ele>736.026611328125</ele>
        <time>2006-03-19T09:52:57Z</time>
      </trkpt>
      <trkpt lat="45.819532871246338" lon="9.195942878723145">
        <ele>737.468505859375</ele>
        <time>2006-03-19T09:53:11Z</time>
      </trkpt>
      <trkpt lat="45.819640159606934" lon="9.195792675018311">
        <ele>742.275146484375</ele>
        <time>2006-03-19T09:53:30Z</time>
      </trkpt>
      <trkpt lat="45.819747447967529" lon="9.195685386657715">
        <ele>744.67822265625</ele>
        <time>2006-03-19T09:53:46Z</time>
      </trkpt>
      <trkpt lat="45.819854736328125" lon="9.195599555969238">
        <ele>749.00439453125</ele>
        <time>2006-03-19T09:54:14Z</time>
      </trkpt>
      <trkpt lat="45.819919109344482" lon="9.195513725280762">
        <ele>751.888427734375</ele>
        <time>2006-03-19T09:54:31Z</time>
      </trkpt>
      <trkpt lat="45.819940567016602" lon="9.195578098297119">
        <ele>751.888427734375</ele>
        <time>2006-03-19T09:56:01Z</time>
      </trkpt>
      <trkpt lat="45.81998348236084" lon="9.195706844329834">
        <ele>751.888427734375</ele>
        <time>2006-03-19T09:56:11Z</time>
      </trkpt>
      <trkpt lat="45.820004940032959" lon="9.195771217346191">
        <ele>751.888427734375</ele>
        <time>2006-03-19T09:56:17Z</time>
      </trkpt>
      <trkpt lat="45.820069313049316" lon="9.195899963378906">
        <ele>752.368896484375</ele>
        <time>2006-03-19T09:56:29Z</time>
      </trkpt>
      <trkpt lat="45.820133686065674" lon="9.196007251739502">
        <ele>753.81103515625</ele>
        <time>2006-03-19T09:56:39Z</time>
      </trkpt>
      <trkpt lat="45.82021951675415" lon="9.196071624755859">
        <ele>755.2529296875</ele>
        <time>2006-03-19T09:56:52Z</time>
      </trkpt>
      <trkpt lat="45.82024097442627" lon="9.19605016708374">
        <ele>758.617431640625</ele>
        <time>2006-03-19T09:57:04Z</time>
      </trkpt>
      <trkpt lat="45.820305347442627" lon="9.19605016708374">
        <ele>758.617431640625</ele>
        <time>2006-03-19T09:57:10Z</time>
      </trkpt>
      <trkpt lat="45.820412635803223" lon="9.196071624755859">
        <ele>758.617431640625</ele>
        <time>2006-03-19T09:57:21Z</time>
      </trkpt>
      <trkpt lat="45.820434093475342" lon="9.196071624755859">
        <ele>759.09814453125</ele>
        <time>2006-03-19T09:57:22Z</time>
      </trkpt>
      <trkpt lat="45.820541381835938" lon="9.195985794067383">
        <ele>759.578857421875</ele>
        <time>2006-03-19T09:57:33Z</time>
      </trkpt>
      <trkpt lat="45.820562839508057" lon="9.195878505706787">
        <ele>761.982177734375</ele>
        <time>2006-03-19T09:57:41Z</time>
      </trkpt>
      <trkpt lat="45.820519924163818" lon="9.195835590362549">
        <ele>762.462646484375</ele>
        <time>2006-03-19T09:57:45Z</time>
      </trkpt>
      <trkpt lat="45.820434093475342" lon="9.195685386657715">
        <ele>764.8662109375</ele>
        <time>2006-03-19T09:57:58Z</time>
      </trkpt>
      <trkpt lat="45.820391178131104" lon="9.195556640625">
        <ele>766.30810546875</ele>
        <time>2006-03-19T09:58:08Z</time>
      </trkpt>
      <trkpt lat="45.820348262786865" lon="9.195384979248047">
        <ele>769.192138671875</ele>
        <time>2006-03-19T09:58:23Z</time>
      </trkpt>
      <trkpt lat="45.820326805114746" lon="9.195277690887451">
        <ele>770.634033203125</ele>
        <time>2006-03-19T09:58:32Z</time>
      </trkpt>
      <trkpt lat="45.820348262786865" lon="9.195170402526856">
        <ele>772.075927734375</ele>
        <time>2006-03-19T09:58:40Z</time>
      </trkpt>
      <trkpt lat="45.820348262786865" lon="9.195127487182617">
        <ele>772.075927734375</ele>
        <time>2006-03-19T09:58:48Z</time>
      </trkpt>
      <trkpt lat="45.820305347442627" lon="9.195041656494141">
        <ele>772.075927734375</ele>
        <time>2006-03-19T09:59:01Z</time>
      </trkpt>
      <trkpt lat="45.820348262786865" lon="9.194912910461426">
        <ele>772.556640625</ele>
        <time>2006-03-19T09:59:14Z</time>
      </trkpt>
      <trkpt lat="45.820369720458984" lon="9.194869995117188">
        <ele>772.556640625</ele>
        <time>2006-03-19T09:59:18Z</time>
      </trkpt>
      <trkpt lat="45.820391178131104" lon="9.194762706756592">
        <ele>774.9599609375</ele>
        <time>2006-03-19T09:59:29Z</time>
      </trkpt>
      <trkpt lat="45.820455551147461" lon="9.194633960723877">
        <ele>776.40185546875</ele>
        <time>2006-03-19T09:59:41Z</time>
      </trkpt>
      <trkpt lat="45.820498466491699" lon="9.194526672363281">
        <ele>777.84375</ele>
        <time>2006-03-19T09:59:53Z</time>
      </trkpt>
      <trkpt lat="45.820541381835938" lon="9.194376468658447">
        <ele>779.766357421875</ele>
        <time>2006-03-19T10:00:04Z</time>
      </trkpt>
      <trkpt lat="45.820584297180176" lon="9.194269180297852">
        <ele>783.131103515625</ele>
        <time>2006-03-19T10:00:16Z</time>
      </trkpt>
      <trkpt lat="45.820627212524414" lon="9.194140434265137">
        <ele>785.053955078125</ele>
        <time>2006-03-19T10:00:28Z</time>
      </trkpt>
      <trkpt lat="45.820627212524414" lon="9.194011688232422">
        <ele>787.45703125</ele>
        <time>2006-03-19T10:00:40Z</time>
      </trkpt>
      <trkpt lat="45.820627212524414" lon="9.193861484527588">
        <ele>788.899169921875</ele>
        <time>2006-03-19T10:00:51Z</time>
      </trkpt>
      <trkpt lat="45.820627212524414" lon="9.193732738494873">
        <ele>791.30224609375</ele>
        <time>2006-03-19T10:01:04Z</time>
      </trkpt>
      <trkpt lat="45.820670127868652" lon="9.19356107711792">
        <ele>791.782958984375</ele>
        <time>2006-03-19T10:01:16Z</time>
      </trkpt>
      <trkpt lat="45.820691585540771" lon="9.193453788757324">
        <ele>794.186279296875</ele>
        <time>2006-03-19T10:01:27Z</time>
      </trkpt>
      <trkpt lat="45.820691585540771" lon="9.193432331085205">
        <ele>794.666748046875</ele>
        <time>2006-03-19T10:01:35Z</time>
      </trkpt>
      <trkpt lat="45.82073450088501" lon="9.193325042724609">
        <ele>795.628173828125</ele>
        <time>2006-03-19T10:02:10Z</time>
      </trkpt>
      <trkpt lat="45.820755958557129" lon="9.193174839019775">
        <ele>795.628173828125</ele>
        <time>2006-03-19T10:02:21Z</time>
      </trkpt>
      <trkpt lat="45.820777416229248" lon="9.19306755065918">
        <ele>796.58984375</ele>
        <time>2006-03-19T10:02:31Z</time>
      </trkpt>
      <trkpt lat="45.820777416229248" lon="9.192852973937988">
        <ele>799.4736328125</ele>
        <time>2006-03-19T10:02:47Z</time>
      </trkpt>
      <trkpt lat="45.820798873901367" lon="9.192681312561035">
        <ele>800.43505859375</ele>
        <time>2006-03-19T10:03:00Z</time>
      </trkpt>
      <trkpt lat="45.820798873901367" lon="9.192531108856201">
        <ele>805.241455078125</ele>
        <time>2006-03-19T10:03:13Z</time>
      </trkpt>
      <trkpt lat="45.820820331573486" lon="9.192423820495606">
        <ele>806.683349609375</ele>
        <time>2006-03-19T10:03:23Z</time>
      </trkpt>
      <trkpt lat="45.820798873901367" lon="9.192380905151367">
        <ele>809.086669921875</ele>
        <time>2006-03-19T10:03:34Z</time>
      </trkpt>
      <trkpt lat="45.820820331573486" lon="9.192252159118652">
        <ele>810.528564453125</ele>
        <time>2006-03-19T10:03:58Z</time>
      </trkpt>
      <trkpt lat="45.820863246917725" lon="9.191951751708984">
        <ele>811.00927734375</ele>
        <time>2006-03-19T10:04:16Z</time>
      </trkpt>
      <trkpt lat="45.820906162261963" lon="9.191758632659912">
        <ele>811.00927734375</ele>
        <time>2006-03-19T10:04:29Z</time>
      </trkpt>
      <trkpt lat="45.82097053527832" lon="9.191629886627197">
        <ele>811.970703125</ele>
        <time>2006-03-19T10:04:39Z</time>
      </trkpt>
      <trkpt lat="45.821034908294678" lon="9.191501140594482">
        <ele>812.93212890625</ele>
        <time>2006-03-19T10:04:50Z</time>
      </trkpt>
      <trkpt lat="45.821056365966797" lon="9.19130802154541">
        <ele>813.893310546875</ele>
        <time>2006-03-19T10:05:02Z</time>
      </trkpt>
      <trkpt lat="45.821099281311035" lon="9.191157817840576">
        <ele>815.816162109375</ele>
        <time>2006-03-19T10:05:13Z</time>
      </trkpt>
      <trkpt lat="45.821163654327393" lon="9.191007614135742">
        <ele>816.77734375</ele>
        <time>2006-03-19T10:05:25Z</time>
      </trkpt>
      <trkpt lat="45.821185111999512" lon="9.190835952758789">
        <ele>818.699951171875</ele>
        <time>2006-03-19T10:05:36Z</time>
      </trkpt>
      <trkpt lat="45.82122802734375" lon="9.190793037414551">
        <ele>819.1806640625</ele>
        <time>2006-03-19T10:05:41Z</time>
      </trkpt>
      <trkpt lat="45.821313858032227" lon="9.190707206726074">
        <ele>820.62255859375</ele>
        <time>2006-03-19T10:05:52Z</time>
      </trkpt>
      <trkpt lat="45.821378231048584" lon="9.190599918365479">
        <ele>821.103271484375</ele>
        <time>2006-03-19T10:06:03Z</time>
      </trkpt>
      <trkpt lat="45.821399688720703" lon="9.190535545349121">
        <ele>821.583740234375</ele>
        <time>2006-03-19T10:06:08Z</time>
      </trkpt>
      <trkpt lat="45.821506977081299" lon="9.190363883972168">
        <ele>823.506591796875</ele>
        <time>2006-03-19T10:06:22Z</time>
      </trkpt>
      <trkpt lat="45.821571350097656" lon="9.190213680267334">
        <ele>823.02587890625</ele>
        <time>2006-03-19T10:06:34Z</time>
      </trkpt>
      <trkpt lat="45.821657180786133" lon="9.190042018890381">
        <ele>823.506591796875</ele>
        <time>2006-03-19T10:06:47Z</time>
      </trkpt>
      <trkpt lat="45.821743011474609" lon="9.189870357513428">
        <ele>824.948486328125</ele>
        <time>2006-03-19T10:06:59Z</time>
      </trkpt>
      <trkpt lat="45.821871757507324" lon="9.189634323120117">
        <ele>825.428955078125</ele>
        <time>2006-03-19T10:07:17Z</time>
      </trkpt>
      <trkpt lat="45.822000503540039" lon="9.189419746398926">
        <ele>824.4677734375</ele>
        <time>2006-03-19T10:07:32Z</time>
      </trkpt>
      <trkpt lat="45.822064876556396" lon="9.189183712005615">
        <ele>824.4677734375</ele>
        <time>2006-03-19T10:07:44Z</time>
      </trkpt>
      <trkpt lat="45.822107791900635" lon="9.188904762268066">
        <ele>825.428955078125</ele>
        <time>2006-03-19T10:07:58Z</time>
      </trkpt>
      <trkpt lat="45.822129249572754" lon="9.18856143951416">
        <ele>825.90966796875</ele>
        <time>2006-03-19T10:08:13Z</time>
      </trkpt>
      <trkpt lat="45.822172164916992" lon="9.188303947448731">
        <ele>825.90966796875</ele>
        <time>2006-03-19T10:08:24Z</time>
      </trkpt>
      <trkpt lat="45.822279453277588" lon="9.187982082366943">
        <ele>826.390380859375</ele>
        <time>2006-03-19T10:08:39Z</time>
      </trkpt>
      <trkpt lat="45.822322368621826" lon="9.187703132629395">
        <ele>826.390380859375</ele>
        <time>2006-03-19T10:08:52Z</time>
      </trkpt>
      <trkpt lat="45.822322368621826" lon="9.187424182891846">
        <ele>826.390380859375</ele>
        <time>2006-03-19T10:09:06Z</time>
      </trkpt>
      <trkpt lat="45.822300910949707" lon="9.187402725219727">
        <ele>826.390380859375</ele>
        <time>2006-03-19T10:09:07Z</time>
      </trkpt>
      <trkpt lat="45.822129249572754" lon="9.187338352203369">
        <ele>830.23583984375</ele>
        <time>2006-03-19T10:09:20Z</time>
      </trkpt>
      <trkpt lat="45.82197904586792" lon="9.187338352203369">
        <ele>832.63916015625</ele>
        <time>2006-03-19T10:09:30Z</time>
      </trkpt>
      <trkpt lat="45.821914672851562" lon="9.187252521514893">
        <ele>833.600341796875</ele>
        <time>2006-03-19T10:09:36Z</time>
      </trkpt>
      <trkpt lat="45.821914672851562" lon="9.187231063842773">
        <ele>833.600341796875</ele>
        <time>2006-03-19T10:09:44Z</time>
      </trkpt>
      <trkpt lat="45.821871757507324" lon="9.187123775482178">
        <ele>835.52294921875</ele>
        <time>2006-03-19T10:09:56Z</time>
      </trkpt>
      <trkpt lat="45.821850299835205" lon="9.186973571777344">
        <ele>834.561767578125</ele>
        <time>2006-03-19T10:10:08Z</time>
      </trkpt>
      <trkpt lat="45.821807384490967" lon="9.186844825744629">
        <ele>836.96484375</ele>
        <time>2006-03-19T10:10:20Z</time>
      </trkpt>
      <trkpt lat="45.821764469146729" lon="9.186673164367676">
        <ele>838.8876953125</ele>
        <time>2006-03-19T10:10:35Z</time>
      </trkpt>
      <trkpt lat="45.821743011474609" lon="9.18656587600708">
        <ele>840.32958984375</ele>
        <time>2006-03-19T10:10:46Z</time>
      </trkpt>
      <trkpt lat="45.821700096130371" lon="9.186437129974365">
        <ele>841.290771484375</ele>
        <time>2006-03-19T10:10:56Z</time>
      </trkpt>
      <trkpt lat="45.821678638458252" lon="9.186351299285889">
        <ele>843.694091796875</ele>
        <time>2006-03-19T10:11:08Z</time>
      </trkpt>
      <trkpt lat="45.821614265441895" lon="9.186222553253174">
        <ele>848.020263671875</ele>
        <time>2006-03-19T10:11:23Z</time>
      </trkpt>
      <trkpt lat="45.821528434753418" lon="9.18607234954834">
        <ele>849.94287109375</ele>
        <time>2006-03-19T10:11:39Z</time>
      </trkpt>
      <trkpt lat="45.821528434753418" lon="9.185986518859863">
        <ele>849.94287109375</ele>
        <time>2006-03-19T10:11:48Z</time>
      </trkpt>
      <trkpt lat="45.821528434753418" lon="9.185965061187744">
        <ele>849.94287109375</ele>
        <time>2006-03-19T10:11:51Z</time>
      </trkpt>
      <trkpt lat="45.821700096130371" lon="9.185836315155029">
        <ele>850.423583984375</ele>
        <time>2006-03-19T10:12:05Z</time>
      </trkpt>
      <trkpt lat="45.821871757507324" lon="9.185750484466553">
        <ele>850.423583984375</ele>
        <time>2006-03-19T10:12:17Z</time>
      </trkpt>
      <trkpt lat="45.821936130523682" lon="9.185600280761719">
        <ele>850.423583984375</ele>
        <time>2006-03-19T10:12:27Z</time>
      </trkpt>
      <trkpt lat="45.821914672851562" lon="9.185342788696289">
        <ele>850.423583984375</ele>
        <time>2006-03-19T10:12:40Z</time>
      </trkpt>
      <trkpt lat="45.822000503540039" lon="9.185106754302979">
        <ele>849.94287109375</ele>
        <time>2006-03-19T10:12:54Z</time>
      </trkpt>
      <trkpt lat="45.822150707244873" lon="9.184978008270264">
        <ele>850.423583984375</ele>
        <time>2006-03-19T10:13:06Z</time>
      </trkpt>
      <trkpt lat="45.822279453277588" lon="9.184913635253906">
        <ele>851.865478515625</ele>
        <time>2006-03-19T10:13:16Z</time>
      </trkpt>
      <trkpt lat="45.82247257232666" lon="9.18482780456543">
        <ele>852.82666015625</ele>
        <time>2006-03-19T10:13:30Z</time>
      </trkpt>
      <trkpt lat="45.822665691375732" lon="9.184677600860596">
        <ele>857.152587890625</ele>
        <time>2006-03-19T10:13:44Z</time>
      </trkpt>
      <trkpt lat="45.822794437408447" lon="9.184484481811523">
        <ele>860.998046875</ele>
        <time>2006-03-19T10:13:58Z</time>
      </trkpt>
      <trkpt lat="45.823009014129639" lon="9.18431282043457">
        <ele>863.4013671875</ele>
        <time>2006-03-19T10:14:14Z</time>
      </trkpt>
      <trkpt lat="45.823073387145996" lon="9.184269905090332">
        <ele>863.4013671875</ele>
        <time>2006-03-19T10:14:22Z</time>
      </trkpt>
      <trkpt lat="45.823202133178711" lon="9.184205532073975">
        <ele>865.8046875</ele>
        <time>2006-03-19T10:14:34Z</time>
      </trkpt>
      <trkpt lat="45.823309421539307" lon="9.184141159057617">
        <ele>868.6884765625</ele>
        <time>2006-03-19T10:14:47Z</time>
      </trkpt>
      <trkpt lat="45.823459625244141" lon="9.184119701385498">
        <ele>871.091796875</ele>
        <time>2006-03-19T10:15:01Z</time>
      </trkpt>
      <trkpt lat="45.823566913604736" lon="9.184098243713379">
        <ele>871.572265625</ele>
        <time>2006-03-19T10:15:12Z</time>
      </trkpt>
      <trkpt lat="45.823652744293213" lon="9.18407678604126">
        <ele>872.052978515625</ele>
        <time>2006-03-19T10:15:21Z</time>
      </trkpt>
      <trkpt lat="45.823738574981689" lon="9.184033870697022">
        <ele>872.53369140625</ele>
        <time>2006-03-19T10:15:33Z</time>
      </trkpt>
      <trkpt lat="45.823802947998047" lon="9.183990955352783">
        <ele>873.014404296875</ele>
        <time>2006-03-19T10:15:42Z</time>
      </trkpt>
      <trkpt lat="45.823910236358643" lon="9.183948040008545">
        <ele>874.93701171875</ele>
        <time>2006-03-19T10:15:53Z</time>
      </trkpt>
      <trkpt lat="45.823996067047119" lon="9.183905124664307">
        <ele>875.41748046875</ele>
        <time>2006-03-19T10:16:02Z</time>
      </trkpt>
      <trkpt lat="45.824081897735596" lon="9.183840751647949">
        <ele>877.821044921875</ele>
        <time>2006-03-19T10:16:13Z</time>
      </trkpt>
      <trkpt lat="45.824189186096191" lon="9.183776378631592">
        <ele>881.666259765625</ele>
        <time>2006-03-19T10:16:24Z</time>
      </trkpt>
      <trkpt lat="45.824275016784668" lon="9.183733463287354">
        <ele>884.55029296875</ele>
        <time>2006-03-19T10:16:33Z</time>
      </trkpt>
      <trkpt lat="45.824339389801025" lon="9.183776378631592">
        <ele>885.9921875</ele>
        <time>2006-03-19T10:16:41Z</time>
      </trkpt>
      <trkpt lat="45.824425220489502" lon="9.183905124664307">
        <ele>887.43408203125</ele>
        <time>2006-03-19T10:16:52Z</time>
      </trkpt>
      <trkpt lat="45.824425220489502" lon="9.184033870697022">
        <ele>886.953369140625</ele>
        <time>2006-03-19T10:17:02Z</time>
      </trkpt>
      <trkpt lat="45.824425220489502" lon="9.184205532073975">
        <ele>886.472900390625</ele>
        <time>2006-03-19T10:17:12Z</time>
      </trkpt>
      <trkpt lat="45.824382305145264" lon="9.184484481811523">
        <ele>888.876220703125</ele>
        <time>2006-03-19T10:17:26Z</time>
      </trkpt>
      <trkpt lat="45.824339389801025" lon="9.184720516204834">
        <ele>887.914794921875</ele>
        <time>2006-03-19T10:17:38Z</time>
      </trkpt>
      <trkpt lat="45.824317932128906" lon="9.184806346893311">
        <ele>887.43408203125</ele>
        <time>2006-03-19T10:17:43Z</time>
      </trkpt>
      <trkpt lat="45.824275016784668" lon="9.185042381286621">
        <ele>887.43408203125</ele>
        <time>2006-03-19T10:17:54Z</time>
      </trkpt>
      <trkpt lat="45.824317932128906" lon="9.185278415679932">
        <ele>892.240966796875</ele>
        <time>2006-03-19T10:18:05Z</time>
      </trkpt>
      <trkpt lat="45.824403762817383" lon="9.185471534729004">
        <ele>896.086181640625</ele>
        <time>2006-03-19T10:18:16Z</time>
      </trkpt>
      <trkpt lat="45.824511051177979" lon="9.185643196105957">
        <ele>897.04736328125</ele>
        <time>2006-03-19T10:18:27Z</time>
      </trkpt>
      <trkpt lat="45.824596881866455" lon="9.18581485748291">
        <ele>898.0087890625</ele>
        <time>2006-03-19T10:18:38Z</time>
      </trkpt>
      <trkpt lat="45.824682712554932" lon="9.185922145843506">
        <ele>898.0087890625</ele>
        <time>2006-03-19T10:18:45Z</time>
      </trkpt>
      <trkpt lat="45.82472562789917" lon="9.185922145843506">
        <ele>897.528076171875</ele>
        <time>2006-03-19T10:18:49Z</time>
      </trkpt>
      <trkpt lat="45.824747085571289" lon="9.185900688171387">
        <ele>898.4892578125</ele>
        <time>2006-03-19T10:18:57Z</time>
      </trkpt>
      <trkpt lat="45.824768543243408" lon="9.185943603515625">
        <ele>897.04736328125</ele>
        <time>2006-03-19T10:52:17Z</time>
      </trkpt>
      <trkpt lat="45.824811458587646" lon="9.185986518859863">
        <ele>897.04736328125</ele>
        <time>2006-03-19T10:52:26Z</time>
      </trkpt>
      <trkpt lat="45.824897289276123" lon="9.185965061187744">
        <ele>896.56689453125</ele>
        <time>2006-03-19T10:52:36Z</time>
      </trkpt>
      <trkpt lat="45.82496166229248" lon="9.185943603515625">
        <ele>895.60546875</ele>
        <time>2006-03-19T10:52:46Z</time>
      </trkpt>
      <trkpt lat="45.825004577636719" lon="9.185943603515625">
        <ele>897.528076171875</ele>
        <time>2006-03-19T10:52:54Z</time>
      </trkpt>
      <trkpt lat="45.825111865997314" lon="9.185965061187744">
        <ele>898.4892578125</ele>
        <time>2006-03-19T10:53:03Z</time>
      </trkpt>
      <trkpt lat="45.82521915435791" lon="9.185965061187744">
        <ele>896.56689453125</ele>
        <time>2006-03-19T10:53:12Z</time>
      </trkpt>
      <trkpt lat="45.825262069702148" lon="9.185943603515625">
        <ele>897.04736328125</ele>
        <time>2006-03-19T10:53:19Z</time>
      </trkpt>
      <trkpt lat="45.825347900390625" lon="9.185965061187744">
        <ele>897.04736328125</ele>
        <time>2006-03-19T10:53:28Z</time>
      </trkpt>
      <trkpt lat="45.825605392456055" lon="9.186136722564697">
        <ele>897.04736328125</ele>
        <time>2006-03-19T10:53:46Z</time>
      </trkpt>
      <trkpt lat="45.825884342193604" lon="9.18632984161377">
        <ele>897.528076171875</ele>
        <time>2006-03-19T10:54:03Z</time>
      </trkpt>
      <trkpt lat="45.826206207275391" lon="9.186458587646484">
        <ele>894.16357421875</ele>
        <time>2006-03-19T10:54:16Z</time>
      </trkpt>
      <trkpt lat="45.826485157012939" lon="9.186415672302246">
        <ele>896.086181640625</ele>
        <time>2006-03-19T10:54:29Z</time>
      </trkpt>
      <trkpt lat="45.826871395111084" lon="9.18630838394165">
        <ele>896.56689453125</ele>
        <time>2006-03-19T10:54:48Z</time>
      </trkpt>
      <trkpt lat="45.827085971832275" lon="9.18632984161377">
        <ele>897.528076171875</ele>
        <time>2006-03-19T10:55:02Z</time>
      </trkpt>
      <trkpt lat="45.827236175537109" lon="9.18632984161377">
        <ele>899.931396484375</ele>
        <time>2006-03-19T10:55:13Z</time>
      </trkpt>
      <trkpt lat="45.827407836914063" lon="9.186265468597412">
        <ele>901.85400390625</ele>
        <time>2006-03-19T10:55:27Z</time>
      </trkpt>
      <trkpt lat="45.82747220993042" lon="9.186201095581055">
        <ele>902.815185546875</ele>
        <time>2006-03-19T10:55:34Z</time>
      </trkpt>
      <trkpt lat="45.827579498291016" lon="9.186050891876221">
        <ele>902.33447265625</ele>
        <time>2006-03-19T10:55:44Z</time>
      </trkpt>
      <trkpt lat="45.827794075012207" lon="9.18581485748291">
        <ele>902.815185546875</ele>
        <time>2006-03-19T10:55:59Z</time>
      </trkpt>
      <trkpt lat="45.828008651733398" lon="9.185621738433838">
        <ele>903.2958984375</ele>
        <time>2006-03-19T10:56:13Z</time>
      </trkpt>
      <trkpt lat="45.828137397766113" lon="9.185364246368408">
        <ele>903.776611328125</ele>
        <time>2006-03-19T10:56:26Z</time>
      </trkpt>
      <trkpt lat="45.828394889831543" lon="9.185085296630859">
        <ele>903.776611328125</ele>
        <time>2006-03-19T10:56:43Z</time>
      </trkpt>
      <trkpt lat="45.828695297241211" lon="9.184870719909668">
        <ele>902.33447265625</ele>
        <time>2006-03-19T10:56:59Z</time>
      </trkpt>
      <trkpt lat="45.829145908355713" lon="9.184784889221191">
        <ele>902.815185546875</ele>
        <time>2006-03-19T10:57:14Z</time>
      </trkpt>
      <trkpt lat="45.829381942749023" lon="9.184741973876953">
        <ele>903.2958984375</ele>
        <time>2006-03-19T10:57:24Z</time>
      </trkpt>
      <trkpt lat="45.82972526550293" lon="9.184656143188477">
        <ele>904.73779296875</ele>
        <time>2006-03-19T10:57:38Z</time>
      </trkpt>
      <trkpt lat="45.830047130584717" lon="9.184591770172119">
        <ele>903.2958984375</ele>
        <time>2006-03-19T10:57:53Z</time>
      </trkpt>
      <trkpt lat="45.830283164978027" lon="9.1845703125">
        <ele>902.815185546875</ele>
        <time>2006-03-19T10:58:06Z</time>
      </trkpt>
      <trkpt lat="45.830390453338623" lon="9.18433427810669">
        <ele>903.2958984375</ele>
        <time>2006-03-19T10:58:18Z</time>
      </trkpt>
      <trkpt lat="45.830519199371338" lon="9.184141159057617">
        <ele>902.815185546875</ele>
        <time>2006-03-19T10:58:32Z</time>
      </trkpt>
      <trkpt lat="45.830798149108887" lon="9.18332576751709">
        <ele>902.815185546875</ele>
        <time>2006-03-19T10:58:53Z</time>
      </trkpt>
      <trkpt lat="45.830690860748291" lon="9.183261394500732">
        <ele>908.583251953125</ele>
        <time>2006-03-19T10:59:06Z</time>
      </trkpt>
      <trkpt lat="45.830669403076172" lon="9.183175563812256">
        <ele>910.505859375</ele>
        <time>2006-03-19T10:59:15Z</time>
      </trkpt>
      <trkpt lat="45.830626487731934" lon="9.18306827545166">
        <ele>912.9091796875</ele>
        <time>2006-03-19T10:59:26Z</time>
      </trkpt>
      <trkpt lat="45.830540657043457" lon="9.182960987091065">
        <ele>916.273681640625</ele>
        <time>2006-03-19T10:59:41Z</time>
      </trkpt>
      <trkpt lat="45.8304762840271" lon="9.18283224105835">
        <ele>916.75439453125</ele>
        <time>2006-03-19T10:59:54Z</time>
      </trkpt>
      <trkpt lat="45.830411911010742" lon="9.182724952697754">
        <ele>917.715576171875</ele>
        <time>2006-03-19T11:00:05Z</time>
      </trkpt>
      <trkpt lat="45.830347537994385" lon="9.182596206665039">
        <ele>918.1962890625</ele>
        <time>2006-03-19T11:00:18Z</time>
      </trkpt>
      <trkpt lat="45.830283164978027" lon="9.182467460632324">
        <ele>918.1962890625</ele>
        <time>2006-03-19T11:00:31Z</time>
      </trkpt>
      <trkpt lat="45.830240249633789" lon="9.182381629943848">
        <ele>918.677001953125</ele>
        <time>2006-03-19T11:00:39Z</time>
      </trkpt>
      <trkpt lat="45.830175876617432" lon="9.182231426239014">
        <ele>919.15771484375</ele>
        <time>2006-03-19T11:00:53Z</time>
      </trkpt>
      <trkpt lat="45.830111503601074" lon="9.182124137878418">
        <ele>919.15771484375</ele>
        <time>2006-03-19T11:01:06Z</time>
      </trkpt>
      <trkpt lat="45.830090045928955" lon="9.182145595550537">
        <ele>925.40625</ele>
        <time>2006-03-19T11:01:37Z</time>
      </trkpt>
      <trkpt lat="45.829982757568359" lon="9.182016849517822">
        <ele>929.25146484375</ele>
        <time>2006-03-19T11:01:48Z</time>
      </trkpt>
      <trkpt lat="45.829896926879883" lon="9.181866645812988">
        <ele>932.135498046875</ele>
        <time>2006-03-19T11:02:00Z</time>
      </trkpt>
      <trkpt lat="45.829832553863525" lon="9.181780815124512">
        <ele>934.538818359375</ele>
        <time>2006-03-19T11:02:09Z</time>
      </trkpt>
      <trkpt lat="45.829746723175049" lon="9.181652069091797">
        <ele>935.5</ele>
        <time>2006-03-19T11:02:19Z</time>
      </trkpt>
      <trkpt lat="45.829682350158691" lon="9.181544780731201">
        <ele>936.94189453125</ele>
        <time>2006-03-19T11:02:30Z</time>
      </trkpt>
      <trkpt lat="45.829617977142334" lon="9.181373119354248">
        <ele>936.94189453125</ele>
        <time>2006-03-19T11:02:42Z</time>
      </trkpt>
      <trkpt lat="45.829532146453857" lon="9.181222915649414">
        <ele>937.9033203125</ele>
        <time>2006-03-19T11:02:54Z</time>
      </trkpt>
      <trkpt lat="45.829510688781738" lon="9.181158542633057">
        <ele>937.9033203125</ele>
        <time>2006-03-19T11:03:00Z</time>
      </trkpt>
      <trkpt lat="45.8294677734375" lon="9.181029796600342">
        <ele>938.86474609375</ele>
        <time>2006-03-19T11:03:11Z</time>
      </trkpt>
      <trkpt lat="45.8294677734375" lon="9.180922508239746">
        <ele>942.2294921875</ele>
        <time>2006-03-19T11:03:23Z</time>
      </trkpt>
      <trkpt lat="45.8294677734375" lon="9.180793762207031">
        <ele>944.152099609375</ele>
        <time>2006-03-19T11:03:35Z</time>
      </trkpt>
      <trkpt lat="45.829489231109619" lon="9.180750846862793">
        <ele>943.67138671875</ele>
        <time>2006-03-19T11:03:44Z</time>
      </trkpt>
      <trkpt lat="45.829510688781738" lon="9.180686473846436">
        <ele>939.825927734375</ele>
        <time>2006-03-19T11:06:30Z</time>
      </trkpt>
      <trkpt lat="45.829575061798096" lon="9.180665016174316">
        <ele>939.34521484375</ele>
        <time>2006-03-19T11:06:36Z</time>
      </trkpt>
      <trkpt lat="45.829639434814453" lon="9.180643558502197">
        <ele>940.306884765625</ele>
        <time>2006-03-19T11:06:44Z</time>
      </trkpt>
      <trkpt lat="45.829703807830811" lon="9.180600643157959">
        <ele>940.787353515625</ele>
        <time>2006-03-19T11:06:51Z</time>
      </trkpt>
      <trkpt lat="45.82996129989624" lon="9.180407524108887">
        <ele>940.306884765625</ele>
        <time>2006-03-19T11:07:12Z</time>
      </trkpt>
      <trkpt lat="45.829982757568359" lon="9.180386066436768">
        <ele>940.306884765625</ele>
        <time>2006-03-19T11:07:13Z</time>
      </trkpt>
      <trkpt lat="45.830197334289551" lon="9.180128574371338">
        <ele>940.306884765625</ele>
        <time>2006-03-19T11:07:29Z</time>
      </trkpt>
      <trkpt lat="45.830647945404053" lon="9.179635047912598">
        <ele>939.825927734375</ele>
        <time>2006-03-19T11:07:49Z</time>
      </trkpt>
      <trkpt lat="45.830819606781006" lon="9.179270267486572">
        <ele>939.825927734375</ele>
        <time>2006-03-19T11:07:57Z</time>
      </trkpt>
      <trkpt lat="45.831098556518555" lon="9.178369045257568">
        <ele>940.306884765625</ele>
        <time>2006-03-19T11:08:04Z</time>
      </trkpt>
      <trkpt lat="45.830926895141602" lon="9.178433418273926">
        <ele>940.306884765625</ele>
        <time>2006-03-19T11:08:09Z</time>
      </trkpt>
      <trkpt lat="45.830991268157959" lon="9.178390502929688">
        <ele>940.306884765625</ele>
        <time>2006-03-19T11:08:12Z</time>
      </trkpt>
      <trkpt lat="45.830926895141602" lon="9.178283214569092">
        <ele>938.384033203125</ele>
        <time>2006-03-19T11:08:20Z</time>
      </trkpt>
      <trkpt lat="45.83146333694458" lon="9.177854061126709">
        <ele>937.422607421875</ele>
        <time>2006-03-19T11:08:37Z</time>
      </trkpt>
      <trkpt lat="45.831527709960938" lon="9.177768230438232">
        <ele>935.980712890625</ele>
        <time>2006-03-19T11:08:41Z</time>
      </trkpt>
      <trkpt lat="45.831592082977295" lon="9.177682399749756">
        <ele>935.01953125</ele>
        <time>2006-03-19T11:08:49Z</time>
      </trkpt>
      <trkpt lat="45.831656455993652" lon="9.177489280700684">
        <ele>935.01953125</ele>
        <time>2006-03-19T11:09:06Z</time>
      </trkpt>
      <trkpt lat="45.831656455993652" lon="9.177467823028565">
        <ele>935.01953125</ele>
        <time>2006-03-19T11:09:08Z</time>
      </trkpt>
      <trkpt lat="45.831634998321533" lon="9.177424907684326">
        <ele>935.01953125</ele>
        <time>2006-03-19T11:09:10Z</time>
      </trkpt>
      <trkpt lat="45.83120584487915" lon="9.17658805847168">
        <ele>934.538818359375</ele>
        <time>2006-03-19T11:09:16Z</time>
      </trkpt>
      <trkpt lat="45.831291675567627" lon="9.176416397094727">
        <ele>934.05810546875</ele>
        <time>2006-03-19T11:09:20Z</time>
      </trkpt>
      <trkpt lat="45.831184387207031" lon="9.17633056640625">
        <ele>933.577392578125</ele>
        <time>2006-03-19T11:09:22Z</time>
      </trkpt>
      <trkpt lat="45.831313133239746" lon="9.175815582275391">
        <ele>933.0966796875</ele>
        <time>2006-03-19T11:09:35Z</time>
      </trkpt>
      <trkpt lat="45.831334590911865" lon="9.175257682800293">
        <ele>934.538818359375</ele>
        <time>2006-03-19T11:09:47Z</time>
      </trkpt>
      <trkpt lat="45.831334590911865" lon="9.175021648406982">
        <ele>934.538818359375</ele>
        <time>2006-03-19T11:09:56Z</time>
      </trkpt>
      <trkpt lat="45.831334590911865" lon="9.174764156341553">
        <ele>933.577392578125</ele>
        <time>2006-03-19T11:10:06Z</time>
      </trkpt>
      <trkpt lat="45.831313133239746" lon="9.174764156341553">
        <ele>933.577392578125</ele>
        <time>2006-03-19T11:10:12Z</time>
      </trkpt>
      <trkpt lat="45.831313133239746" lon="9.174764156341553">
        <ele>933.0966796875</ele>
        <time>2006-03-19T11:10:22Z</time>
      </trkpt>
      <trkpt lat="45.831334590911865" lon="9.174721240997315">
        <ele>926.36767578125</ele>
        <time>2006-03-19T11:10:32Z</time>
      </trkpt>
      <trkpt lat="45.831356048583984" lon="9.174721240997315">
        <ele>923.964111328125</ele>
        <time>2006-03-19T11:10:47Z</time>
      </trkpt>
      <trkpt lat="45.831291675567627" lon="9.174721240997315">
        <ele>924.92578125</ele>
        <time>2006-03-19T11:11:02Z</time>
      </trkpt>
      <trkpt lat="45.831162929534912" lon="9.174721240997315">
        <ele>929.732177734375</ele>
        <time>2006-03-19T11:11:14Z</time>
      </trkpt>
      <trkpt lat="45.831034183502197" lon="9.174678325653076">
        <ele>930.212890625</ele>
        <time>2006-03-19T11:11:30Z</time>
      </trkpt>
      <trkpt lat="45.831012725830078" lon="9.174678325653076">
        <ele>930.212890625</ele>
        <time>2006-03-19T11:11:31Z</time>
      </trkpt>
      <trkpt lat="45.830926895141602" lon="9.174656867980957">
        <ele>929.732177734375</ele>
        <time>2006-03-19T11:11:41Z</time>
      </trkpt>
      <trkpt lat="45.830755233764648" lon="9.174849987030029">
        <ele>932.135498046875</ele>
        <time>2006-03-19T11:11:51Z</time>
      </trkpt>
      <trkpt lat="45.83045482635498" lon="9.174914360046387">
        <ele>932.6162109375</ele>
        <time>2006-03-19T11:12:03Z</time>
      </trkpt>
      <trkpt lat="45.830197334289551" lon="9.175064563751221">
        <ele>934.05810546875</ele>
        <time>2006-03-19T11:12:14Z</time>
      </trkpt>
      <trkpt lat="45.82996129989624" lon="9.17508602142334">
        <ele>934.538818359375</ele>
        <time>2006-03-19T11:12:26Z</time>
      </trkpt>
      <trkpt lat="45.829703807830811" lon="9.174957275390625">
        <ele>934.538818359375</ele>
        <time>2006-03-19T11:12:39Z</time>
      </trkpt>
      <trkpt lat="45.8294677734375" lon="9.17482852935791">
        <ele>935.01953125</ele>
        <time>2006-03-19T11:12:47Z</time>
      </trkpt>
      <trkpt lat="45.829253196716309" lon="9.174721240997315">
        <ele>934.05810546875</ele>
        <time>2006-03-19T11:12:55Z</time>
      </trkpt>
      <trkpt lat="45.828888416290283" lon="9.174656867980957">
        <ele>933.577392578125</ele>
        <time>2006-03-19T11:13:09Z</time>
      </trkpt>
      <trkpt lat="45.828673839569092" lon="9.174656867980957">
        <ele>934.05810546875</ele>
        <time>2006-03-19T11:13:22Z</time>
      </trkpt>
      <trkpt lat="45.828523635864258" lon="9.1745924949646">
        <ele>933.0966796875</ele>
        <time>2006-03-19T11:13:35Z</time>
      </trkpt>
      <trkpt lat="45.828330516815186" lon="9.174656867980957">
        <ele>932.6162109375</ele>
        <time>2006-03-19T11:13:45Z</time>
      </trkpt>
      <trkpt lat="45.828266143798828" lon="9.174678325653076">
        <ele>932.6162109375</ele>
        <time>2006-03-19T11:13:48Z</time>
      </trkpt>
      <trkpt lat="45.828073024749756" lon="9.174356460571289">
        <ele>931.65478515625</ele>
        <time>2006-03-19T11:13:54Z</time>
      </trkpt>
      <trkpt lat="45.828051567077637" lon="9.174141883850098">
        <ele>931.65478515625</ele>
        <time>2006-03-19T11:13:58Z</time>
      </trkpt>
      <trkpt lat="45.827987194061279" lon="9.173862934112549">
        <ele>930.693603515625</ele>
        <time>2006-03-19T11:14:05Z</time>
      </trkpt>
      <trkpt lat="45.827858448028564" lon="9.173583984375">
        <ele>930.212890625</ele>
        <time>2006-03-19T11:14:13Z</time>
      </trkpt>
      <trkpt lat="45.82770824432373" lon="9.173262119293213">
        <ele>928.290283203125</ele>
        <time>2006-03-19T11:14:23Z</time>
      </trkpt>
      <trkpt lat="45.827579498291016" lon="9.173197746276856">
        <ele>928.290283203125</ele>
        <time>2006-03-19T11:14:31Z</time>
      </trkpt>
      <trkpt lat="45.827579498291016" lon="9.173176288604736">
        <ele>927.8095703125</ele>
        <time>2006-03-19T11:14:39Z</time>
      </trkpt>
      <trkpt lat="45.827515125274658" lon="9.173133373260498">
        <ele>927.3291015625</ele>
        <time>2006-03-19T11:14:58Z</time>
      </trkpt>
      <trkpt lat="45.827450752258301" lon="9.173069000244141">
        <ele>926.848388671875</ele>
        <time>2006-03-19T11:15:08Z</time>
      </trkpt>
      <trkpt lat="45.827364921569824" lon="9.172983169555664">
        <ele>926.36767578125</ele>
        <time>2006-03-19T11:15:22Z</time>
      </trkpt>
      <trkpt lat="45.827257633209229" lon="9.172897338867188">
        <ele>925.886962890625</ele>
        <time>2006-03-19T11:15:33Z</time>
      </trkpt>
      <trkpt lat="45.827171802520752" lon="9.172790050506592">
        <ele>928.290283203125</ele>
        <time>2006-03-19T11:15:46Z</time>
      </trkpt>
      <trkpt lat="45.827150344848633" lon="9.172790050506592">
        <ele>931.65478515625</ele>
        <time>2006-03-19T11:16:33Z</time>
      </trkpt>
      <trkpt lat="45.827085971832275" lon="9.172661304473877">
        <ele>926.848388671875</ele>
        <time>2006-03-19T11:20:49Z</time>
      </trkpt>
      <trkpt lat="45.827128887176514" lon="9.172682762145996">
        <ele>928.290283203125</ele>
        <time>2006-03-19T11:23:29Z</time>
      </trkpt>
      <trkpt lat="45.827085971832275" lon="9.17259693145752">
        <ele>944.632568359375</ele>
        <time>2006-03-19T11:26:05Z</time>
      </trkpt>
      <trkpt lat="45.827085971832275" lon="9.172554016113281">
        <ele>944.632568359375</ele>
        <time>2006-03-19T11:26:09Z</time>
      </trkpt>
      <trkpt lat="45.827064514160156" lon="9.172317981719971">
        <ele>944.632568359375</ele>
        <time>2006-03-19T11:26:19Z</time>
      </trkpt>
      <trkpt lat="45.827000141143799" lon="9.172017574310303">
        <ele>944.632568359375</ele>
        <time>2006-03-19T11:26:32Z</time>
      </trkpt>
      <trkpt lat="45.827021598815918" lon="9.171717166900635">
        <ele>944.152099609375</ele>
        <time>2006-03-19T11:26:48Z</time>
      </trkpt>
      <trkpt lat="45.827000141143799" lon="9.171438217163086">
        <ele>943.190673828125</ele>
        <time>2006-03-19T11:26:59Z</time>
      </trkpt>
      <trkpt lat="45.82697868347168" lon="9.171245098114014">
        <ele>941.748779296875</ele>
        <time>2006-03-19T11:27:06Z</time>
      </trkpt>
      <trkpt lat="45.827043056488037" lon="9.171009063720703">
        <ele>941.748779296875</ele>
        <time>2006-03-19T11:27:16Z</time>
      </trkpt>
      <trkpt lat="45.827128887176514" lon="9.170858860015869">
        <ele>939.825927734375</ele>
        <time>2006-03-19T11:27:24Z</time>
      </trkpt>
      <trkpt lat="45.827236175537109" lon="9.170665740966797">
        <ele>939.825927734375</ele>
        <time>2006-03-19T11:27:34Z</time>
      </trkpt>
      <trkpt lat="45.827386379241943" lon="9.170515537261963">
        <ele>939.825927734375</ele>
        <time>2006-03-19T11:27:46Z</time>
      </trkpt>
      <trkpt lat="45.827515125274658" lon="9.170279502868652">
        <ele>936.94189453125</ele>
        <time>2006-03-19T11:27:59Z</time>
      </trkpt>
      <trkpt lat="45.827622413635254" lon="9.169979095458984">
        <ele>935.01953125</ele>
        <time>2006-03-19T11:28:14Z</time>
      </trkpt>
      <trkpt lat="45.827686786651611" lon="9.169785976409912">
        <ele>935.5</ele>
        <time>2006-03-19T11:28:23Z</time>
      </trkpt>
      <trkpt lat="45.827772617340088" lon="9.169464111328125">
        <ele>935.5</ele>
        <time>2006-03-19T11:28:37Z</time>
      </trkpt>
      <trkpt lat="45.827794075012207" lon="9.169270992279053">
        <ele>936.94189453125</ele>
        <time>2006-03-19T11:28:46Z</time>
      </trkpt>
      <trkpt lat="45.827858448028564" lon="9.169142246246338">
        <ele>939.34521484375</ele>
        <time>2006-03-19T11:28:54Z</time>
      </trkpt>
      <trkpt lat="45.827987194061279" lon="9.168906211853027">
        <ele>940.306884765625</ele>
        <time>2006-03-19T11:29:10Z</time>
      </trkpt>
      <trkpt lat="45.828137397766113" lon="9.16884183883667">
        <ele>940.306884765625</ele>
        <time>2006-03-19T11:29:21Z</time>
      </trkpt>
      <trkpt lat="45.828180313110352" lon="9.168670177459717">
        <ele>942.710205078125</ele>
        <time>2006-03-19T11:29:32Z</time>
      </trkpt>
      <trkpt lat="45.828201770782471" lon="9.168648719787598">
        <ele>943.190673828125</ele>
        <time>2006-03-19T11:29:37Z</time>
      </trkpt>
      <trkpt lat="45.828180313110352" lon="9.168562889099121">
        <ele>944.152099609375</ele>
        <time>2006-03-19T11:29:43Z</time>
      </trkpt>
      <trkpt lat="45.828158855438232" lon="9.16834831237793">
        <ele>944.632568359375</ele>
        <time>2006-03-19T11:29:56Z</time>
      </trkpt>
      <trkpt lat="45.828137397766113" lon="9.168262481689453">
        <ele>946.07470703125</ele>
        <time>2006-03-19T11:30:05Z</time>
      </trkpt>
      <trkpt lat="45.828158855438232" lon="9.168069362640381">
        <ele>947.035888671875</ele>
        <time>2006-03-19T11:30:18Z</time>
      </trkpt>
      <trkpt lat="45.828180313110352" lon="9.167919158935547">
        <ele>948.477783203125</ele>
        <time>2006-03-19T11:30:29Z</time>
      </trkpt>
      <trkpt lat="45.828180313110352" lon="9.167768955230713">
        <ele>948.477783203125</ele>
        <time>2006-03-19T11:30:40Z</time>
      </trkpt>
      <trkpt lat="45.828180313110352" lon="9.167747497558594">
        <ele>952.322998046875</ele>
        <time>2006-03-19T11:30:49Z</time>
      </trkpt>
      <trkpt lat="45.828158855438232" lon="9.16759729385376">
        <ele>956.649169921875</ele>
        <time>2006-03-19T11:31:04Z</time>
      </trkpt>
      <trkpt lat="45.828158855438232" lon="9.167447090148926">
        <ele>958.57177734375</ele>
        <time>2006-03-19T11:31:15Z</time>
      </trkpt>
      <trkpt lat="45.828180313110352" lon="9.167425632476807">
        <ele>958.09130859375</ele>
        <time>2006-03-19T11:31:16Z</time>
      </trkpt>
      <trkpt lat="45.828094482421875" lon="9.167232513427734">
        <ele>960.494384765625</ele>
        <time>2006-03-19T11:31:26Z</time>
      </trkpt>
      <trkpt lat="45.828073024749756" lon="9.166996479034424">
        <ele>960.97509765625</ele>
        <time>2006-03-19T11:31:40Z</time>
      </trkpt>
      <trkpt lat="45.828051567077637" lon="9.166953563690186">
        <ele>959.052490234375</ele>
        <time>2006-03-19T11:31:51Z</time>
      </trkpt>
      <trkpt lat="45.828158855438232" lon="9.166867733001709">
        <ele>958.09130859375</ele>
        <time>2006-03-19T11:32:43Z</time>
      </trkpt>
      <trkpt lat="45.82822322845459" lon="9.166760444641113">
        <ele>960.013671875</ele>
        <time>2006-03-19T11:32:56Z</time>
      </trkpt>
      <trkpt lat="45.828309059143066" lon="9.166760444641113">
        <ele>959.533203125</ele>
        <time>2006-03-19T11:33:10Z</time>
      </trkpt>
      <trkpt lat="45.828330516815186" lon="9.166760444641113">
        <ele>959.533203125</ele>
        <time>2006-03-19T11:33:12Z</time>
      </trkpt>
      <trkpt lat="45.828394889831543" lon="9.166781902313232">
        <ele>960.494384765625</ele>
        <time>2006-03-19T11:33:22Z</time>
      </trkpt>
      <trkpt lat="45.828437805175781" lon="9.166781902313232">
        <ele>960.97509765625</ele>
        <time>2006-03-19T11:33:31Z</time>
      </trkpt>
      <trkpt lat="45.828566551208496" lon="9.166889190673828">
        <ele>961.9365234375</ele>
        <time>2006-03-19T11:33:49Z</time>
      </trkpt>
      <trkpt lat="45.828652381896973" lon="9.166953563690186">
        <ele>962.4169921875</ele>
        <time>2006-03-19T11:34:03Z</time>
      </trkpt>
      <trkpt lat="45.82871675491333" lon="9.166975021362305">
        <ele>961.9365234375</ele>
        <time>2006-03-19T11:34:14Z</time>
      </trkpt>
      <trkpt lat="45.828759670257568" lon="9.166975021362305">
        <ele>965.78173828125</ele>
        <time>2006-03-19T11:34:27Z</time>
      </trkpt>
      <trkpt lat="45.828824043273926" lon="9.166932106018066">
        <ele>966.26220703125</ele>
        <time>2006-03-19T11:34:35Z</time>
      </trkpt>
      <trkpt lat="45.828909873962402" lon="9.166910648345947">
        <ele>964.339599609375</ele>
        <time>2006-03-19T11:34:49Z</time>
      </trkpt>
      <trkpt lat="45.828952789306641" lon="9.16684627532959">
        <ele>966.26220703125</ele>
        <time>2006-03-19T11:34:58Z</time>
      </trkpt>
      <trkpt lat="45.82897424697876" lon="9.16684627532959">
        <ele>963.85888671875</ele>
        <time>2006-03-19T11:35:11Z</time>
      </trkpt>
      <trkpt lat="45.828995704650879" lon="9.166781902313232">
        <ele>963.85888671875</ele>
        <time>2006-03-19T11:35:18Z</time>
      </trkpt>
      <trkpt lat="45.829017162322998" lon="9.166653156280518">
        <ele>966.742919921875</ele>
        <time>2006-03-19T11:35:29Z</time>
      </trkpt>
      <trkpt lat="45.829081535339355" lon="9.166610240936279">
        <ele>968.184814453125</ele>
        <time>2006-03-19T11:35:42Z</time>
      </trkpt>
      <trkpt lat="45.829124450683594" lon="9.166567325592041">
        <ele>970.588134765625</ele>
        <time>2006-03-19T11:35:50Z</time>
      </trkpt>
      <trkpt lat="45.829145908355713" lon="9.166524410247803">
        <ele>971.06884765625</ele>
        <time>2006-03-19T11:35:56Z</time>
      </trkpt>
      <trkpt lat="45.829188823699951" lon="9.166502952575684">
        <ele>972.510986328125</ele>
        <time>2006-03-19T11:36:04Z</time>
      </trkpt>
      <trkpt lat="45.829231739044189" lon="9.166481494903565">
        <ele>973.952880859375</ele>
        <time>2006-03-19T11:36:12Z</time>
      </trkpt>
      <trkpt lat="45.829274654388428" lon="9.166417121887207">
        <ele>975.394775390625</ele>
        <time>2006-03-19T11:36:23Z</time>
      </trkpt>
      <trkpt lat="45.829339027404785" lon="9.16635274887085">
        <ele>977.317626953125</ele>
        <time>2006-03-19T11:36:37Z</time>
      </trkpt>
      <trkpt lat="45.829424858093262" lon="9.166309833526611">
        <ele>979.239990234375</ele>
        <time>2006-03-19T11:36:59Z</time>
      </trkpt>
      <trkpt lat="45.829553604125977" lon="9.166245460510254">
        <ele>981.643310546875</ele>
        <time>2006-03-19T11:37:13Z</time>
      </trkpt>
      <trkpt lat="45.82972526550293" lon="9.166138172149658">
        <ele>982.1240234375</ele>
        <time>2006-03-19T11:37:33Z</time>
      </trkpt>
      <trkpt lat="45.829854011535645" lon="9.166073799133301">
        <ele>984.046630859375</ele>
        <time>2006-03-19T11:37:47Z</time>
      </trkpt>
      <trkpt lat="45.829939842224121" lon="9.166009426116943">
        <ele>986.449951171875</ele>
        <time>2006-03-19T11:38:01Z</time>
      </trkpt>
      <trkpt lat="45.830004215240479" lon="9.165923595428467">
        <ele>990.29541015625</ele>
        <time>2006-03-19T11:38:14Z</time>
      </trkpt>
      <trkpt lat="45.830111503601074" lon="9.16583776473999">
        <ele>991.256591796875</ele>
        <time>2006-03-19T11:38:27Z</time>
      </trkpt>
      <trkpt lat="45.830197334289551" lon="9.165773391723633">
        <ele>991.7373046875</ele>
        <time>2006-03-19T11:38:42Z</time>
      </trkpt>
      <trkpt lat="45.830261707305908" lon="9.165709018707275">
        <ele>990.77587890625</ele>
        <time>2006-03-19T11:38:52Z</time>
      </trkpt>
      <trkpt lat="45.830304622650146" lon="9.165644645690918">
        <ele>990.77587890625</ele>
        <time>2006-03-19T11:39:01Z</time>
      </trkpt>
      <trkpt lat="45.830433368682861" lon="9.165580272674561">
        <ele>991.7373046875</ele>
        <time>2006-03-19T11:39:11Z</time>
      </trkpt>
      <trkpt lat="45.830540657043457" lon="9.165494441986084">
        <ele>992.218017578125</ele>
        <time>2006-03-19T11:39:23Z</time>
      </trkpt>
      <trkpt lat="45.830605030059814" lon="9.165387153625488">
        <ele>997.505126953125</ele>
        <time>2006-03-19T11:39:35Z</time>
      </trkpt>
      <trkpt lat="45.830733776092529" lon="9.165322780609131">
        <ele>998.46630859375</ele>
        <time>2006-03-19T11:39:54Z</time>
      </trkpt>
      <trkpt lat="45.830841064453125" lon="9.165258407592773">
        <ele>998.947021484375</ele>
        <time>2006-03-19T11:40:09Z</time>
      </trkpt>
      <trkpt lat="45.831012725830078" lon="9.165194034576416">
        <ele>996.063232421875</ele>
        <time>2006-03-19T11:40:28Z</time>
      </trkpt>
      <trkpt lat="45.831055641174316" lon="9.16508674621582">
        <ele>997.0244140625</ele>
        <time>2006-03-19T11:40:39Z</time>
      </trkpt>
      <trkpt lat="45.83120584487915" lon="9.165022373199463">
        <ele>997.98583984375</ele>
        <time>2006-03-19T11:40:57Z</time>
      </trkpt>
      <trkpt lat="45.831334590911865" lon="9.164915084838867">
        <ele>999.427734375</ele>
        <time>2006-03-19T11:41:11Z</time>
      </trkpt>
      <trkpt lat="45.831441879272461" lon="9.164829254150391">
        <ele>1000.86962890625</ele>
        <time>2006-03-19T11:41:24Z</time>
      </trkpt>
      <trkpt lat="45.831549167633057" lon="9.164764881134033">
        <ele>1000.86962890625</ele>
        <time>2006-03-19T11:41:39Z</time>
      </trkpt>
      <trkpt lat="45.831677913665771" lon="9.164807796478272">
        <ele>1001.350341796875</ele>
        <time>2006-03-19T11:41:51Z</time>
      </trkpt>
      <trkpt lat="45.831763744354248" lon="9.164915084838867">
        <ele>1000.86962890625</ele>
        <time>2006-03-19T11:42:03Z</time>
      </trkpt>
      <trkpt lat="45.831849575042725" lon="9.165022373199463">
        <ele>1000.86962890625</ele>
        <time>2006-03-19T11:42:15Z</time>
      </trkpt>
      <trkpt lat="45.831935405731201" lon="9.165151119232178">
        <ele>999.427734375</ele>
        <time>2006-03-19T11:42:29Z</time>
      </trkpt>
      <trkpt lat="45.831999778747559" lon="9.165236949920654">
        <ele>999.427734375</ele>
        <time>2006-03-19T11:42:38Z</time>
      </trkpt>
      <trkpt lat="45.832064151763916" lon="9.165387153625488">
        <ele>999.427734375</ele>
        <time>2006-03-19T11:42:53Z</time>
      </trkpt>
      <trkpt lat="45.832149982452393" lon="9.165537357330322">
        <ele>1000.86962890625</ele>
        <time>2006-03-19T11:43:09Z</time>
      </trkpt>
      <trkpt lat="45.832235813140869" lon="9.165666103363037">
        <ele>1002.792236328125</ele>
        <time>2006-03-19T11:43:25Z</time>
      </trkpt>
      <trkpt lat="45.832386016845703" lon="9.165730476379395">
        <ele>1003.753662109375</ele>
        <time>2006-03-19T11:43:47Z</time>
      </trkpt>
      <trkpt lat="45.832536220550537" lon="9.165687561035156">
        <ele>1005.19580078125</ele>
        <time>2006-03-19T11:44:01Z</time>
      </trkpt>
      <trkpt lat="45.832686424255371" lon="9.16560173034668">
        <ele>1005.19580078125</ele>
        <time>2006-03-19T11:44:17Z</time>
      </trkpt>
      <trkpt lat="45.832793712615967" lon="9.165537357330322">
        <ele>1005.676513671875</ele>
        <time>2006-03-19T11:44:27Z</time>
      </trkpt>
      <trkpt lat="45.832879543304443" lon="9.165494441986084">
        <ele>1005.676513671875</ele>
        <time>2006-03-19T11:44:38Z</time>
      </trkpt>
      <trkpt lat="45.832922458648682" lon="9.165451526641846">
        <ele>1003.753662109375</ele>
        <time>2006-03-19T11:44:45Z</time>
      </trkpt>
      <trkpt lat="45.833008289337158" lon="9.165387153625488">
        <ele>1003.27294921875</ele>
        <time>2006-03-19T11:44:55Z</time>
      </trkpt>
      <trkpt lat="45.833115577697754" lon="9.165387153625488">
        <ele>1003.753662109375</ele>
        <time>2006-03-19T11:45:04Z</time>
      </trkpt>
      <trkpt lat="45.833244323730469" lon="9.165365695953369">
        <ele>1002.3115234375</ele>
        <time>2006-03-19T11:45:16Z</time>
      </trkpt>
      <trkpt lat="45.833351612091064" lon="9.165387153625488">
        <ele>1002.792236328125</ele>
        <time>2006-03-19T11:45:28Z</time>
      </trkpt>
      <trkpt lat="45.833480358123779" lon="9.165365695953369">
        <ele>1003.27294921875</ele>
        <time>2006-03-19T11:45:40Z</time>
      </trkpt>
      <trkpt lat="45.833587646484375" lon="9.165365695953369">
        <ele>1004.234619140625</ele>
        <time>2006-03-19T11:45:50Z</time>
      </trkpt>
      <trkpt lat="45.833673477172852" lon="9.165408611297607">
        <ele>1005.19580078125</ele>
        <time>2006-03-19T11:46:04Z</time>
      </trkpt>
      <trkpt lat="45.833759307861328" lon="9.165451526641846">
        <ele>1005.676513671875</ele>
        <time>2006-03-19T11:46:16Z</time>
      </trkpt>
      <trkpt lat="45.833888053894043" lon="9.165430068969727">
        <ele>1006.6376953125</ele>
        <time>2006-03-19T11:46:29Z</time>
      </trkpt>
      <trkpt lat="45.833909511566162" lon="9.165451526641846">
        <ele>1004.234619140625</ele>
        <time>2006-03-19T11:46:37Z</time>
      </trkpt>
      <trkpt lat="45.833995342254639" lon="9.165451526641846">
        <ele>1005.676513671875</ele>
        <time>2006-03-19T11:46:49Z</time>
      </trkpt>
      <trkpt lat="45.834081172943115" lon="9.165451526641846">
        <ele>1007.118408203125</ele>
        <time>2006-03-19T11:47:01Z</time>
      </trkpt>
      <trkpt lat="45.834252834320068" lon="9.165451526641846">
        <ele>1008.560302734375</ele>
        <time>2006-03-19T11:47:20Z</time>
      </trkpt>
      <trkpt lat="45.834274291992188" lon="9.165430068969727">
        <ele>1009.521728515625</ele>
        <time>2006-03-19T11:47:30Z</time>
      </trkpt>
      <trkpt lat="45.834274291992188" lon="9.165408611297607">
        <ele>1018.17333984375</ele>
        <time>2006-03-19T11:47:48Z</time>
      </trkpt>
      <trkpt lat="45.834338665008545" lon="9.165215492248535">
        <ele>1016.250732421875</ele>
        <time>2006-03-19T11:48:00Z</time>
      </trkpt>
      <trkpt lat="45.834360122680664" lon="9.16508674621582">
        <ele>1016.7314453125</ele>
        <time>2006-03-19T11:48:15Z</time>
      </trkpt>
      <trkpt lat="45.834403038024902" lon="9.164979457855225">
        <ele>1016.250732421875</ele>
        <time>2006-03-19T11:48:26Z</time>
      </trkpt>
      <trkpt lat="45.834424495697021" lon="9.164915084838867">
        <ele>1017.212158203125</ele>
        <time>2006-03-19T11:48:36Z</time>
      </trkpt>
      <trkpt lat="45.834445953369141" lon="9.164872169494629">
        <ele>1016.250732421875</ele>
        <time>2006-03-19T11:48:55Z</time>
      </trkpt>
      <trkpt lat="45.83446741104126" lon="9.164807796478272">
        <ele>1015.28955078125</ele>
        <time>2006-03-19T11:49:09Z</time>
      </trkpt>
      <trkpt lat="45.834510326385498" lon="9.164700508117676">
        <ele>1017.692626953125</ele>
        <time>2006-03-19T11:49:21Z</time>
      </trkpt>
      <trkpt lat="45.834531784057617" lon="9.164657592773438">
        <ele>1019.134765625</ele>
        <time>2006-03-19T11:49:30Z</time>
      </trkpt>
      <trkpt lat="45.834531784057617" lon="9.164571762084961">
        <ele>1021.0576171875</ele>
        <time>2006-03-19T11:49:44Z</time>
      </trkpt>
      <trkpt lat="45.834531784057617" lon="9.164528846740723">
        <ele>1022.018798828125</ele>
        <time>2006-03-19T11:49:54Z</time>
      </trkpt>
      <trkpt lat="45.834531784057617" lon="9.164485931396484">
        <ele>1022.018798828125</ele>
        <time>2006-03-19T11:50:02Z</time>
      </trkpt>
      <trkpt lat="45.834553241729736" lon="9.164400100708008">
        <ele>1024.90283203125</ele>
        <time>2006-03-19T11:50:23Z</time>
      </trkpt>
      <trkpt lat="45.834574699401855" lon="9.16435718536377">
        <ele>1024.422119140625</ele>
        <time>2006-03-19T11:50:39Z</time>
      </trkpt>
      <trkpt lat="45.834574699401855" lon="9.164249897003174">
        <ele>1022.980224609375</ele>
        <time>2006-03-19T11:50:53Z</time>
      </trkpt>
      <trkpt lat="45.834574699401855" lon="9.164185523986816">
        <ele>1023.4609375</ele>
        <time>2006-03-19T11:51:00Z</time>
      </trkpt>
      <trkpt lat="45.834596157073975" lon="9.164164066314697">
        <ele>1024.422119140625</ele>
        <time>2006-03-19T11:51:09Z</time>
      </trkpt>
      <trkpt lat="45.834596157073975" lon="9.16409969329834">
        <ele>1027.30615234375</ele>
        <time>2006-03-19T11:51:16Z</time>
      </trkpt>
      <trkpt lat="45.834574699401855" lon="9.163992404937744">
        <ele>1029.709228515625</ele>
        <time>2006-03-19T11:51:26Z</time>
      </trkpt>
      <trkpt lat="45.834574699401855" lon="9.163885116577148">
        <ele>1032.112548828125</ele>
        <time>2006-03-19T11:51:36Z</time>
      </trkpt>
      <trkpt lat="45.834617614746094" lon="9.163756370544434">
        <ele>1034.515869140625</ele>
        <time>2006-03-19T11:51:47Z</time>
      </trkpt>
      <trkpt lat="45.834617614746094" lon="9.163713455200195">
        <ele>1034.515869140625</ele>
        <time>2006-03-19T11:51:57Z</time>
      </trkpt>
      <trkpt lat="45.834596157073975" lon="9.163713455200195">
        <ele>1039.322509765625</ele>
        <time>2006-03-19T11:54:10Z</time>
      </trkpt>
      <trkpt lat="45.834617614746094" lon="9.163734912872315">
        <ele>1040.283935546875</ele>
        <time>2006-03-19T11:57:00Z</time>
      </trkpt>
      <trkpt lat="45.834617614746094" lon="9.163734912872315">
        <ele>1040.764404296875</ele>
        <time>2006-03-19T11:58:42Z</time>
      </trkpt>
      <trkpt lat="45.834681987762451" lon="9.163713455200195">
        <ele>1041.725830078125</ele>
        <time>2006-03-19T11:58:50Z</time>
      </trkpt>
      <trkpt lat="45.834724903106689" lon="9.163777828216553">
        <ele>1043.167724609375</ele>
        <time>2006-03-19T11:59:00Z</time>
      </trkpt>
      <trkpt lat="45.834789276123047" lon="9.163820743560791">
        <ele>1043.6484375</ele>
        <time>2006-03-19T11:59:10Z</time>
      </trkpt>
      <trkpt lat="45.834832191467285" lon="9.16384220123291">
        <ele>1043.6484375</ele>
        <time>2006-03-19T11:59:14Z</time>
      </trkpt>
      <trkpt lat="45.834939479827881" lon="9.163863658905029">
        <ele>1044.609619140625</ele>
        <time>2006-03-19T11:59:25Z</time>
      </trkpt>
      <trkpt lat="45.835003852844238" lon="9.163885116577148">
        <ele>1045.571044921875</ele>
        <time>2006-03-19T11:59:34Z</time>
      </trkpt>
      <trkpt lat="45.835068225860596" lon="9.163885116577148">
        <ele>1046.532470703125</ele>
        <time>2006-03-19T11:59:44Z</time>
      </trkpt>
      <trkpt lat="45.835068225860596" lon="9.163885116577148">
        <ele>1047.49365234375</ele>
        <time>2006-03-19T11:59:54Z</time>
      </trkpt>
      <trkpt lat="45.835111141204834" lon="9.163885116577148">
        <ele>1047.974365234375</ele>
        <time>2006-03-19T12:00:13Z</time>
      </trkpt>
      <trkpt lat="45.835154056549072" lon="9.163885116577148">
        <ele>1047.974365234375</ele>
        <time>2006-03-19T12:00:23Z</time>
      </trkpt>
      <trkpt lat="45.83521842956543" lon="9.163906574249268">
        <ele>1048.935546875</ele>
        <time>2006-03-19T12:00:32Z</time>
      </trkpt>
      <trkpt lat="45.83521842956543" lon="9.163906574249268">
        <ele>1048.454833984375</ele>
        <time>2006-03-19T12:00:43Z</time>
      </trkpt>
      <trkpt lat="45.835239887237549" lon="9.163885116577148">
        <ele>1047.974365234375</ele>
        <time>2006-03-19T12:00:57Z</time>
      </trkpt>
      <trkpt lat="45.835282802581787" lon="9.163885116577148">
        <ele>1048.454833984375</ele>
        <time>2006-03-19T12:01:04Z</time>
      </trkpt>
      <trkpt lat="45.835325717926025" lon="9.163885116577148">
        <ele>1048.935546875</ele>
        <time>2006-03-19T12:01:13Z</time>
      </trkpt>
      <trkpt lat="45.835368633270264" lon="9.163885116577148">
        <ele>1048.454833984375</ele>
        <time>2006-03-19T12:01:24Z</time>
      </trkpt>
      <trkpt lat="45.835390090942383" lon="9.163885116577148">
        <ele>1049.89697265625</ele>
        <time>2006-03-19T12:01:30Z</time>
      </trkpt>
      <trkpt lat="45.835411548614502" lon="9.163885116577148">
        <ele>1050.377685546875</ele>
        <time>2006-03-19T12:01:42Z</time>
      </trkpt>
      <trkpt lat="45.83545446395874" lon="9.163885116577148">
        <ele>1051.3388671875</ele>
        <time>2006-03-19T12:01:50Z</time>
      </trkpt>
      <trkpt lat="45.835518836975098" lon="9.163863658905029">
        <ele>1053.742431640625</ele>
        <time>2006-03-19T12:01:59Z</time>
      </trkpt>
      <trkpt lat="45.835518836975098" lon="9.163863658905029">
        <ele>1054.22314453125</ele>
        <time>2006-03-19T12:02:08Z</time>
      </trkpt>
      <trkpt lat="45.835561752319336" lon="9.163885116577148">
        <ele>1054.70361328125</ele>
        <time>2006-03-19T12:02:14Z</time>
      </trkpt>
      <trkpt lat="45.835561752319336" lon="9.163885116577148">
        <ele>1056.626220703125</ele>
        <time>2006-03-19T12:02:22Z</time>
      </trkpt>
      <trkpt lat="45.835604667663574" lon="9.163863658905029">
        <ele>1057.587646484375</ele>
        <time>2006-03-19T12:02:30Z</time>
      </trkpt>
      <trkpt lat="45.835626125335693" lon="9.163885116577148">
        <ele>1059.029541015625</ele>
        <time>2006-03-19T12:02:39Z</time>
      </trkpt>
      <trkpt lat="45.835669040679932" lon="9.163906574249268">
        <ele>1061.91357421875</ele>
        <time>2006-03-19T12:02:47Z</time>
      </trkpt>
      <trkpt lat="45.835690498352051" lon="9.163928031921387">
        <ele>1065.278076171875</ele>
        <time>2006-03-19T12:02:55Z</time>
      </trkpt>
      <trkpt lat="45.835690498352051" lon="9.163928031921387">
        <ele>1064.316650390625</ele>
        <time>2006-03-19T12:03:07Z</time>
      </trkpt>
      <trkpt lat="45.835754871368408" lon="9.163928031921387">
        <ele>1062.874755859375</ele>
        <time>2006-03-19T12:03:17Z</time>
      </trkpt>
      <trkpt lat="45.835776329040527" lon="9.163928031921387">
        <ele>1062.874755859375</ele>
        <time>2006-03-19T12:03:25Z</time>
      </trkpt>
      <trkpt lat="45.835819244384766" lon="9.163906574249268">
        <ele>1062.874755859375</ele>
        <time>2006-03-19T12:03:35Z</time>
      </trkpt>
      <trkpt lat="45.835862159729004" lon="9.163885116577148">
        <ele>1060.471435546875</ele>
        <time>2006-03-19T12:04:06Z</time>
      </trkpt>
      <trkpt lat="45.835926532745361" lon="9.163885116577148">
        <ele>1059.99072265625</ele>
        <time>2006-03-19T12:04:13Z</time>
      </trkpt>
      <trkpt lat="45.835990905761719" lon="9.163885116577148">
        <ele>1061.432861328125</ele>
        <time>2006-03-19T12:04:22Z</time>
      </trkpt>
      <trkpt lat="45.836055278778076" lon="9.163906574249268">
        <ele>1062.874755859375</ele>
        <time>2006-03-19T12:04:32Z</time>
      </trkpt>
      <trkpt lat="45.836055278778076" lon="9.163906574249268">
        <ele>1062.39404296875</ele>
        <time>2006-03-19T12:04:41Z</time>
      </trkpt>
      <trkpt lat="45.836119651794434" lon="9.163906574249268">
        <ele>1063.35546875</ele>
        <time>2006-03-19T12:04:48Z</time>
      </trkpt>
      <trkpt lat="45.836184024810791" lon="9.163928031921387">
        <ele>1065.278076171875</ele>
        <time>2006-03-19T12:04:59Z</time>
      </trkpt>
      <trkpt lat="45.836226940155029" lon="9.163949489593506">
        <ele>1066.2392578125</ele>
        <time>2006-03-19T12:05:07Z</time>
      </trkpt>
      <trkpt lat="45.836291313171387" lon="9.163949489593506">
        <ele>1067.68115234375</ele>
        <time>2006-03-19T12:05:14Z</time>
      </trkpt>
      <trkpt lat="45.836291313171387" lon="9.163970947265625">
        <ele>1068.162109375</ele>
        <time>2006-03-19T12:05:22Z</time>
      </trkpt>
      <trkpt lat="45.836377143859863" lon="9.163992404937744">
        <ele>1069.604248046875</ele>
        <time>2006-03-19T12:05:37Z</time>
      </trkpt>
      <trkpt lat="45.836420059204102" lon="9.164013862609863">
        <ele>1070.084716796875</ele>
        <time>2006-03-19T12:05:43Z</time>
      </trkpt>
      <trkpt lat="45.836420059204102" lon="9.164013862609863">
        <ele>1070.5654296875</ele>
        <time>2006-03-19T12:05:55Z</time>
      </trkpt>
      <trkpt lat="45.836484432220459" lon="9.163992404937744">
        <ele>1062.874755859375</ele>
        <time>2006-03-19T12:06:32Z</time>
      </trkpt>
      <trkpt lat="45.836527347564697" lon="9.164035320281982">
        <ele>1065.278076171875</ele>
        <time>2006-03-19T12:06:41Z</time>
      </trkpt>
      <trkpt lat="45.836591720581055" lon="9.164078235626221">
        <ele>1067.20068359375</ele>
        <time>2006-03-19T12:06:52Z</time>
      </trkpt>
      <trkpt lat="45.836656093597412" lon="9.16409969329834">
        <ele>1069.12353515625</ele>
        <time>2006-03-19T12:07:02Z</time>
      </trkpt>
      <trkpt lat="45.836677551269531" lon="9.164121150970459">
        <ele>1070.5654296875</ele>
        <time>2006-03-19T12:07:12Z</time>
      </trkpt>
      <trkpt lat="45.836677551269531" lon="9.164142608642578">
        <ele>1070.5654296875</ele>
        <time>2006-03-19T12:07:27Z</time>
      </trkpt>
      <trkpt lat="45.836741924285889" lon="9.164185523986816">
        <ele>1072.96875</ele>
        <time>2006-03-19T12:07:38Z</time>
      </trkpt>
      <trkpt lat="45.836806297302246" lon="9.164228439331055">
        <ele>1076.333251953125</ele>
        <time>2006-03-19T12:07:50Z</time>
      </trkpt>
      <trkpt lat="45.836806297302246" lon="9.164228439331055">
        <ele>1077.294677734375</ele>
        <time>2006-03-19T12:08:11Z</time>
      </trkpt>
      <trkpt lat="45.836849212646484" lon="9.164249897003174">
        <ele>1078.255859375</ele>
        <time>2006-03-19T12:08:26Z</time>
      </trkpt>
      <trkpt lat="45.836892127990723" lon="9.164249897003174">
        <ele>1078.736572265625</ele>
        <time>2006-03-19T12:08:35Z</time>
      </trkpt>
      <trkpt lat="45.83695650100708" lon="9.164271354675293">
        <ele>1079.69775390625</ele>
        <time>2006-03-19T12:08:43Z</time>
      </trkpt>
      <trkpt lat="45.837020874023438" lon="9.164292812347412">
        <ele>1080.6591796875</ele>
        <time>2006-03-19T12:08:53Z</time>
      </trkpt>
      <trkpt lat="45.837128162384033" lon="9.164292812347412">
        <ele>1082.581787109375</ele>
        <time>2006-03-19T12:09:05Z</time>
      </trkpt>
      <trkpt lat="45.837235450744629" lon="9.164314270019531">
        <ele>1085.4658203125</ele>
        <time>2006-03-19T12:09:18Z</time>
      </trkpt>
      <trkpt lat="45.837342739105225" lon="9.164314270019531">
        <ele>1086.42724609375</ele>
        <time>2006-03-19T12:09:30Z</time>
      </trkpt>
      <trkpt lat="45.837428569793701" lon="9.164292812347412">
        <ele>1087.869140625</ele>
        <time>2006-03-19T12:09:40Z</time>
      </trkpt>
      <trkpt lat="45.837492942810059" lon="9.164314270019531">
        <ele>1088.349853515625</ele>
        <time>2006-03-19T12:09:48Z</time>
      </trkpt>
      <trkpt lat="45.837557315826416" lon="9.164292812347412">
        <ele>1088.349853515625</ele>
        <time>2006-03-19T12:09:56Z</time>
      </trkpt>
      <trkpt lat="45.837643146514893" lon="9.164121150970459">
        <ele>1089.31103515625</ele>
        <time>2006-03-19T12:10:10Z</time>
      </trkpt>
      <trkpt lat="45.837686061859131" lon="9.164035320281982">
        <ele>1089.791748046875</ele>
        <time>2006-03-19T12:10:18Z</time>
      </trkpt>
      <trkpt lat="45.837771892547607" lon="9.163949489593506">
        <ele>1091.71435546875</ele>
        <time>2006-03-19T12:10:29Z</time>
      </trkpt>
      <trkpt lat="45.837857723236084" lon="9.163820743560791">
        <ele>1091.233642578125</ele>
        <time>2006-03-19T12:10:40Z</time>
      </trkpt>
      <trkpt lat="45.837900638580322" lon="9.163713455200195">
        <ele>1092.67578125</ele>
        <time>2006-03-19T12:10:50Z</time>
      </trkpt>
      <trkpt lat="45.83796501159668" lon="9.1636061668396">
        <ele>1094.59814453125</ele>
        <time>2006-03-19T12:11:01Z</time>
      </trkpt>
      <trkpt lat="45.838007926940918" lon="9.163498878479004">
        <ele>1095.5595703125</ele>
        <time>2006-03-19T12:11:14Z</time>
      </trkpt>
      <trkpt lat="45.838050842285156" lon="9.163413047790527">
        <ele>1097.00146484375</ele>
        <time>2006-03-19T12:11:25Z</time>
      </trkpt>
      <trkpt lat="45.838072299957275" lon="9.163327217102051">
        <ele>1098.443359375</ele>
        <time>2006-03-19T12:11:35Z</time>
      </trkpt>
      <trkpt lat="45.838072299957275" lon="9.163305759429932">
        <ele>1095.078857421875</ele>
        <time>2006-03-19T12:12:34Z</time>
      </trkpt>
      <trkpt lat="45.838115215301514" lon="9.163155555725098">
        <ele>1095.078857421875</ele>
        <time>2006-03-19T12:12:42Z</time>
      </trkpt>
      <trkpt lat="45.83820104598999" lon="9.162898063659668">
        <ele>1095.5595703125</ele>
        <time>2006-03-19T12:12:54Z</time>
      </trkpt>
      <trkpt lat="45.838329792022705" lon="9.162576198577881">
        <ele>1095.078857421875</ele>
        <time>2006-03-19T12:13:08Z</time>
      </trkpt>
      <trkpt lat="45.838394165039063" lon="9.16234016418457">
        <ele>1094.59814453125</ele>
        <time>2006-03-19T12:13:17Z</time>
      </trkpt>
      <trkpt lat="45.838437080383301" lon="9.162061214447022">
        <ele>1095.078857421875</ele>
        <time>2006-03-19T12:13:28Z</time>
      </trkpt>
      <trkpt lat="45.838479995727539" lon="9.161674976348877">
        <ele>1095.5595703125</ele>
        <time>2006-03-19T12:13:42Z</time>
      </trkpt>
      <trkpt lat="45.838501453399658" lon="9.161481857299805">
        <ele>1095.5595703125</ele>
        <time>2006-03-19T12:13:50Z</time>
      </trkpt>
      <trkpt lat="45.838522911071777" lon="9.161224365234375">
        <ele>1096.040283203125</ele>
        <time>2006-03-19T12:14:01Z</time>
      </trkpt>
      <trkpt lat="45.838544368743896" lon="9.160988330841065">
        <ele>1096.52099609375</ele>
        <time>2006-03-19T12:14:11Z</time>
      </trkpt>
      <trkpt lat="45.838544368743896" lon="9.160687923431397">
        <ele>1097.482177734375</ele>
        <time>2006-03-19T12:14:23Z</time>
      </trkpt>
      <trkpt lat="45.838565826416016" lon="9.160430431365967">
        <ele>1097.962890625</ele>
        <time>2006-03-19T12:14:34Z</time>
      </trkpt>
      <trkpt lat="45.838565826416016" lon="9.160258769989014">
        <ele>1098.924072265625</ele>
        <time>2006-03-19T12:14:42Z</time>
      </trkpt>
      <trkpt lat="45.838565826416016" lon="9.160087108612061">
        <ele>1099.40478515625</ele>
        <time>2006-03-19T12:14:50Z</time>
      </trkpt>
      <trkpt lat="45.838544368743896" lon="9.159958362579346">
        <ele>1099.885498046875</ele>
        <time>2006-03-19T12:14:57Z</time>
      </trkpt>
      <trkpt lat="45.838544368743896" lon="9.15985107421875">
        <ele>1099.885498046875</ele>
        <time>2006-03-19T12:15:02Z</time>
      </trkpt>
      <trkpt lat="45.838501453399658" lon="9.15961503982544">
        <ele>1100.846923828125</ele>
        <time>2006-03-19T12:15:16Z</time>
      </trkpt>
      <trkpt lat="45.838501453399658" lon="9.159464836120606">
        <ele>1102.288818359375</ele>
        <time>2006-03-19T12:15:25Z</time>
      </trkpt>
      <trkpt lat="45.83845853805542" lon="9.159314632415772">
        <ele>1103.73095703125</ele>
        <time>2006-03-19T12:15:34Z</time>
      </trkpt>
      <trkpt lat="45.83845853805542" lon="9.159164428710938">
        <ele>1105.653564453125</ele>
        <time>2006-03-19T12:15:45Z</time>
      </trkpt>
      <trkpt lat="45.838437080383301" lon="9.159035682678223">
        <ele>1106.61474609375</ele>
        <time>2006-03-19T12:15:54Z</time>
      </trkpt>
      <trkpt lat="45.838437080383301" lon="9.15886402130127">
        <ele>1108.056884765625</ele>
        <time>2006-03-19T12:16:05Z</time>
      </trkpt>
      <trkpt lat="45.838437080383301" lon="9.158713817596436">
        <ele>1109.979248046875</ele>
        <time>2006-03-19T12:16:15Z</time>
      </trkpt>
      <trkpt lat="45.838437080383301" lon="9.158542156219482">
        <ele>1111.42138671875</ele>
        <time>2006-03-19T12:16:25Z</time>
      </trkpt>
      <trkpt lat="45.838437080383301" lon="9.158434867858887">
        <ele>1111.42138671875</ele>
        <time>2006-03-19T12:16:32Z</time>
      </trkpt>
      <trkpt lat="45.838415622711182" lon="9.158370494842529">
        <ele>1112.382568359375</ele>
        <time>2006-03-19T12:16:40Z</time>
      </trkpt>
      <trkpt lat="45.838415622711182" lon="9.15834903717041">
        <ele>1112.382568359375</ele>
        <time>2006-03-19T12:17:25Z</time>
      </trkpt>
      <trkpt lat="45.838394165039063" lon="9.158327579498291">
        <ele>1111.42138671875</ele>
        <time>2006-03-19T12:21:51Z</time>
      </trkpt>
      <trkpt lat="45.838372707366943" lon="9.158306121826172">
        <ele>1111.42138671875</ele>
        <time>2006-03-19T12:21:52Z</time>
      </trkpt>
      <trkpt lat="45.838308334350586" lon="9.158241748809815">
        <ele>1112.382568359375</ele>
        <time>2006-03-19T12:22:02Z</time>
      </trkpt>
      <trkpt lat="45.838243961334229" lon="9.158220291137695">
        <ele>1112.382568359375</ele>
        <time>2006-03-19T12:22:12Z</time>
      </trkpt>
      <trkpt lat="45.838179588317871" lon="9.158220291137695">
        <ele>1112.382568359375</ele>
        <time>2006-03-19T12:22:17Z</time>
      </trkpt>
      <trkpt lat="45.838093757629395" lon="9.158220291137695">
        <ele>1112.86328125</ele>
        <time>2006-03-19T12:22:27Z</time>
      </trkpt>
      <trkpt lat="45.838029384613037" lon="9.158220291137695">
        <ele>1111.902099609375</ele>
        <time>2006-03-19T12:22:37Z</time>
      </trkpt>
      <trkpt lat="45.83796501159668" lon="9.158241748809815">
        <ele>1110.940673828125</ele>
        <time>2006-03-19T12:22:44Z</time>
      </trkpt>
      <trkpt lat="45.837943553924561" lon="9.158220291137695">
        <ele>1110.4599609375</ele>
        <time>2006-03-19T12:22:53Z</time>
      </trkpt>
      <trkpt lat="45.837879180908203" lon="9.158220291137695">
        <ele>1109.979248046875</ele>
        <time>2006-03-19T12:23:01Z</time>
      </trkpt>
      <trkpt lat="45.837771892547607" lon="9.158220291137695">
        <ele>1109.01806640625</ele>
        <time>2006-03-19T12:23:12Z</time>
      </trkpt>
      <trkpt lat="45.837686061859131" lon="9.158198833465576">
        <ele>1108.056884765625</ele>
        <time>2006-03-19T12:23:22Z</time>
      </trkpt>
      <trkpt lat="45.837600231170654" lon="9.158198833465576">
        <ele>1107.576171875</ele>
        <time>2006-03-19T12:23:31Z</time>
      </trkpt>
      <trkpt lat="45.837535858154297" lon="9.158198833465576">
        <ele>1107.095458984375</ele>
        <time>2006-03-19T12:23:40Z</time>
      </trkpt>
      <trkpt lat="45.837514400482178" lon="9.158198833465576">
        <ele>1106.61474609375</ele>
        <time>2006-03-19T12:23:50Z</time>
      </trkpt>
      <trkpt lat="45.837471485137939" lon="9.158155918121338">
        <ele>1106.134033203125</ele>
        <time>2006-03-19T12:24:00Z</time>
      </trkpt>
      <trkpt lat="45.837342739105225" lon="9.158005714416504">
        <ele>1105.1728515625</ele>
        <time>2006-03-19T12:24:07Z</time>
      </trkpt>
      <trkpt lat="45.837299823760986" lon="9.157919883728027">
        <ele>1105.653564453125</ele>
        <time>2006-03-19T12:24:14Z</time>
      </trkpt>
      <trkpt lat="45.837278366088867" lon="9.15785551071167">
        <ele>1105.1728515625</ele>
        <time>2006-03-19T12:24:21Z</time>
      </trkpt>
      <trkpt lat="45.837256908416748" lon="9.157769680023193">
        <ele>1104.692138671875</ele>
        <time>2006-03-19T12:24:28Z</time>
      </trkpt>
      <trkpt lat="45.837235450744629" lon="9.157640933990479">
        <ele>1102.76953125</ele>
        <time>2006-03-19T12:24:38Z</time>
      </trkpt>
      <trkpt lat="45.837235450744629" lon="9.157490730285645">
        <ele>1100.366455078125</ele>
        <time>2006-03-19T12:24:44Z</time>
      </trkpt>
      <trkpt lat="45.837256908416748" lon="9.157211780548096">
        <ele>1098.443359375</ele>
        <time>2006-03-19T12:24:51Z</time>
      </trkpt>
      <trkpt lat="45.837278366088867" lon="9.15684700012207">
        <ele>1097.00146484375</ele>
        <time>2006-03-19T12:25:00Z</time>
      </trkpt>
      <trkpt lat="45.837299823760986" lon="9.156546592712402">
        <ele>1095.5595703125</ele>
        <time>2006-03-19T12:25:08Z</time>
      </trkpt>
      <trkpt lat="45.837299823760986" lon="9.156246185302734">
        <ele>1095.078857421875</ele>
        <time>2006-03-19T12:25:17Z</time>
      </trkpt>
      <trkpt lat="45.837278366088867" lon="9.155945777893066">
        <ele>1094.11767578125</ele>
        <time>2006-03-19T12:25:27Z</time>
      </trkpt>
      <trkpt lat="45.837256908416748" lon="9.155688285827637">
        <ele>1094.59814453125</ele>
        <time>2006-03-19T12:25:34Z</time>
      </trkpt>
      <trkpt lat="45.837235450744629" lon="9.155302047729492">
        <ele>1094.11767578125</ele>
        <time>2006-03-19T12:25:45Z</time>
      </trkpt>
      <trkpt lat="45.837149620056152" lon="9.154937267303467">
        <ele>1094.11767578125</ele>
        <time>2006-03-19T12:25:56Z</time>
      </trkpt>
      <trkpt lat="45.837106704711914" lon="9.154572486877441">
        <ele>1093.636962890625</ele>
        <time>2006-03-19T12:26:08Z</time>
      </trkpt>
      <trkpt lat="45.837085247039795" lon="9.154422283172607">
        <ele>1091.71435546875</ele>
        <time>2006-03-19T12:26:14Z</time>
      </trkpt>
      <trkpt lat="45.837085247039795" lon="9.154400825500488">
        <ele>1091.233642578125</ele>
        <time>2006-03-19T12:26:19Z</time>
      </trkpt>
      <trkpt lat="45.837042331695557" lon="9.154336452484131">
        <ele>1089.31103515625</ele>
        <time>2006-03-19T12:26:27Z</time>
      </trkpt>
      <trkpt lat="45.837042331695557" lon="9.154314994812012">
        <ele>1088.83056640625</ele>
        <time>2006-03-19T12:26:29Z</time>
      </trkpt>
      <trkpt lat="45.836977958679199" lon="9.154186248779297">
        <ele>1087.869140625</ele>
        <time>2006-03-19T12:26:38Z</time>
      </trkpt>
      <trkpt lat="45.836935043334961" lon="9.15412187576294">
        <ele>1088.349853515625</ele>
        <time>2006-03-19T12:26:46Z</time>
      </trkpt>
      <trkpt lat="45.836935043334961" lon="9.15410041809082">
        <ele>1088.349853515625</ele>
        <time>2006-03-19T12:26:54Z</time>
      </trkpt>
      <trkpt lat="45.836892127990723" lon="9.154014587402344">
        <ele>1085.4658203125</ele>
        <time>2006-03-19T12:27:02Z</time>
      </trkpt>
      <trkpt lat="45.836892127990723" lon="9.154014587402344">
        <ele>1084.9853515625</ele>
        <time>2006-03-19T12:27:09Z</time>
      </trkpt>
      <trkpt lat="45.836827754974365" lon="9.153907299041748">
        <ele>1083.062255859375</ele>
        <time>2006-03-19T12:27:17Z</time>
      </trkpt>
      <trkpt lat="45.836741924285889" lon="9.153842926025391">
        <ele>1084.02392578125</ele>
        <time>2006-03-19T12:27:24Z</time>
      </trkpt>
      <trkpt lat="45.836677551269531" lon="9.153821468353272">
        <ele>1084.504638671875</ele>
        <time>2006-03-19T12:27:28Z</time>
      </trkpt>
      <trkpt lat="45.836570262908936" lon="9.153800010681152">
        <ele>1084.504638671875</ele>
        <time>2006-03-19T12:27:38Z</time>
      </trkpt>
      <trkpt lat="45.83646297454834" lon="9.153757095336914">
        <ele>1083.54296875</ele>
        <time>2006-03-19T12:27:49Z</time>
      </trkpt>
      <trkpt lat="45.836377143859863" lon="9.153714179992676">
        <ele>1083.062255859375</ele>
        <time>2006-03-19T12:27:57Z</time>
      </trkpt>
      <trkpt lat="45.836355686187744" lon="9.153692722320557">
        <ele>1079.217041015625</ele>
        <time>2006-03-19T12:28:04Z</time>
      </trkpt>
      <trkpt lat="45.836312770843506" lon="9.153692722320557">
        <ele>1078.736572265625</ele>
        <time>2006-03-19T12:28:12Z</time>
      </trkpt>
      <trkpt lat="45.836291313171387" lon="9.153692722320557">
        <ele>1078.736572265625</ele>
        <time>2006-03-19T12:28:18Z</time>
      </trkpt>
      <trkpt lat="45.836098194122314" lon="9.153735637664795">
        <ele>1075.371826171875</ele>
        <time>2006-03-19T12:28:29Z</time>
      </trkpt>
      <trkpt lat="45.836076736450195" lon="9.153735637664795">
        <ele>1072.488037109375</ele>
        <time>2006-03-19T12:28:35Z</time>
      </trkpt>
      <trkpt lat="45.8359694480896" lon="9.153757095336914">
        <ele>1069.604248046875</ele>
        <time>2006-03-19T12:28:46Z</time>
      </trkpt>
      <trkpt lat="45.835840702056885" lon="9.153778553009033">
        <ele>1065.278076171875</ele>
        <time>2006-03-19T12:28:59Z</time>
      </trkpt>
      <trkpt lat="45.835754871368408" lon="9.153821468353272">
        <ele>1063.8359375</ele>
        <time>2006-03-19T12:29:09Z</time>
      </trkpt>
      <trkpt lat="45.835690498352051" lon="9.153821468353272">
        <ele>1062.874755859375</ele>
        <time>2006-03-19T12:29:16Z</time>
      </trkpt>
      <trkpt lat="45.835690498352051" lon="9.153821468353272">
        <ele>1061.432861328125</ele>
        <time>2006-03-19T12:29:18Z</time>
      </trkpt>
      <trkpt lat="45.835540294647217" lon="9.153800010681152">
        <ele>1056.1455078125</ele>
        <time>2006-03-19T12:29:29Z</time>
      </trkpt>
      <trkpt lat="45.835475921630859" lon="9.153842926025391">
        <ele>1055.6650390625</ele>
        <time>2006-03-19T12:29:36Z</time>
      </trkpt>
      <trkpt lat="45.83545446395874" lon="9.153800010681152">
        <ele>1054.70361328125</ele>
        <time>2006-03-19T12:29:39Z</time>
      </trkpt>
      <trkpt lat="45.835390090942383" lon="9.153649806976318">
        <ele>1052.781005859375</ele>
        <time>2006-03-19T12:29:51Z</time>
      </trkpt>
      <trkpt lat="45.835368633270264" lon="9.153563976287842">
        <ele>1053.26171875</ele>
        <time>2006-03-19T12:30:00Z</time>
      </trkpt>
      <trkpt lat="45.835347175598145" lon="9.153499603271484">
        <ele>1052.30029296875</ele>
        <time>2006-03-19T12:30:09Z</time>
      </trkpt>
      <trkpt lat="45.835325717926025" lon="9.153306484222412">
        <ele>1048.935546875</ele>
        <time>2006-03-19T12:30:27Z</time>
      </trkpt>
      <trkpt lat="45.835282802581787" lon="9.15311336517334">
        <ele>1049.89697265625</ele>
        <time>2006-03-19T12:30:40Z</time>
      </trkpt>
      <trkpt lat="45.835282802581787" lon="9.153006076812744">
        <ele>1049.89697265625</ele>
        <time>2006-03-19T12:30:48Z</time>
      </trkpt>
      <trkpt lat="45.835304260253906" lon="9.152770042419434">
        <ele>1048.454833984375</ele>
        <time>2006-03-19T12:31:01Z</time>
      </trkpt>
      <trkpt lat="45.835347175598145" lon="9.1526198387146">
        <ele>1046.532470703125</ele>
        <time>2006-03-19T12:31:13Z</time>
      </trkpt>
      <trkpt lat="45.835347175598145" lon="9.152405261993408">
        <ele>1041.725830078125</ele>
        <time>2006-03-19T12:31:27Z</time>
      </trkpt>
      <trkpt lat="45.835304260253906" lon="9.152383804321289">
        <ele>1039.80322265625</ele>
        <time>2006-03-19T12:31:32Z</time>
      </trkpt>
      <trkpt lat="45.83521842956543" lon="9.152448177337647">
        <ele>1037.39990234375</ele>
        <time>2006-03-19T12:31:42Z</time>
      </trkpt>
      <trkpt lat="45.835154056549072" lon="9.152426719665527">
        <ele>1034.99658203125</ele>
        <time>2006-03-19T12:31:50Z</time>
      </trkpt>
      <trkpt lat="45.835089683532715" lon="9.152426719665527">
        <ele>1032.112548828125</ele>
        <time>2006-03-19T12:31:59Z</time>
      </trkpt>
      <trkpt lat="45.835025310516357" lon="9.152448177337647">
        <ele>1030.18994140625</ele>
        <time>2006-03-19T12:32:05Z</time>
      </trkpt>
      <trkpt lat="45.834918022155762" lon="9.152448177337647">
        <ele>1028.267333984375</ele>
        <time>2006-03-19T12:32:16Z</time>
      </trkpt>
      <trkpt lat="45.834810733795166" lon="9.152448177337647">
        <ele>1028.748046875</ele>
        <time>2006-03-19T12:32:26Z</time>
      </trkpt>
      <trkpt lat="45.834724903106689" lon="9.152426719665527">
        <ele>1028.267333984375</ele>
        <time>2006-03-19T12:32:35Z</time>
      </trkpt>
      <trkpt lat="45.834596157073975" lon="9.152383804321289">
        <ele>1027.30615234375</ele>
        <time>2006-03-19T12:32:48Z</time>
      </trkpt>
      <trkpt lat="45.834531784057617" lon="9.152383804321289">
        <ele>1027.78662109375</ele>
        <time>2006-03-19T12:32:56Z</time>
      </trkpt>
      <trkpt lat="45.834424495697021" lon="9.15236234664917">
        <ele>1029.228515625</ele>
        <time>2006-03-19T12:33:08Z</time>
      </trkpt>
      <trkpt lat="45.834317207336426" lon="9.152383804321289">
        <ele>1030.670654296875</ele>
        <time>2006-03-19T12:33:18Z</time>
      </trkpt>
      <trkpt lat="45.834317207336426" lon="9.152383804321289">
        <ele>1031.6318359375</ele>
        <time>2006-03-19T12:33:26Z</time>
      </trkpt>
      <trkpt lat="45.834231376647949" lon="9.152383804321289">
        <ele>1033.554443359375</ele>
        <time>2006-03-19T12:33:47Z</time>
      </trkpt>
      <trkpt lat="45.834145545959473" lon="9.152383804321289">
        <ele>1031.1513671875</ele>
        <time>2006-03-19T12:33:57Z</time>
      </trkpt>
      <trkpt lat="45.834038257598877" lon="9.15236234664917">
        <ele>1028.267333984375</ele>
        <time>2006-03-19T12:34:09Z</time>
      </trkpt>
      <trkpt lat="45.8339524269104" lon="9.152340888977051">
        <ele>1027.78662109375</ele>
        <time>2006-03-19T12:34:19Z</time>
      </trkpt>
      <trkpt lat="45.833845138549805" lon="9.152276515960693">
        <ele>1026.825439453125</ele>
        <time>2006-03-19T12:34:30Z</time>
      </trkpt>
      <trkpt lat="45.833780765533447" lon="9.152233600616455">
        <ele>1026.3447265625</ele>
        <time>2006-03-19T12:34:37Z</time>
      </trkpt>
      <trkpt lat="45.833652019500732" lon="9.15210485458374">
        <ele>1027.30615234375</ele>
        <time>2006-03-19T12:34:50Z</time>
      </trkpt>
      <trkpt lat="45.833609104156494" lon="9.152061939239502">
        <ele>1027.78662109375</ele>
        <time>2006-03-19T12:34:55Z</time>
      </trkpt>
      <trkpt lat="45.833544731140137" lon="9.151933193206787">
        <ele>1030.670654296875</ele>
        <time>2006-03-19T12:35:06Z</time>
      </trkpt>
      <trkpt lat="45.833480358123779" lon="9.151890277862549">
        <ele>1033.07373046875</ele>
        <time>2006-03-19T12:35:15Z</time>
      </trkpt>
      <trkpt lat="45.83345890045166" lon="9.15186882019043">
        <ele>1034.03515625</ele>
        <time>2006-03-19T12:35:19Z</time>
      </trkpt>
      <trkpt lat="45.833351612091064" lon="9.151740074157715">
        <ele>1032.112548828125</ele>
        <time>2006-03-19T12:35:25Z</time>
      </trkpt>
      <trkpt lat="45.83320140838623" lon="9.151589870452881">
        <ele>1030.670654296875</ele>
        <time>2006-03-19T12:35:31Z</time>
      </trkpt>
      <trkpt lat="45.833115577697754" lon="9.151439666748047">
        <ele>1030.18994140625</ele>
        <time>2006-03-19T12:35:37Z</time>
      </trkpt>
      <trkpt lat="45.83296537399292" lon="9.151139259338379">
        <ele>1028.748046875</ele>
        <time>2006-03-19T12:35:48Z</time>
      </trkpt>
      <trkpt lat="45.832901000976563" lon="9.151010513305664">
        <ele>1027.78662109375</ele>
        <time>2006-03-19T12:35:55Z</time>
      </trkpt>
      <trkpt lat="45.832858085632324" lon="9.150946140289307">
        <ele>1027.30615234375</ele>
        <time>2006-03-19T12:36:02Z</time>
      </trkpt>
      <trkpt lat="45.832772254943848" lon="9.150688648223877">
        <ele>1025.864013671875</ele>
        <time>2006-03-19T12:36:12Z</time>
      </trkpt>
      <trkpt lat="45.832664966583252" lon="9.15036678314209">
        <ele>1022.980224609375</ele>
        <time>2006-03-19T12:36:23Z</time>
      </trkpt>
      <trkpt lat="45.832514762878418" lon="9.149980545043945">
        <ele>1022.49951171875</ele>
        <time>2006-03-19T12:36:35Z</time>
      </trkpt>
      <trkpt lat="45.832428932189941" lon="9.149830341339111">
        <ele>1023.4609375</ele>
        <time>2006-03-19T12:36:44Z</time>
      </trkpt>
      <trkpt lat="45.832386016845703" lon="9.14961576461792">
        <ele>1022.49951171875</ele>
        <time>2006-03-19T12:36:56Z</time>
      </trkpt>
      <trkpt lat="45.832364559173584" lon="9.149465560913086">
        <ele>1023.4609375</ele>
        <time>2006-03-19T12:37:06Z</time>
      </trkpt>
      <trkpt lat="45.832321643829346" lon="9.149379730224609">
        <ele>1023.94140625</ele>
        <time>2006-03-19T12:37:16Z</time>
      </trkpt>
      <trkpt lat="45.832321643829346" lon="9.149379730224609">
        <ele>1023.94140625</ele>
        <time>2006-03-19T12:37:19Z</time>
      </trkpt>
      <trkpt lat="45.832278728485107" lon="9.149336814880371">
        <ele>1023.4609375</ele>
        <time>2006-03-19T12:37:24Z</time>
      </trkpt>
      <trkpt lat="45.83221435546875" lon="9.14935827255249">
        <ele>1021.5380859375</ele>
        <time>2006-03-19T12:37:31Z</time>
      </trkpt>
      <trkpt lat="45.832128524780273" lon="9.149465560913086">
        <ele>1021.5380859375</ele>
        <time>2006-03-19T12:37:45Z</time>
      </trkpt>
      <trkpt lat="45.832085609436035" lon="9.149594306945801">
        <ele>1016.7314453125</ele>
        <time>2006-03-19T12:37:56Z</time>
      </trkpt>
      <trkpt lat="45.83195686340332" lon="9.149723052978516">
        <ele>1012.88623046875</ele>
        <time>2006-03-19T12:38:10Z</time>
      </trkpt>
      <trkpt lat="45.831935405731201" lon="9.149894714355469">
        <ele>1010.963623046875</ele>
        <time>2006-03-19T12:38:22Z</time>
      </trkpt>
      <trkpt lat="45.831913948059082" lon="9.149980545043945">
        <ele>1008.560302734375</ele>
        <time>2006-03-19T12:38:31Z</time>
      </trkpt>
      <trkpt lat="45.831913948059082" lon="9.149980545043945">
        <ele>1009.041015625</ele>
        <time>2006-03-19T12:38:33Z</time>
      </trkpt>
      <trkpt lat="45.831828117370605" lon="9.150087833404541">
        <ele>1008.079833984375</ele>
        <time>2006-03-19T12:38:43Z</time>
      </trkpt>
      <trkpt lat="45.831763744354248" lon="9.150216579437256">
        <ele>1006.6376953125</ele>
        <time>2006-03-19T12:38:54Z</time>
      </trkpt>
      <trkpt lat="45.83172082901001" lon="9.150409698486328">
        <ele>1005.676513671875</ele>
        <time>2006-03-19T12:39:08Z</time>
      </trkpt>
      <trkpt lat="45.83172082901001" lon="9.150474071502686">
        <ele>1007.59912109375</ele>
        <time>2006-03-19T12:39:18Z</time>
      </trkpt>
      <trkpt lat="45.831677913665771" lon="9.150559902191162">
        <ele>1009.041015625</ele>
        <time>2006-03-19T12:39:27Z</time>
      </trkpt>
      <trkpt lat="45.831656455993652" lon="9.150667190551758">
        <ele>1008.079833984375</ele>
        <time>2006-03-19T12:39:36Z</time>
      </trkpt>
      <trkpt lat="45.831634998321533" lon="9.150795936584473">
        <ele>1004.234619140625</ele>
        <time>2006-03-19T12:39:47Z</time>
      </trkpt>
      <trkpt lat="45.831613540649414" lon="9.15086030960083">
        <ele>1004.234619140625</ele>
        <time>2006-03-19T12:39:55Z</time>
      </trkpt>
      <trkpt lat="45.831570625305176" lon="9.150989055633545">
        <ele>1003.753662109375</ele>
        <time>2006-03-19T12:40:06Z</time>
      </trkpt>
      <trkpt lat="45.831527709960938" lon="9.151074886322022">
        <ele>1003.27294921875</ele>
        <time>2006-03-19T12:40:15Z</time>
      </trkpt>
      <trkpt lat="45.83146333694458" lon="9.151225090026856">
        <ele>1001.8310546875</ele>
        <time>2006-03-19T12:40:28Z</time>
      </trkpt>
      <trkpt lat="45.831398963928223" lon="9.151310920715332">
        <ele>1001.350341796875</ele>
        <time>2006-03-19T12:40:37Z</time>
      </trkpt>
      <trkpt lat="45.831313133239746" lon="9.151461124420166">
        <ele>1002.3115234375</ele>
        <time>2006-03-19T12:40:49Z</time>
      </trkpt>
      <trkpt lat="45.831248760223389" lon="9.151568412780762">
        <ele>1001.350341796875</ele>
        <time>2006-03-19T12:40:59Z</time>
      </trkpt>
      <trkpt lat="45.83120584487915" lon="9.151675701141357">
        <ele>1001.8310546875</ele>
        <time>2006-03-19T12:41:09Z</time>
      </trkpt>
      <trkpt lat="45.831162929534912" lon="9.151782989501953">
        <ele>1001.8310546875</ele>
        <time>2006-03-19T12:41:18Z</time>
      </trkpt>
      <trkpt lat="45.831141471862793" lon="9.151825904846191">
        <ele>1001.8310546875</ele>
        <time>2006-03-19T12:41:23Z</time>
      </trkpt>
      <trkpt lat="45.831077098846436" lon="9.151933193206787">
        <ele>1003.27294921875</ele>
        <time>2006-03-19T12:41:34Z</time>
      </trkpt>
      <trkpt lat="45.831077098846436" lon="9.151933193206787">
        <ele>1004.715087890625</ele>
        <time>2006-03-19T12:41:44Z</time>
      </trkpt>
      <trkpt lat="45.831012725830078" lon="9.151997566223145">
        <ele>1004.234619140625</ele>
        <time>2006-03-19T12:41:53Z</time>
      </trkpt>
      <trkpt lat="45.83096981048584" lon="9.152040481567383">
        <ele>1003.27294921875</ele>
        <time>2006-03-19T12:42:01Z</time>
      </trkpt>
      <trkpt lat="45.830905437469482" lon="9.15210485458374">
        <ele>1003.27294921875</ele>
        <time>2006-03-19T12:42:10Z</time>
      </trkpt>
      <trkpt lat="45.830819606781006" lon="9.152169227600098">
        <ele>1000.86962890625</ele>
        <time>2006-03-19T12:42:21Z</time>
      </trkpt>
      <trkpt lat="45.830647945404053" lon="9.152169227600098">
        <ele>999.427734375</ele>
        <time>2006-03-19T12:42:36Z</time>
      </trkpt>
      <trkpt lat="45.830519199371338" lon="9.15210485458374">
        <ele>998.46630859375</ele>
        <time>2006-03-19T12:42:51Z</time>
      </trkpt>
      <trkpt lat="45.830433368682861" lon="9.152083396911621">
        <ele>997.98583984375</ele>
        <time>2006-03-19T12:42:59Z</time>
      </trkpt>
      <trkpt lat="45.830283164978027" lon="9.152169227600098">
        <ele>998.947021484375</ele>
        <time>2006-03-19T12:43:08Z</time>
      </trkpt>
      <trkpt lat="45.830261707305908" lon="9.152169227600098">
        <ele>998.46630859375</ele>
        <time>2006-03-19T12:43:09Z</time>
      </trkpt>
      <trkpt lat="45.830197334289551" lon="9.152276515960693">
        <ele>997.505126953125</ele>
        <time>2006-03-19T12:43:20Z</time>
      </trkpt>
      <trkpt lat="45.830197334289551" lon="9.152319431304932">
        <ele>996.063232421875</ele>
        <time>2006-03-19T12:43:29Z</time>
      </trkpt>
      <trkpt lat="45.830132961273193" lon="9.152469635009766">
        <ele>992.69873046875</ele>
        <time>2006-03-19T12:43:40Z</time>
      </trkpt>
      <trkpt lat="45.830047130584717" lon="9.152598381042481">
        <ele>991.7373046875</ele>
        <time>2006-03-19T12:43:53Z</time>
      </trkpt>
      <trkpt lat="45.82996129989624" lon="9.152641296386719">
        <ele>988.372802734375</ele>
        <time>2006-03-19T12:44:05Z</time>
      </trkpt>
      <trkpt lat="45.829875469207764" lon="9.152662754058838">
        <ele>985.488525390625</ele>
        <time>2006-03-19T12:44:14Z</time>
      </trkpt>
      <trkpt lat="45.829768180847168" lon="9.152684211730957">
        <ele>982.604736328125</ele>
        <time>2006-03-19T12:44:26Z</time>
      </trkpt>
      <trkpt lat="45.829682350158691" lon="9.152705669403076">
        <ele>981.162841796875</ele>
        <time>2006-03-19T12:44:35Z</time>
      </trkpt>
      <trkpt lat="45.829660892486572" lon="9.152705669403076">
        <ele>981.643310546875</ele>
        <time>2006-03-19T12:44:39Z</time>
      </trkpt>
      <trkpt lat="45.8294677734375" lon="9.1526198387146">
        <ele>981.643310546875</ele>
        <time>2006-03-19T12:44:49Z</time>
      </trkpt>
      <trkpt lat="45.829038619995117" lon="9.152491092681885">
        <ele>980.68212890625</ele>
        <time>2006-03-19T12:45:01Z</time>
      </trkpt>
      <trkpt lat="45.828845500946045" lon="9.152448177337647">
        <ele>979.239990234375</ele>
        <time>2006-03-19T12:45:09Z</time>
      </trkpt>
      <trkpt lat="45.828802585601807" lon="9.15236234664917">
        <ele>976.356201171875</ele>
        <time>2006-03-19T12:45:17Z</time>
      </trkpt>
      <trkpt lat="45.828759670257568" lon="9.152233600616455">
        <ele>975.87548828125</ele>
        <time>2006-03-19T12:45:30Z</time>
      </trkpt>
      <trkpt lat="45.82871675491333" lon="9.152190685272217">
        <ele>975.394775390625</ele>
        <time>2006-03-19T12:45:43Z</time>
      </trkpt>
      <trkpt lat="45.828652381896973" lon="9.151890277862549">
        <ele>974.43359375</ele>
        <time>2006-03-19T12:45:54Z</time>
      </trkpt>
      <trkpt lat="45.828523635864258" lon="9.151568412780762">
        <ele>972.99169921875</ele>
        <time>2006-03-19T12:46:01Z</time>
      </trkpt>
      <trkpt lat="45.828373432159424" lon="9.151289463043213">
        <ele>972.99169921875</ele>
        <time>2006-03-19T12:46:06Z</time>
      </trkpt>
      <trkpt lat="45.827836990356445" lon="9.150795936584473">
        <ele>970.107421875</ele>
        <time>2006-03-19T12:46:19Z</time>
      </trkpt>
      <trkpt lat="45.827579498291016" lon="9.150645732879639">
        <ele>969.146240234375</ele>
        <time>2006-03-19T12:46:27Z</time>
      </trkpt>
      <trkpt lat="45.827257633209229" lon="9.150495529174805">
        <ele>965.78173828125</ele>
        <time>2006-03-19T12:46:37Z</time>
      </trkpt>
      <trkpt lat="45.826871395111084" lon="9.150431156158447">
        <ele>963.85888671875</ele>
        <time>2006-03-19T12:46:47Z</time>
      </trkpt>
      <trkpt lat="45.826420783996582" lon="9.150388240814209">
        <ele>960.013671875</ele>
        <time>2006-03-19T12:46:58Z</time>
      </trkpt>
      <trkpt lat="45.826184749603271" lon="9.150388240814209">
        <ele>957.610595703125</ele>
        <time>2006-03-19T12:47:04Z</time>
      </trkpt>
      <trkpt lat="45.825991630554199" lon="9.150345325469971">
        <ele>955.687744140625</ele>
        <time>2006-03-19T12:47:09Z</time>
      </trkpt>
      <trkpt lat="45.82597017288208" lon="9.150345325469971">
        <ele>953.76513671875</ele>
        <time>2006-03-19T12:47:15Z</time>
      </trkpt>
      <trkpt lat="45.82597017288208" lon="9.150345325469971">
        <ele>948.95849609375</ele>
        <time>2006-03-19T12:47:25Z</time>
      </trkpt>
      <trkpt lat="45.825948715209961" lon="9.150302410125732">
        <ele>931.17431640625</ele>
        <time>2006-03-19T12:48:50Z</time>
      </trkpt>
      <trkpt lat="45.825927257537842" lon="9.150280952453613">
        <ele>933.0966796875</ele>
        <time>2006-03-19T12:49:57Z</time>
      </trkpt>
      <trkpt lat="45.825927257537842" lon="9.150280952453613">
        <ele>926.848388671875</ele>
        <time>2006-03-19T12:50:14Z</time>
      </trkpt>
      <trkpt lat="45.825991630554199" lon="9.150238037109375">
        <ele>933.577392578125</ele>
        <time>2006-03-19T13:10:09Z</time>
      </trkpt>
      <trkpt lat="45.825991630554199" lon="9.149980545043945">
        <ele>933.577392578125</ele>
        <time>2006-03-19T13:10:16Z</time>
      </trkpt>
      <trkpt lat="45.826077461242676" lon="9.14961576461792">
        <ele>935.01953125</ele>
        <time>2006-03-19T13:10:26Z</time>
      </trkpt>
      <trkpt lat="45.826206207275391" lon="9.149208068847656">
        <ele>937.9033203125</ele>
        <time>2006-03-19T13:10:40Z</time>
      </trkpt>
      <trkpt lat="45.826377868652344" lon="9.148757457733154">
        <ele>939.34521484375</ele>
        <time>2006-03-19T13:10:56Z</time>
      </trkpt>
      <trkpt lat="45.82646369934082" lon="9.148199558258057">
        <ele>940.306884765625</ele>
        <time>2006-03-19T13:11:09Z</time>
      </trkpt>
      <trkpt lat="45.826592445373535" lon="9.14762020111084">
        <ele>940.306884765625</ele>
        <time>2006-03-19T13:11:21Z</time>
      </trkpt>
      <trkpt lat="45.826613903045654" lon="9.147577285766602">
        <ele>938.86474609375</ele>
        <time>2006-03-19T13:11:22Z</time>
      </trkpt>
      <trkpt lat="45.826549530029297" lon="9.147491455078125">
        <ele>938.384033203125</ele>
        <time>2006-03-19T13:11:26Z</time>
      </trkpt>
      <trkpt lat="45.826399326324463" lon="9.147255420684815">
        <ele>938.384033203125</ele>
        <time>2006-03-19T13:11:31Z</time>
      </trkpt>
      <trkpt lat="45.82597017288208" lon="9.146783351898193">
        <ele>938.384033203125</ele>
        <time>2006-03-19T13:11:43Z</time>
      </trkpt>
      <trkpt lat="45.825669765472412" lon="9.146397113800049">
        <ele>938.384033203125</ele>
        <time>2006-03-19T13:11:52Z</time>
      </trkpt>
      <trkpt lat="45.825562477111816" lon="9.146289825439453">
        <ele>938.384033203125</ele>
        <time>2006-03-19T13:11:55Z</time>
      </trkpt>
      <trkpt lat="45.825369358062744" lon="9.146311283111572">
        <ele>938.384033203125</ele>
        <time>2006-03-19T13:11:59Z</time>
      </trkpt>
      <trkpt lat="45.825154781341553" lon="9.146311283111572">
        <ele>938.384033203125</ele>
        <time>2006-03-19T13:12:04Z</time>
      </trkpt>
      <trkpt lat="45.824875831604004" lon="9.146525859832764">
        <ele>936.94189453125</ele>
        <time>2006-03-19T13:12:14Z</time>
      </trkpt>
      <trkpt lat="45.824704170227051" lon="9.146654605865479">
        <ele>937.422607421875</ele>
        <time>2006-03-19T13:12:19Z</time>
      </trkpt>
      <trkpt lat="45.824618339538574" lon="9.146697521209717">
        <ele>936.94189453125</ele>
        <time>2006-03-19T13:12:21Z</time>
      </trkpt>
      <trkpt lat="45.823974609375" lon="9.146718978881836">
        <ele>932.6162109375</ele>
        <time>2006-03-19T13:12:36Z</time>
      </trkpt>
      <trkpt lat="45.823609828948975" lon="9.146633148193359">
        <ele>928.290283203125</ele>
        <time>2006-03-19T13:12:46Z</time>
      </trkpt>
      <trkpt lat="45.823266506195068" lon="9.146676063537598">
        <ele>929.732177734375</ele>
        <time>2006-03-19T13:12:56Z</time>
      </trkpt>
      <trkpt lat="45.823073387145996" lon="9.146740436553955">
        <ele>925.886962890625</ele>
        <time>2006-03-19T13:13:05Z</time>
      </trkpt>
      <trkpt lat="45.823051929473877" lon="9.146761894226074">
        <ele>921.080322265625</ele>
        <time>2006-03-19T13:13:11Z</time>
      </trkpt>
      <trkpt lat="45.823030471801758" lon="9.146783351898193">
        <ele>917.715576171875</ele>
        <time>2006-03-19T13:13:20Z</time>
      </trkpt>
      <trkpt lat="45.82298755645752" lon="9.146826267242432">
        <ele>916.75439453125</ele>
        <time>2006-03-19T13:13:31Z</time>
      </trkpt>
      <trkpt lat="45.822944641113281" lon="9.146783351898193">
        <ele>914.831787109375</ele>
        <time>2006-03-19T13:13:42Z</time>
      </trkpt>
      <trkpt lat="45.822944641113281" lon="9.146783351898193">
        <ele>914.831787109375</ele>
        <time>2006-03-19T13:13:43Z</time>
      </trkpt>
      <trkpt lat="45.822751522064209" lon="9.146847724914551">
        <ele>914.831787109375</ele>
        <time>2006-03-19T13:13:56Z</time>
      </trkpt>
      <trkpt lat="45.822622776031494" lon="9.147040843963623">
        <ele>913.870361328125</ele>
        <time>2006-03-19T13:14:00Z</time>
      </trkpt>
      <trkpt lat="45.822365283966064" lon="9.147191047668457">
        <ele>910.025146484375</ele>
        <time>2006-03-19T13:14:05Z</time>
      </trkpt>
      <trkpt lat="45.822043418884277" lon="9.147191047668457">
        <ele>906.1796875</ele>
        <time>2006-03-19T13:14:12Z</time>
      </trkpt>
      <trkpt lat="45.821914672851562" lon="9.147148132324219">
        <ele>904.25732421875</ele>
        <time>2006-03-19T13:14:19Z</time>
      </trkpt>
      <trkpt lat="45.821828842163086" lon="9.146912097930908">
        <ele>904.25732421875</ele>
        <time>2006-03-19T13:14:28Z</time>
      </trkpt>
      <trkpt lat="45.821871757507324" lon="9.146590232849121">
        <ele>903.776611328125</ele>
        <time>2006-03-19T13:14:39Z</time>
      </trkpt>
      <trkpt lat="45.822043418884277" lon="9.146053791046143">
        <ele>903.776611328125</ele>
        <time>2006-03-19T13:15:00Z</time>
      </trkpt>
      <trkpt lat="45.822772979736328" lon="9.14487361907959">
        <ele>902.815185546875</ele>
        <time>2006-03-19T13:15:11Z</time>
      </trkpt>
      <trkpt lat="45.8229660987854" lon="9.144165515899658">
        <ele>900.892578125</ele>
        <time>2006-03-19T13:15:21Z</time>
      </trkpt>
      <trkpt lat="45.8229660987854" lon="9.144015312194824">
        <ele>900.412109375</ele>
        <time>2006-03-19T13:15:23Z</time>
      </trkpt>
      <trkpt lat="45.822751522064209" lon="9.143285751342773">
        <ele>900.412109375</ele>
        <time>2006-03-19T13:15:31Z</time>
      </trkpt>
      <trkpt lat="45.822708606719971" lon="9.14313554763794">
        <ele>900.412109375</ele>
        <time>2006-03-19T13:15:33Z</time>
      </trkpt>
      <trkpt lat="45.823502540588379" lon="9.142942428588867">
        <ele>900.412109375</ele>
        <time>2006-03-19T13:15:51Z</time>
      </trkpt>
      <trkpt lat="45.823609828948975" lon="9.142792224884033">
        <ele>900.412109375</ele>
        <time>2006-03-19T13:15:54Z</time>
      </trkpt>
      <trkpt lat="45.82371711730957" lon="9.142470359802246">
        <ele>900.412109375</ele>
        <time>2006-03-19T13:16:00Z</time>
      </trkpt>
      <trkpt lat="45.824081897735596" lon="9.141848087310791">
        <ele>900.412109375</ele>
        <time>2006-03-19T13:16:13Z</time>
      </trkpt>
      <trkpt lat="45.824103355407715" lon="9.141762256622315">
        <ele>898.969970703125</ele>
        <time>2006-03-19T13:16:15Z</time>
      </trkpt>
      <trkpt lat="45.823996067047119" lon="9.141719341278076">
        <ele>898.4892578125</ele>
        <time>2006-03-19T13:16:18Z</time>
      </trkpt>
      <trkpt lat="45.823781490325928" lon="9.141740798950195">
        <ele>898.0087890625</ele>
        <time>2006-03-19T13:16:22Z</time>
      </trkpt>
      <trkpt lat="45.823674201965332" lon="9.141590595245361">
        <ele>895.124755859375</ele>
        <time>2006-03-19T13:16:26Z</time>
      </trkpt>
      <trkpt lat="45.823502540588379" lon="9.141590595245361">
        <ele>892.240966796875</ele>
        <time>2006-03-19T13:16:30Z</time>
      </trkpt>
      <trkpt lat="45.823159217834473" lon="9.141590595245361">
        <ele>892.240966796875</ele>
        <time>2006-03-19T13:16:36Z</time>
      </trkpt>
      <trkpt lat="45.822708606719971" lon="9.141333103179932">
        <ele>889.356689453125</ele>
        <time>2006-03-19T13:16:46Z</time>
      </trkpt>
      <trkpt lat="45.822579860687256" lon="9.141247272491455">
        <ele>889.356689453125</ele>
        <time>2006-03-19T13:16:49Z</time>
      </trkpt>
      <trkpt lat="45.821936130523682" lon="9.140925407409668">
        <ele>881.185791015625</ele>
        <time>2006-03-19T13:17:05Z</time>
      </trkpt>
      <trkpt lat="45.821421146392822" lon="9.140775203704834">
        <ele>875.898193359375</ele>
        <time>2006-03-19T13:17:17Z</time>
      </trkpt>
      <trkpt lat="45.820820331573486" lon="9.140818119049072">
        <ele>871.572265625</ele>
        <time>2006-03-19T13:17:32Z</time>
      </trkpt>
      <trkpt lat="45.820004940032959" lon="9.141225814819336">
        <ele>862.43994140625</ele>
        <time>2006-03-19T13:17:51Z</time>
      </trkpt>
      <trkpt lat="45.819404125213623" lon="9.141483306884766">
        <ele>854.268798828125</ele>
        <time>2006-03-19T13:18:02Z</time>
      </trkpt>
      <trkpt lat="45.819082260131836" lon="9.141569137573242">
        <ele>853.307373046875</ele>
        <time>2006-03-19T13:18:07Z</time>
      </trkpt>
      <trkpt lat="45.818996429443359" lon="9.141483306884766">
        <ele>850.423583984375</ele>
        <time>2006-03-19T13:18:11Z</time>
      </trkpt>
      <trkpt lat="45.818953514099121" lon="9.141440391540527">
        <ele>849.94287109375</ele>
        <time>2006-03-19T13:18:13Z</time>
      </trkpt>
      <trkpt lat="45.818696022033691" lon="9.14137601852417">
        <ele>847.058837890625</ele>
        <time>2006-03-19T13:18:19Z</time>
      </trkpt>
      <trkpt lat="45.818653106689453" lon="9.14137601852417">
        <ele>847.058837890625</ele>
        <time>2006-03-19T13:18:20Z</time>
      </trkpt>
      <trkpt lat="45.818116664886475" lon="9.141590595245361">
        <ele>845.616943359375</ele>
        <time>2006-03-19T13:18:33Z</time>
      </trkpt>
      <trkpt lat="45.818009376525879" lon="9.141654968261719">
        <ele>845.616943359375</ele>
        <time>2006-03-19T13:18:36Z</time>
      </trkpt>
      <trkpt lat="45.818159580230713" lon="9.141161441802979">
        <ele>845.616943359375</ele>
        <time>2006-03-19T13:18:51Z</time>
      </trkpt>
      <trkpt lat="45.818202495574951" lon="9.141011238098145">
        <ele>843.21337890625</ele>
        <time>2006-03-19T13:18:53Z</time>
      </trkpt>
      <trkpt lat="45.818159580230713" lon="9.140346050262451">
        <ele>843.21337890625</ele>
        <time>2006-03-19T13:19:00Z</time>
      </trkpt>
      <trkpt lat="45.818159580230713" lon="9.140195846557617">
        <ele>843.21337890625</ele>
        <time>2006-03-19T13:19:02Z</time>
      </trkpt>
      <trkpt lat="45.818181037902832" lon="9.139401912689209">
        <ele>843.21337890625</ele>
        <time>2006-03-19T13:19:12Z</time>
      </trkpt>
      <trkpt lat="45.819060802459717" lon="9.137599468231201">
        <ele>841.290771484375</ele>
        <time>2006-03-19T13:19:34Z</time>
      </trkpt>
      <trkpt lat="45.818610191345215" lon="9.136805534362793">
        <ele>838.406982421875</ele>
        <time>2006-03-19T13:19:42Z</time>
      </trkpt>
      <trkpt lat="45.818352699279785" lon="9.136655330657959">
        <ele>838.406982421875</ele>
        <time>2006-03-19T13:19:47Z</time>
      </trkpt>
      <trkpt lat="45.817666053771973" lon="9.136934280395508">
        <ele>832.158447265625</ele>
        <time>2006-03-19T13:19:58Z</time>
      </trkpt>
      <trkpt lat="45.817129611968994" lon="9.136955738067627">
        <ele>822.545166015625</ele>
        <time>2006-03-19T13:20:08Z</time>
      </trkpt>
      <trkpt lat="45.816528797149658" lon="9.136998653411865">
        <ele>806.20263671875</ele>
        <time>2006-03-19T13:20:19Z</time>
      </trkpt>
      <trkpt lat="45.816013813018799" lon="9.136998653411865">
        <ele>795.1474609375</ele>
        <time>2006-03-19T13:20:30Z</time>
      </trkpt>
      <trkpt lat="45.815455913543701" lon="9.136998653411865">
        <ele>788.899169921875</ele>
        <time>2006-03-19T13:20:40Z</time>
      </trkpt>
      <trkpt lat="45.814769268035889" lon="9.136912822723389">
        <ele>775.921142578125</ele>
        <time>2006-03-19T13:20:52Z</time>
      </trkpt>
      <trkpt lat="45.814297199249268" lon="9.136848449707031">
        <ele>774.479248046875</ele>
        <time>2006-03-19T13:21:01Z</time>
      </trkpt>
      <trkpt lat="45.814211368560791" lon="9.136741161346436">
        <ele>774.479248046875</ele>
        <time>2006-03-19T13:21:03Z</time>
      </trkpt>
      <trkpt lat="45.814125537872314" lon="9.136397838592529">
        <ele>774.9599609375</ele>
        <time>2006-03-19T13:21:07Z</time>
      </trkpt>
      <trkpt lat="45.814061164855957" lon="9.136183261871338">
        <ele>774.9599609375</ele>
        <time>2006-03-19T13:21:10Z</time>
      </trkpt>
      <trkpt lat="45.813889503479004" lon="9.136075973510742">
        <ele>768.230712890625</ele>
        <time>2006-03-19T13:21:15Z</time>
      </trkpt>
      <trkpt lat="45.813846588134766" lon="9.136075973510742">
        <ele>768.230712890625</ele>
        <time>2006-03-19T13:21:16Z</time>
      </trkpt>
      <trkpt lat="45.813395977020264" lon="9.136183261871338">
        <ele>749.00439453125</ele>
        <time>2006-03-19T13:21:25Z</time>
      </trkpt>
      <trkpt lat="45.812880992889404" lon="9.136183261871338">
        <ele>741.79443359375</ele>
        <time>2006-03-19T13:21:34Z</time>
      </trkpt>
      <trkpt lat="45.812752246856689" lon="9.136183261871338">
        <ele>741.79443359375</ele>
        <time>2006-03-19T13:21:36Z</time>
      </trkpt>
      <trkpt lat="45.812623500823975" lon="9.136033058166504">
        <ele>739.871826171875</ele>
        <time>2006-03-19T13:21:39Z</time>
      </trkpt>
      <trkpt lat="45.81249475479126" lon="9.135689735412598">
        <ele>739.871826171875</ele>
        <time>2006-03-19T13:21:43Z</time>
      </trkpt>
      <trkpt lat="45.81223726272583" lon="9.135689735412598">
        <ele>739.871826171875</ele>
        <time>2006-03-19T13:21:47Z</time>
      </trkpt>
      <trkpt lat="45.811936855316162" lon="9.135839939117432">
        <ele>735.5458984375</ele>
        <time>2006-03-19T13:21:52Z</time>
      </trkpt>
      <trkpt lat="45.811529159545898" lon="9.136011600494385">
        <ele>717.761474609375</ele>
        <time>2006-03-19T13:21:59Z</time>
      </trkpt>
      <trkpt lat="45.81125020980835" lon="9.1361403465271">
        <ele>709.59033203125</ele>
        <time>2006-03-19T13:22:04Z</time>
      </trkpt>
      <trkpt lat="45.81099271774292" lon="9.136269092559815">
        <ele>708.62890625</ele>
        <time>2006-03-19T13:22:08Z</time>
      </trkpt>
      <trkpt lat="45.810949802398682" lon="9.136247634887695">
        <ele>706.2255859375</ele>
        <time>2006-03-19T13:22:09Z</time>
      </trkpt>
      <trkpt lat="45.810585021972656" lon="9.136054515838623">
        <ele>693.247802734375</ele>
        <time>2006-03-19T13:22:18Z</time>
      </trkpt>
      <trkpt lat="45.810091495513916" lon="9.135925769805908">
        <ele>686.999267578125</ele>
        <time>2006-03-19T13:22:27Z</time>
      </trkpt>
      <trkpt lat="45.809018611907959" lon="9.135668277740479">
        <ele>682.192626953125</ele>
        <time>2006-03-19T13:22:42Z</time>
      </trkpt>
      <trkpt lat="45.808053016662598" lon="9.134831428527832">
        <ele>558.182861328125</ele>
        <time>2006-03-19T13:31:13Z</time>
      </trkpt>
      <trkpt lat="45.808074474334717" lon="9.13487434387207">
        <ele>559.14404296875</ele>
        <time>2006-03-19T13:31:18Z</time>
      </trkpt>
      <trkpt lat="45.808074474334717" lon="9.135088920593262">
        <ele>558.182861328125</ele>
        <time>2006-03-19T13:31:25Z</time>
      </trkpt>
      <trkpt lat="45.807967185974121" lon="9.135539531707764">
        <ele>554.81787109375</ele>
        <time>2006-03-19T13:31:33Z</time>
      </trkpt>
      <trkpt lat="45.80775260925293" lon="9.135990142822266">
        <ele>552.895263671875</ele>
        <time>2006-03-19T13:31:40Z</time>
      </trkpt>
      <trkpt lat="45.807430744171143" lon="9.136462211608887">
        <ele>552.41455078125</ele>
        <time>2006-03-19T13:31:47Z</time>
      </trkpt>
      <trkpt lat="45.807023048400879" lon="9.136569499969482">
        <ele>551.453369140625</ele>
        <time>2006-03-19T13:31:52Z</time>
      </trkpt>
      <trkpt lat="45.806958675384521" lon="9.136548042297363">
        <ele>551.453369140625</ele>
        <time>2006-03-19T13:31:53Z</time>
      </trkpt>
      <trkpt lat="45.806829929351807" lon="9.136483669281006">
        <ele>551.453369140625</ele>
        <time>2006-03-19T13:31:55Z</time>
      </trkpt>
      <trkpt lat="45.806465148925781" lon="9.136118888854981">
        <ele>549.050048828125</ele>
        <time>2006-03-19T13:32:01Z</time>
      </trkpt>
      <trkpt lat="45.806379318237305" lon="9.13562536239624">
        <ele>545.204833984375</ele>
        <time>2006-03-19T13:32:05Z</time>
      </trkpt>
      <trkpt lat="45.806293487548828" lon="9.135174751281738">
        <ele>539.9176025390625</ele>
        <time>2006-03-19T13:32:08Z</time>
      </trkpt>
      <trkpt lat="45.806100368499756" lon="9.134809970855713">
        <ele>536.0723876953125</ele>
        <time>2006-03-19T13:32:11Z</time>
      </trkpt>
      <trkpt lat="45.805821418762207" lon="9.134809970855713">
        <ele>533.6689453125</ele>
        <time>2006-03-19T13:32:14Z</time>
      </trkpt>
      <trkpt lat="45.805692672729492" lon="9.134960174560547">
        <ele>532.22705078125</ele>
        <time>2006-03-19T13:32:16Z</time>
      </trkpt>
      <trkpt lat="45.805327892303467" lon="9.135539531707764">
        <ele>526.9398193359375</ele>
        <time>2006-03-19T13:32:23Z</time>
      </trkpt>
      <trkpt lat="45.805199146270752" lon="9.135968685150147">
        <ele>523.5751953125</ele>
        <time>2006-03-19T13:32:27Z</time>
      </trkpt>
      <trkpt lat="45.805070400238037" lon="9.13686990737915">
        <ele>519.249267578125</ele>
        <time>2006-03-19T13:32:35Z</time>
      </trkpt>
      <trkpt lat="45.804898738861084" lon="9.137406349182129">
        <ele>517.32666015625</ele>
        <time>2006-03-19T13:32:42Z</time>
      </trkpt>
      <trkpt lat="45.804984569549561" lon="9.137771129608154">
        <ele>515.404052734375</ele>
        <time>2006-03-19T13:32:48Z</time>
      </trkpt>
      <trkpt lat="45.805070400238037" lon="9.137899875640869">
        <ele>514.442626953125</ele>
        <time>2006-03-19T13:32:50Z</time>
      </trkpt>
      <trkpt lat="45.805542469024658" lon="9.138736724853516">
        <ele>511.0780029296875</ele>
        <time>2006-03-19T13:33:00Z</time>
      </trkpt>
      <trkpt lat="45.806078910827637" lon="9.13938045501709">
        <ele>510.5972900390625</ele>
        <time>2006-03-19T13:33:09Z</time>
      </trkpt>
      <trkpt lat="45.806615352630615" lon="9.139766693115234">
        <ele>510.5972900390625</ele>
        <time>2006-03-19T13:33:17Z</time>
      </trkpt>
      <trkpt lat="45.807194709777832" lon="9.140260219573975">
        <ele>510.5972900390625</ele>
        <time>2006-03-19T13:33:27Z</time>
      </trkpt>
      <trkpt lat="45.807645320892334" lon="9.140818119049072">
        <ele>510.5972900390625</ele>
        <time>2006-03-19T13:33:36Z</time>
      </trkpt>
      <trkpt lat="45.806550979614258" lon="9.141139984130859">
        <ele>507.2327880859375</ele>
        <time>2006-03-19T13:33:40Z</time>
      </trkpt>
      <trkpt lat="45.806379318237305" lon="9.141225814819336">
        <ele>504.8294677734375</ele>
        <time>2006-03-19T13:33:43Z</time>
      </trkpt>
      <trkpt lat="45.806014537811279" lon="9.141719341278076">
        <ele>501.945556640625</ele>
        <time>2006-03-19T13:33:50Z</time>
      </trkpt>
      <trkpt lat="45.805349349975586" lon="9.142470359802246">
        <ele>499.0615234375</ele>
        <time>2006-03-19T13:34:01Z</time>
      </trkpt>
      <trkpt lat="45.804619789123535" lon="9.143264293670654">
        <ele>494.2550048828125</ele>
        <time>2006-03-19T13:34:14Z</time>
      </trkpt>
      <trkpt lat="45.804276466369629" lon="9.143586158752441">
        <ele>489.9290771484375</ele>
        <time>2006-03-19T13:34:19Z</time>
      </trkpt>
      <trkpt lat="45.804061889648438" lon="9.143822193145752">
        <ele>489.4483642578125</ele>
        <time>2006-03-19T13:34:22Z</time>
      </trkpt>
      <trkpt lat="45.803632736206055" lon="9.144036769866943">
        <ele>488.4871826171875</ele>
        <time>2006-03-19T13:34:27Z</time>
      </trkpt>
      <trkpt lat="45.803461074829102" lon="9.144015312194824">
        <ele>486.564453125</ele>
        <time>2006-03-19T13:34:29Z</time>
      </trkpt>
      <trkpt lat="45.803289413452148" lon="9.143993854522705">
        <ele>484.641845703125</ele>
        <time>2006-03-19T13:34:31Z</time>
      </trkpt>
      <trkpt lat="45.802967548370361" lon="9.143779277801514">
        <ele>479.3544921875</ele>
        <time>2006-03-19T13:34:36Z</time>
      </trkpt>
      <trkpt lat="45.802903175354004" lon="9.143650531768799">
        <ele>476.4705810546875</ele>
        <time>2006-03-19T13:34:38Z</time>
      </trkpt>
      <trkpt lat="45.802817344665527" lon="9.143435955047607">
        <ele>473.1060791015625</ele>
        <time>2006-03-19T13:34:42Z</time>
      </trkpt>
      <trkpt lat="45.80275297164917" lon="9.143564701080322">
        <ele>469.7413330078125</ele>
        <time>2006-03-19T13:34:46Z</time>
      </trkpt>
      <trkpt lat="45.802795886993408" lon="9.143693447113037">
        <ele>465.8961181640625</ele>
        <time>2006-03-19T13:34:51Z</time>
      </trkpt>
      <trkpt lat="45.802838802337646" lon="9.143822193145752">
        <ele>463.0120849609375</ele>
        <time>2006-03-19T13:34:56Z</time>
      </trkpt>
      <trkpt lat="45.802838802337646" lon="9.143908023834229">
        <ele>461.0894775390625</ele>
        <time>2006-03-19T13:35:03Z</time>
      </trkpt>
      <trkpt lat="45.802838802337646" lon="9.143908023834229">
        <ele>457.2442626953125</ele>
        <time>2006-03-19T13:35:19Z</time>
      </trkpt>
      <trkpt lat="45.802924633026123" lon="9.144165515899658">
        <ele>453.39892578125</ele>
        <time>2006-03-19T13:35:25Z</time>
      </trkpt>
      <trkpt lat="45.802924633026123" lon="9.144229888916016">
        <ele>452.4376220703125</ele>
        <time>2006-03-19T13:35:26Z</time>
      </trkpt>
      <trkpt lat="45.802946090698242" lon="9.144423007965088">
        <ele>451.95703125</ele>
        <time>2006-03-19T13:35:28Z</time>
      </trkpt>
      <trkpt lat="45.803031921386719" lon="9.144659042358398">
        <ele>451.476318359375</ele>
        <time>2006-03-19T13:35:31Z</time>
      </trkpt>
      <trkpt lat="45.803225040435791" lon="9.144766330718994">
        <ele>450.5150146484375</ele>
        <time>2006-03-19T13:35:34Z</time>
      </trkpt>
      <trkpt lat="45.803182125091553" lon="9.144937992095947">
        <ele>448.5924072265625</ele>
        <time>2006-03-19T13:35:36Z</time>
      </trkpt>
      <trkpt lat="45.803139209747314" lon="9.145002365112305">
        <ele>447.6309814453125</ele>
        <time>2006-03-19T13:35:37Z</time>
      </trkpt>
      <trkpt lat="45.80298900604248" lon="9.145238399505615">
        <ele>443.7857666015625</ele>
        <time>2006-03-19T13:35:40Z</time>
      </trkpt>
      <trkpt lat="45.802516937255859" lon="9.145410060882568">
        <ele>437.537109375</ele>
        <time>2006-03-19T13:35:45Z</time>
      </trkpt>
      <trkpt lat="45.802345275878906" lon="9.145603179931641">
        <ele>434.6533203125</ele>
        <time>2006-03-19T13:35:48Z</time>
      </trkpt>
      <trkpt lat="45.802323818206787" lon="9.145731925964356">
        <ele>433.69189453125</ele>
        <time>2006-03-19T13:35:49Z</time>
      </trkpt>
      <trkpt lat="45.802173614501953" lon="9.146955013275147">
        <ele>430.8079833984375</ele>
        <time>2006-03-19T13:36:00Z</time>
      </trkpt>
      <trkpt lat="45.802130699157715" lon="9.147813320159912">
        <ele>427.443359375</ele>
        <time>2006-03-19T13:36:08Z</time>
      </trkpt>
      <trkpt lat="45.802130699157715" lon="9.148221015930176">
        <ele>426.9627685546875</ele>
        <time>2006-03-19T13:36:13Z</time>
      </trkpt>
      <trkpt lat="45.802001953125" lon="9.148778915405273">
        <ele>424.5594482421875</ele>
        <time>2006-03-19T13:36:20Z</time>
      </trkpt>
      <trkpt lat="45.801808834075928" lon="9.149487018585205">
        <ele>423.5980224609375</ele>
        <time>2006-03-19T13:36:28Z</time>
      </trkpt>
      <trkpt lat="45.801680088043213" lon="9.150259494781494">
        <ele>420.714111328125</ele>
        <time>2006-03-19T13:36:36Z</time>
      </trkpt>
      <trkpt lat="45.801808834075928" lon="9.150838851928711">
        <ele>418.310791015625</ele>
        <time>2006-03-19T13:36:41Z</time>
      </trkpt>
      <trkpt lat="45.801808834075928" lon="9.151053428649902">
        <ele>418.79150390625</ele>
        <time>2006-03-19T13:36:44Z</time>
      </trkpt>
      <trkpt lat="45.801765918731689" lon="9.151074886322022">
        <ele>418.79150390625</ele>
        <time>2006-03-19T13:36:45Z</time>
      </trkpt>
      <trkpt lat="45.801594257354736" lon="9.151139259338379">
        <ele>418.79150390625</ele>
        <time>2006-03-19T13:36:48Z</time>
      </trkpt>
      <trkpt lat="45.801143646240234" lon="9.151096343994141">
        <ele>418.79150390625</ele>
        <time>2006-03-19T13:36:55Z</time>
      </trkpt>
      <trkpt lat="45.800714492797852" lon="9.151074886322022">
        <ele>416.868896484375</ele>
        <time>2006-03-19T13:37:01Z</time>
      </trkpt>
      <trkpt lat="45.800285339355469" lon="9.151096343994141">
        <ele>415.907470703125</ele>
        <time>2006-03-19T13:37:08Z</time>
      </trkpt>
      <trkpt lat="45.800178050994873" lon="9.151396751403809">
        <ele>414.9461669921875</ele>
        <time>2006-03-19T13:37:13Z</time>
      </trkpt>
      <trkpt lat="45.800178050994873" lon="9.151461124420166">
        <ele>414.4654541015625</ele>
        <time>2006-03-19T13:37:14Z</time>
      </trkpt>
      <trkpt lat="45.800178050994873" lon="9.152297973632813">
        <ele>414.4654541015625</ele>
        <time>2006-03-19T13:37:24Z</time>
      </trkpt>
      <trkpt lat="45.800092220306396" lon="9.152877330780029">
        <ele>413.5042724609375</ele>
        <time>2006-03-19T13:37:31Z</time>
      </trkpt>
      <trkpt lat="45.800070762634277" lon="9.152963161468506">
        <ele>413.5042724609375</ele>
        <time>2006-03-19T13:37:32Z</time>
      </trkpt>
      <trkpt lat="45.799684524536133" lon="9.153800010681152">
        <ele>411.5816650390625</ele>
        <time>2006-03-19T13:37:42Z</time>
      </trkpt>
      <trkpt lat="45.799148082733154" lon="9.154958724975586">
        <ele>408.6976318359375</ele>
        <time>2006-03-19T13:37:55Z</time>
      </trkpt>
      <trkpt lat="45.798525810241699" lon="9.156267642974854">
        <ele>406.77490234375</ele>
        <time>2006-03-19T13:38:09Z</time>
      </trkpt>
      <trkpt lat="45.798075199127197" lon="9.156911373138428">
        <ele>405.813720703125</ele>
        <time>2006-03-19T13:38:17Z</time>
      </trkpt>
      <trkpt lat="45.797860622406006" lon="9.157383441925049">
        <ele>404.852294921875</ele>
        <time>2006-03-19T13:38:22Z</time>
      </trkpt>
      <trkpt lat="45.797581672668457" lon="9.158670902252197">
        <ele>402.9296875</ele>
        <time>2006-03-19T13:38:34Z</time>
      </trkpt>
      <trkpt lat="45.797367095947266" lon="9.159743785858154">
        <ele>400.5264892578125</ele>
        <time>2006-03-19T13:38:44Z</time>
      </trkpt>
      <trkpt lat="45.797195434570313" lon="9.161009788513184">
        <ele>396.68115234375</ele>
        <time>2006-03-19T13:38:55Z</time>
      </trkpt>
      <trkpt lat="45.797023773193359" lon="9.162533283233643">
        <ele>394.758544921875</ele>
        <time>2006-03-19T13:39:08Z</time>
      </trkpt>
      <trkpt lat="45.796937942504883" lon="9.164249897003174">
        <ele>394.758544921875</ele>
        <time>2006-03-19T13:39:23Z</time>
      </trkpt>
      <trkpt lat="45.796895027160645" lon="9.165129661560059">
        <ele>395.2391357421875</ele>
        <time>2006-03-19T13:39:32Z</time>
      </trkpt>
      <trkpt lat="45.796809196472168" lon="9.166073799133301">
        <ele>394.2779541015625</ele>
        <time>2006-03-19T13:39:43Z</time>
      </trkpt>
      <trkpt lat="45.796680450439453" lon="9.166889190673828">
        <ele>394.758544921875</ele>
        <time>2006-03-19T13:39:53Z</time>
      </trkpt>
      <trkpt lat="45.796444416046143" lon="9.167747497558594">
        <ele>395.2391357421875</ele>
        <time>2006-03-19T13:40:04Z</time>
      </trkpt>
      <trkpt lat="45.795929431915283" lon="9.169142246246338">
        <ele>395.2391357421875</ele>
        <time>2006-03-19T13:40:22Z</time>
      </trkpt>
      <trkpt lat="45.795671939849854" lon="9.16985034942627">
        <ele>395.2391357421875</ele>
        <time>2006-03-19T13:40:32Z</time>
      </trkpt>
      <trkpt lat="45.795693397521973" lon="9.170236587524414">
        <ele>395.2391357421875</ele>
        <time>2006-03-19T13:40:37Z</time>
      </trkpt>
      <trkpt lat="45.795736312866211" lon="9.170365333557129">
        <ele>395.2391357421875</ele>
        <time>2006-03-19T13:40:39Z</time>
      </trkpt>
      <trkpt lat="45.795865058898926" lon="9.170644283294678">
        <ele>395.2391357421875</ele>
        <time>2006-03-19T13:40:43Z</time>
      </trkpt>
      <trkpt lat="45.79601526260376" lon="9.171566963195801">
        <ele>394.758544921875</ele>
        <time>2006-03-19T13:40:55Z</time>
      </trkpt>
      <trkpt lat="45.796315670013428" lon="9.172360897064209">
        <ele>395.7198486328125</ele>
        <time>2006-03-19T13:41:06Z</time>
      </trkpt>
      <trkpt lat="45.796401500701904" lon="9.172918796539307">
        <ele>396.68115234375</ele>
        <time>2006-03-19T13:41:13Z</time>
      </trkpt>
      <trkpt lat="45.796358585357666" lon="9.173626899719238">
        <ele>398.603759765625</ele>
        <time>2006-03-19T13:41:22Z</time>
      </trkpt>
      <trkpt lat="45.796315670013428" lon="9.174270629882813">
        <ele>399.0843505859375</ele>
        <time>2006-03-19T13:41:32Z</time>
      </trkpt>
      <trkpt lat="45.796272754669189" lon="9.175257682800293">
        <ele>401.48779296875</ele>
        <time>2006-03-19T13:41:48Z</time>
      </trkpt>
      <trkpt lat="45.796358585357666" lon="9.175815582275391">
        <ele>401.968505859375</ele>
        <time>2006-03-19T13:41:57Z</time>
      </trkpt>
      <trkpt lat="45.796551704406738" lon="9.176502227783203">
        <ele>403.89111328125</ele>
        <time>2006-03-19T13:42:08Z</time>
      </trkpt>
      <trkpt lat="45.796723365783691" lon="9.176952838897705">
        <ele>404.852294921875</ele>
        <time>2006-03-19T13:42:15Z</time>
      </trkpt>
      <trkpt lat="45.79700231552124" lon="9.177789688110352">
        <ele>405.3330078125</ele>
        <time>2006-03-19T13:42:27Z</time>
      </trkpt>
      <trkpt lat="45.797302722930908" lon="9.178647994995117">
        <ele>404.852294921875</ele>
        <time>2006-03-19T13:42:38Z</time>
      </trkpt>
      <trkpt lat="45.797603130340576" lon="9.179592132568359">
        <ele>404.852294921875</ele>
        <time>2006-03-19T13:42:50Z</time>
      </trkpt>
      <trkpt lat="45.797903537750244" lon="9.18081521987915">
        <ele>405.813720703125</ele>
        <time>2006-03-19T13:43:05Z</time>
      </trkpt>
      <trkpt lat="45.798118114471436" lon="9.181694984436035">
        <ele>406.77490234375</ele>
        <time>2006-03-19T13:43:16Z</time>
      </trkpt>
      <trkpt lat="45.798182487487793" lon="9.182167053222656">
        <ele>408.217041015625</ele>
        <time>2006-03-19T13:43:23Z</time>
      </trkpt>
      <trkpt lat="45.798225402832031" lon="9.182252883911133">
        <ele>408.217041015625</ele>
        <time>2006-03-19T13:43:25Z</time>
      </trkpt>
      <trkpt lat="45.798182487487793" lon="9.18257474899292">
        <ele>408.6976318359375</ele>
        <time>2006-03-19T13:43:31Z</time>
      </trkpt>
      <trkpt lat="45.798311233520508" lon="9.182939529418945">
        <ele>408.217041015625</ele>
        <time>2006-03-19T13:43:37Z</time>
      </trkpt>
      <trkpt lat="45.798332691192627" lon="9.182982444763184">
        <ele>408.217041015625</ele>
        <time>2006-03-19T13:43:38Z</time>
      </trkpt>
      <trkpt lat="45.798418521881104" lon="9.18306827545166">
        <ele>408.217041015625</ele>
        <time>2006-03-19T13:43:40Z</time>
      </trkpt>
      <trkpt lat="45.798783302307129" lon="9.183347225189209">
        <ele>409.1783447265625</ele>
        <time>2006-03-19T13:43:50Z</time>
      </trkpt>
      <trkpt lat="45.799233913421631" lon="9.183669090270996">
        <ele>410.6202392578125</ele>
        <time>2006-03-19T13:44:02Z</time>
      </trkpt>
      <trkpt lat="45.799684524536133" lon="9.184012413024902">
        <ele>412.062255859375</ele>
        <time>2006-03-19T13:44:14Z</time>
      </trkpt>
      <trkpt lat="45.800070762634277" lon="9.184269905090332">
        <ele>410.6202392578125</ele>
        <time>2006-03-19T13:44:25Z</time>
      </trkpt>
      <trkpt lat="45.80024242401123" lon="9.184205532073975">
        <ele>411.5816650390625</ele>
        <time>2006-03-19T13:44:30Z</time>
      </trkpt>
      <trkpt lat="45.800371170043945" lon="9.184184074401856">
        <ele>412.062255859375</ele>
        <time>2006-03-19T13:44:34Z</time>
      </trkpt>
      <trkpt lat="45.800414085388184" lon="9.184269905090332">
        <ele>412.5428466796875</ele>
        <time>2006-03-19T13:44:37Z</time>
      </trkpt>
      <trkpt lat="45.800478458404541" lon="9.184398651123047">
        <ele>413.98486328125</ele>
        <time>2006-03-19T13:44:45Z</time>
      </trkpt>
      <trkpt lat="45.800478458404541" lon="9.184398651123047">
        <ele>415.4268798828125</ele>
        <time>2006-03-19T13:44:50Z</time>
      </trkpt>
    </trkseg>
  </trk>

</gpx>
